Time,TemperatureF,DewpointF,PressureIn,WindDirection,WindDirectionDegrees,WindSpeedMPH,WindSpeedGustMPH,Humidity,HourlyPrecipIn,Conditions,Clouds,dailyrainin,SoftwareType,DateUTC
2013-02-16 00:00:00,15.6,1.1,29.06,NNE,12,0.0,3.6,52,0.00,,---,0.00,VWS V14.01,2013-02-16 05:00:00,
2013-02-16 00:01:00,15.4,1.0,29.06,NNE,13,0.0,0.0,52,0.00,,---,0.00,VWS V14.01,2013-02-16 05:01:00,
2013-02-16 00:02:00,15.4,1.4,29.06,NNE,12,2.7,3.1,53,0.00,,---,0.00,VWS V14.01,2013-02-16 05:02:00,
2013-02-16 00:03:00,15.4,1.8,29.06,North,10,0.0,4.9,54,0.00,,---,0.00,VWS V14.01,2013-02-16 05:03:00,
2013-02-16 00:04:00,15.3,1.6,29.06,North,10,0.0,2.7,54,0.00,,---,0.00,VWS V14.01,2013-02-16 05:04:00,
2013-02-16 00:05:00,15.3,1.6,29.06,North,351,4.9,6.3,54,0.00,,---,0.00,VWS V14.01,2013-02-16 05:05:00,
2013-02-16 00:06:00,15.3,2.0,29.06,NNW,339,4.5,5.8,55,0.00,,---,0.00,VWS V14.01,2013-02-16 05:06:00,
2013-02-16 00:07:00,15.3,2.0,29.06,NNW,339,4.0,4.5,55,0.00,,---,0.00,VWS V14.01,2013-02-16 05:07:00,
2013-02-16 00:08:00,15.3,2.4,29.06,NNW,339,3.6,4.0,56,0.00,,---,0.00,VWS V14.01,2013-02-16 05:08:00,
2013-02-16 00:09:00,15.3,2.4,29.06,NNW,339,3.1,3.6,56,0.00,,---,0.00,VWS V14.01,2013-02-16 05:09:00,
2013-02-16 00:10:00,15.3,2.8,29.06,NNW,339,4.0,4.9,57,0.00,,---,0.00,VWS V14.01,2013-02-16 05:10:00,
2013-02-16 00:11:00,15.3,2.8,29.06,NNW,339,3.6,4.9,57,0.00,,---,0.00,VWS V14.01,2013-02-16 05:11:00,
2013-02-16 00:12:00,15.3,2.8,29.06,NNW,339,4.9,4.9,57,0.00,,---,0.00,VWS V14.01,2013-02-16 05:12:00,
2013-02-16 00:13:00,15.3,2.8,29.06,NNW,339,0.0,4.9,57,0.00,,---,0.00,VWS V14.01,2013-02-16 05:13:00,
2013-02-16 00:14:00,15.3,2.8,29.06,NNW,338,4.9,5.4,57,0.00,,---,0.00,VWS V14.01,2013-02-16 05:14:00,
2013-02-16 00:15:00,15.3,3.1,29.06,NNW,339,4.0,5.8,58,0.00,,---,0.00,VWS V14.01,2013-02-16 05:15:00,
2013-02-16 00:16:00,15.3,3.1,29.06,NNW,338,3.6,5.8,58,0.00,,---,0.00,VWS V14.01,2013-02-16 05:16:00,
2013-02-16 00:17:00,15.3,3.1,29.06,NNW,338,5.4,5.4,58,0.00,,---,0.00,VWS V14.01,2013-02-16 05:17:00,
2013-02-16 00:18:00,15.3,3.1,29.06,NNW,338,4.0,5.4,58,0.00,,---,0.00,VWS V14.01,2013-02-16 05:18:00,
2013-02-16 00:19:00,15.1,3.0,29.06,NNW,338,3.6,4.5,58,0.00,,---,0.00,VWS V14.01,2013-02-16 05:19:00,
2013-02-16 00:20:00,15.1,3.0,29.06,NNW,338,4.5,6.3,58,0.00,,---,0.00,VWS V14.01,2013-02-16 05:20:00,
2013-02-16 00:21:00,15.1,3.0,29.06,NNW,338,4.5,5.4,58,0.00,,---,0.00,VWS V14.01,2013-02-16 05:21:00,
2013-02-16 00:22:00,15.1,3.0,29.06,NNW,338,4.5,5.8,58,0.00,,---,0.00,VWS V14.01,2013-02-16 05:22:00,
2013-02-16 00:23:00,15.1,3.0,29.06,NNW,337,5.4,5.4,58,0.00,,---,0.00,VWS V14.01,2013-02-16 05:23:00,
2013-02-16 00:24:00,15.1,3.0,29.06,NNW,337,3.6,5.4,58,0.00,,---,0.00,VWS V14.01,2013-02-16 05:24:00,
2013-02-16 00:25:00,15.1,3.0,29.06,NNW,337,4.0,5.8,58,0.00,,---,0.00,VWS V14.01,2013-02-16 05:25:00,
2013-02-16 00:26:00,15.1,3.3,29.06,NW,321,4.9,7.4,59,0.00,,---,0.00,VWS V14.01,2013-02-16 05:26:00,
2013-02-16 00:27:00,15.1,3.0,29.06,NW,322,3.6,5.4,58,0.00,,---,0.00,VWS V14.01,2013-02-16 05:27:00,
2013-02-16 00:28:00,15.1,3.0,29.06,NNW,329,4.9,6.3,58,0.00,,---,0.00,VWS V14.01,2013-02-16 05:28:00,
2013-02-16 00:29:00,15.1,3.0,29.06,NNW,329,3.6,4.9,58,0.00,,---,0.00,VWS V14.01,2013-02-16 05:29:00,
2013-02-16 00:30:00,14.9,2.8,29.06,NNW,330,4.0,4.9,58,0.00,,---,0.00,VWS V14.01,2013-02-16 05:30:00,
2013-02-16 00:31:00,14.9,3.2,29.06,NNW,329,4.9,5.4,59,0.00,,---,0.00,VWS V14.01,2013-02-16 05:31:00,
2013-02-16 00:32:00,14.9,3.2,29.06,NNW,329,3.6,4.9,59,0.00,,---,0.00,VWS V14.01,2013-02-16 05:32:00,
2013-02-16 00:33:00,18.1,11.9,29.06,NNW,330,0.0,0.0,76,0.00,,---,0.00,VWS V14.01,2013-02-16 05:33:00,
2013-02-16 00:34:00,14.9,3.2,29.06,NNW,329,4.5,4.5,59,0.00,,---,0.00,VWS V14.01,2013-02-16 05:34:00,
2013-02-16 00:35:00,14.9,3.2,29.06,NNW,329,3.1,4.5,59,0.00,,---,0.00,VWS V14.01,2013-02-16 05:35:00,
2013-02-16 00:36:00,14.7,3.0,29.03,NNW,329,2.7,4.0,59,0.00,,---,0.00,VWS V14.01,2013-02-16 05:36:00,
2013-02-16 00:37:00,14.7,3.0,29.03,NNW,329,0.0,4.5,59,0.00,,---,0.00,VWS V14.01,2013-02-16 05:37:00,
2013-02-16 00:38:00,14.7,3.4,29.03,NNW,329,2.7,3.6,60,0.00,,---,0.00,VWS V14.01,2013-02-16 05:38:00,
2013-02-16 00:39:00,14.7,3.4,29.03,NNW,329,0.0,4.9,60,0.00,,---,0.00,VWS V14.01,2013-02-16 05:39:00,
2013-02-16 00:40:00,14.7,3.4,29.03,NNW,329,3.1,3.1,60,0.00,,---,0.00,VWS V14.01,2013-02-16 05:40:00,
2013-02-16 00:41:00,14.5,3.2,29.03,NNW,329,4.9,4.9,60,0.00,,---,0.00,VWS V14.01,2013-02-16 05:41:00,
2013-02-16 00:42:00,14.5,3.2,29.03,NNW,329,4.5,4.9,60,0.00,,---,0.00,VWS V14.01,2013-02-16 05:42:00,
2013-02-16 00:43:00,18.7,12.7,29.06,NNW,330,0.0,0.0,77,0.00,,---,0.00,VWS V14.01,2013-02-16 05:43:00,
2013-02-16 00:44:00,14.5,3.2,29.03,NNW,329,2.7,3.6,60,0.00,,---,0.00,VWS V14.01,2013-02-16 05:44:00,
2013-02-16 00:45:00,14.4,3.0,29.03,NNW,329,3.6,3.6,60,0.00,,---,0.00,VWS V14.01,2013-02-16 05:45:00,
2013-02-16 00:46:00,14.4,3.0,29.03,NNW,329,4.0,4.0,60,0.00,,---,0.00,VWS V14.01,2013-02-16 05:46:00,
2013-02-16 00:47:00,14.4,3.0,29.03,NNW,329,4.0,4.0,60,0.00,,---,0.00,VWS V14.01,2013-02-16 05:47:00,
2013-02-16 00:48:00,14.4,3.0,29.03,NNW,329,3.1,4.0,60,0.00,,---,0.00,VWS V14.01,2013-02-16 05:48:00,
2013-02-16 00:49:00,19.4,13.7,29.06,NNW,330,0.0,0.0,78,0.00,,---,0.00,VWS V14.01,2013-02-16 05:49:00,
2013-02-16 00:50:00,14.4,3.0,29.03,NNW,329,3.1,5.4,60,0.00,,---,0.00,VWS V14.01,2013-02-16 05:50:00,
2013-02-16 00:51:00,14.2,3.2,29.03,NNW,329,2.7,3.6,61,0.00,,---,0.00,VWS V14.01,2013-02-16 05:51:00,
2013-02-16 00:52:00,14.2,3.2,29.03,NNW,329,3.1,4.0,61,0.00,,---,0.00,VWS V14.01,2013-02-16 05:52:00,
2013-02-16 00:53:00,14.2,3.2,29.03,NNW,329,0.0,3.6,61,0.00,,---,0.00,VWS V14.01,2013-02-16 05:53:00,
2013-02-16 00:54:00,14.2,3.2,29.03,NNW,329,3.1,3.1,61,0.00,,---,0.00,VWS V14.01,2013-02-16 05:54:00,
2013-02-16 00:55:00,19.8,14.3,29.06,NNW,329,0.0,0.0,79,0.00,,---,0.00,VWS V14.01,2013-02-16 05:55:00,
2013-02-16 00:56:00,14.2,3.2,29.03,NNW,329,3.6,5.4,61,0.00,,---,0.00,VWS V14.01,2013-02-16 05:56:00,
2013-02-16 00:57:00,14.0,3.0,29.03,NNW,329,3.1,3.6,61,0.00,,---,0.00,VWS V14.01,2013-02-16 05:57:00,
2013-02-16 00:58:00,14.0,3.0,29.03,NNW,329,0.0,3.6,61,0.00,,---,0.00,VWS V14.01,2013-02-16 05:58:00,
2013-02-16 00:59:00,14.0,3.4,29.03,NNW,329,0.0,2.7,62,0.00,,---,0.00,VWS V14.01,2013-02-16 05:59:00,
2013-02-16 01:00:00,14.0,3.4,29.03,NNW,329,0.0,4.5,62,0.00,,---,0.00,VWS V14.01,2013-02-16 06:00:00,
2013-02-16 01:01:00,20.1,14.9,29.06,NNW,330,0.0,0.0,80,0.00,,---,0.00,VWS V14.01,2013-02-16 06:01:00,
2013-02-16 01:02:00,14.0,3.4,29.03,NNW,329,2.7,3.1,62,0.00,,---,0.00,VWS V14.01,2013-02-16 06:02:00,
2013-02-16 01:03:00,14.0,3.4,29.03,NNW,329,0.0,3.1,62,0.00,,---,0.00,VWS V14.01,2013-02-16 06:03:00,
2013-02-16 01:04:00,14.0,3.4,29.03,NNW,329,2.7,2.7,62,0.00,,---,0.00,VWS V14.01,2013-02-16 06:04:00,
2013-02-16 01:05:00,13.8,3.2,29.03,NNW,329,3.1,4.5,62,0.00,,---,0.00,VWS V14.01,2013-02-16 06:05:00,
2013-02-16 01:06:00,13.8,3.6,29.03,NNW,329,4.0,4.5,63,0.00,,---,0.00,VWS V14.01,2013-02-16 06:06:00,
2013-02-16 01:07:00,20.5,15.3,29.06,NNW,329,0.0,0.0,80,0.00,,---,0.00,VWS V14.01,2013-02-16 06:07:00,
2013-02-16 01:08:00,13.8,3.6,29.03,NNW,329,4.0,4.0,63,0.00,,---,0.00,VWS V14.01,2013-02-16 06:08:00,
2013-02-16 01:09:00,13.8,3.6,29.03,NNW,329,3.6,4.5,63,0.00,,---,0.00,VWS V14.01,2013-02-16 06:09:00,
2013-02-16 01:10:00,13.8,3.6,29.03,NNW,329,3.1,4.0,63,0.00,,---,0.00,VWS V14.01,2013-02-16 06:10:00,
2013-02-16 01:11:00,13.8,3.6,29.03,NNW,329,0.0,4.5,63,0.00,,---,0.00,VWS V14.01,2013-02-16 06:11:00,
2013-02-16 01:12:00,20.7,15.8,29.06,NNW,329,0.0,0.0,81,0.00,,---,0.00,VWS V14.01,2013-02-16 06:12:00,
2013-02-16 01:13:00,13.6,3.4,29.03,NNW,329,0.0,0.0,63,0.00,,---,0.00,VWS V14.01,2013-02-16 06:13:00,
2013-02-16 01:14:00,13.6,3.4,29.03,NNW,329,0.0,0.0,63,0.00,,---,0.00,VWS V14.01,2013-02-16 06:14:00,
2013-02-16 01:15:00,13.6,3.4,29.03,NNW,329,0.0,3.6,63,0.00,,---,0.00,VWS V14.01,2013-02-16 06:15:00,
2013-02-16 01:16:00,13.6,3.4,29.03,NNW,329,3.6,3.6,63,0.00,,---,0.00,VWS V14.01,2013-02-16 06:16:00,
2013-02-16 01:17:00,13.6,3.4,29.03,NNW,329,0.0,3.6,63,0.00,,---,0.00,VWS V14.01,2013-02-16 06:17:00,
2013-02-16 01:18:00,13.6,3.4,29.03,NNW,329,2.7,4.0,63,0.00,,---,0.00,VWS V14.01,2013-02-16 06:18:00,
2013-02-16 01:19:00,20.8,15.9,29.03,NNW,329,0.0,0.0,81,0.00,,---,0.00,VWS V14.01,2013-02-16 06:19:00,
2013-02-16 01:20:00,13.5,3.2,29.03,NNW,329,3.1,3.6,63,0.00,,---,0.00,VWS V14.01,2013-02-16 06:20:00,
2013-02-16 01:21:00,13.5,3.2,29.03,NNW,329,3.1,4.0,63,0.00,,---,0.00,VWS V14.01,2013-02-16 06:21:00,
2013-02-16 01:22:00,13.5,3.2,29.03,NNW,329,2.7,3.6,63,0.00,,---,0.00,VWS V14.01,2013-02-16 06:22:00,
2013-02-16 01:23:00,13.5,3.2,29.03,NNW,329,2.7,3.1,63,0.00,,---,0.00,VWS V14.01,2013-02-16 06:23:00,
2013-02-16 01:24:00,13.5,3.2,29.03,NNW,329,0.0,2.7,63,0.00,,---,0.00,VWS V14.01,2013-02-16 06:24:00,
2013-02-16 01:25:00,21.2,16.3,29.03,NNW,329,0.0,0.0,81,0.00,,---,0.00,VWS V14.01,2013-02-16 06:25:00,
2013-02-16 01:26:00,13.3,3.1,29.03,NNW,329,0.0,0.0,63,0.00,,---,0.00,VWS V14.01,2013-02-16 06:26:00,
2013-02-16 01:27:00,13.3,3.1,29.03,NNW,329,0.0,0.0,63,0.00,,---,0.00,VWS V14.01,2013-02-16 06:27:00,
2013-02-16 01:28:00,13.3,3.1,29.03,NNW,329,0.0,0.0,63,0.00,,---,0.00,VWS V14.01,2013-02-16 06:28:00,
2013-02-16 01:29:00,13.3,3.1,29.03,NNW,329,0.0,0.0,63,0.00,,---,0.00,VWS V14.01,2013-02-16 06:29:00,
2013-02-16 01:30:00,21.4,16.5,29.03,NNW,330,0.0,0.0,81,0.00,,---,0.00,VWS V14.01,2013-02-16 06:30:00,
2013-02-16 01:31:00,13.3,3.1,29.03,NNW,329,2.7,4.0,63,0.00,,---,0.00,VWS V14.01,2013-02-16 06:31:00,
2013-02-16 01:32:00,13.3,3.1,29.03,NNW,329,2.7,2.7,63,0.00,,---,0.00,VWS V14.01,2013-02-16 06:32:00,
2013-02-16 01:33:00,13.1,2.9,29.03,NNW,329,3.1,3.1,63,0.00,,---,0.00,VWS V14.01,2013-02-16 06:33:00,
2013-02-16 01:34:00,13.1,2.9,29.03,NNW,329,2.7,3.1,63,0.00,,---,0.00,VWS V14.01,2013-02-16 06:34:00,
2013-02-16 01:35:00,21.6,16.6,29.03,NNW,329,0.0,0.0,81,0.00,,---,0.00,VWS V14.01,2013-02-16 06:35:00,
2013-02-16 01:36:00,13.1,2.9,29.03,NNW,329,0.0,0.0,63,0.00,,---,0.00,VWS V14.01,2013-02-16 06:36:00,
2013-02-16 01:37:00,13.1,2.9,29.03,NNW,329,0.0,0.0,63,0.00,,---,0.00,VWS V14.01,2013-02-16 06:37:00,
2013-02-16 01:38:00,13.1,2.9,29.03,NNW,329,2.7,3.1,63,0.00,,---,0.00,VWS V14.01,2013-02-16 06:38:00,
2013-02-16 01:39:00,13.1,2.9,29.03,NNW,329,0.0,3.6,63,0.00,,---,0.00,VWS V14.01,2013-02-16 06:39:00,
2013-02-16 01:40:00,13.1,2.9,29.03,NNW,329,0.0,0.0,63,0.00,,---,0.00,VWS V14.01,2013-02-16 06:40:00,
2013-02-16 01:41:00,13.1,2.9,29.03,NNW,329,0.0,0.0,63,0.00,,---,0.00,VWS V14.01,2013-02-16 06:41:00,
2013-02-16 01:42:00,21.6,16.6,29.03,NNW,330,0.0,0.0,81,0.00,,---,0.00,VWS V14.01,2013-02-16 06:42:00,
2013-02-16 01:43:00,13.1,2.9,29.03,NNW,329,0.0,0.0,63,0.00,,---,0.00,VWS V14.01,2013-02-16 06:43:00,
2013-02-16 01:44:00,13.1,2.9,29.03,NNW,329,0.0,0.0,63,0.00,,---,0.00,VWS V14.01,2013-02-16 06:44:00,
2013-02-16 01:45:00,13.1,2.9,29.03,NNW,329,0.0,0.0,63,0.00,,---,0.00,VWS V14.01,2013-02-16 06:45:00,
2013-02-16 01:46:00,13.1,2.9,29.03,NNW,329,0.0,0.0,63,0.00,,---,0.00,VWS V14.01,2013-02-16 06:46:00,
2013-02-16 01:47:00,21.6,16.6,29.03,NNW,329,0.0,0.0,81,0.00,,---,0.00,VWS V14.01,2013-02-16 06:47:00,
2013-02-16 01:48:00,13.1,2.9,29.03,NNW,329,0.0,0.0,63,0.00,,---,0.00,VWS V14.01,2013-02-16 06:48:00,
2013-02-16 01:49:00,13.1,2.9,29.03,NNW,329,0.0,0.0,63,0.00,,---,0.00,VWS V14.01,2013-02-16 06:49:00,
2013-02-16 01:50:00,13.1,2.9,29.03,NNW,329,0.0,0.0,63,0.00,,---,0.00,VWS V14.01,2013-02-16 06:50:00,
2013-02-16 01:51:00,13.1,2.9,29.03,NNW,329,0.0,0.0,63,0.00,,---,0.00,VWS V14.01,2013-02-16 06:51:00,
2013-02-16 01:52:00,21.4,16.5,29.03,NNW,329,0.0,0.0,81,0.00,,---,0.00,VWS V14.01,2013-02-16 06:52:00,
2013-02-16 01:53:00,13.1,2.9,29.03,NNW,329,0.0,0.0,63,0.00,,---,0.00,VWS V14.01,2013-02-16 06:53:00,
2013-02-16 01:54:00,13.1,2.9,29.03,NNW,329,0.0,0.0,63,0.00,,---,0.00,VWS V14.01,2013-02-16 06:54:00,
2013-02-16 01:55:00,13.1,2.9,29.03,NNW,329,0.0,0.0,63,0.00,,---,0.00,VWS V14.01,2013-02-16 06:55:00,
2013-02-16 01:56:00,13.1,2.9,29.03,NNW,329,0.0,0.0,63,0.00,,---,0.00,VWS V14.01,2013-02-16 06:56:00,
2013-02-16 01:57:00,21.0,16.1,29.03,NNW,329,0.0,0.0,81,0.00,,---,0.00,VWS V14.01,2013-02-16 06:57:00,
2013-02-16 01:58:00,13.1,2.9,29.03,NNW,329,3.1,3.1,63,0.00,,---,0.00,VWS V14.01,2013-02-16 06:58:00,
2013-02-16 01:59:00,13.1,2.9,29.03,NNW,329,3.1,3.1,63,0.00,,---,0.00,VWS V14.01,2013-02-16 06:59:00,
2013-02-16 02:00:00,12.9,2.7,29.03,NNW,329,0.0,4.0,63,0.00,,---,0.00,VWS V14.01,2013-02-16 07:00:00,
2013-02-16 02:01:00,12.7,2.5,29.03,NNW,329,0.0,2.7,63,0.00,,---,0.00,VWS V14.01,2013-02-16 07:01:00,
2013-02-16 02:02:00,20.8,15.9,29.03,NNW,329,0.0,0.0,81,0.00,,---,0.00,VWS V14.01,2013-02-16 07:02:00,
2013-02-16 02:03:00,12.7,2.5,29.03,NNW,329,0.0,0.0,63,0.00,,---,0.00,VWS V14.01,2013-02-16 07:03:00,
2013-02-16 02:04:00,12.6,2.4,29.03,NNW,329,0.0,3.1,63,0.00,,---,0.00,VWS V14.01,2013-02-16 07:04:00,
2013-02-16 02:05:00,12.6,2.4,29.03,NNW,329,0.0,0.0,63,0.00,,---,0.00,VWS V14.01,2013-02-16 07:05:00,
2013-02-16 02:06:00,12.6,2.4,29.06,NNW,329,0.0,0.0,63,0.00,,---,0.00,VWS V14.01,2013-02-16 07:06:00,
2013-02-16 02:07:00,21.0,16.1,29.03,NNW,329,0.0,0.0,81,0.00,,---,0.00,VWS V14.01,2013-02-16 07:07:00,
2013-02-16 02:08:00,12.6,2.4,29.06,NNW,329,0.0,3.6,63,0.00,,---,0.00,VWS V14.01,2013-02-16 07:08:00,
2013-02-16 02:09:00,12.4,2.2,29.06,NNW,329,0.0,0.0,63,0.00,,---,0.00,VWS V14.01,2013-02-16 07:09:00,
2013-02-16 02:10:00,12.4,2.2,29.06,NNW,329,0.0,2.7,63,0.00,,---,0.00,VWS V14.01,2013-02-16 07:10:00,
2013-02-16 02:11:00,12.4,2.2,29.06,NNW,329,2.7,3.1,63,0.00,,---,0.00,VWS V14.01,2013-02-16 07:11:00,
2013-02-16 02:12:00,12.4,2.2,29.06,NNW,329,3.6,4.0,63,0.00,,---,0.00,VWS V14.01,2013-02-16 07:12:00,
2013-02-16 02:13:00,21.2,16.3,29.03,NNW,329,0.0,0.0,81,0.00,,---,0.00,VWS V14.01,2013-02-16 07:13:00,
2013-02-16 02:14:00,12.6,2.4,29.06,NNW,329,0.0,0.0,63,0.00,,---,0.00,VWS V14.01,2013-02-16 07:14:00,
2013-02-16 02:15:00,12.6,2.4,29.06,NNW,329,0.0,0.0,63,0.00,,---,0.00,VWS V14.01,2013-02-16 07:15:00,
2013-02-16 02:16:00,12.4,2.2,29.06,NNW,329,0.0,0.0,63,0.00,,---,0.00,VWS V14.01,2013-02-16 07:16:00,
2013-02-16 02:17:00,12.6,2.4,29.06,NNW,329,0.0,0.0,63,0.00,,---,0.00,VWS V14.01,2013-02-16 07:17:00,
2013-02-16 02:18:00,21.4,16.5,29.03,NNW,329,0.0,0.0,81,0.00,,---,0.00,VWS V14.01,2013-02-16 07:18:00,
2013-02-16 02:19:00,12.4,2.2,29.06,NNW,329,0.0,0.0,63,0.00,,---,0.00,VWS V14.01,2013-02-16 07:19:00,
2013-02-16 02:20:00,12.4,2.2,29.06,NNW,329,0.0,0.0,63,0.00,,---,0.00,VWS V14.01,2013-02-16 07:20:00,
2013-02-16 02:21:00,12.6,2.4,29.06,NNW,329,3.1,4.5,63,0.00,,---,0.00,VWS V14.01,2013-02-16 07:21:00,
2013-02-16 02:22:00,12.6,2.4,29.06,NNW,329,2.7,4.0,63,0.00,,---,0.00,VWS V14.01,2013-02-16 07:22:00,
2013-02-16 02:23:00,21.6,16.6,29.03,NNW,329,0.0,0.0,81,0.00,,---,0.00,VWS V14.01,2013-02-16 07:23:00,
2013-02-16 02:24:00,12.6,2.4,29.06,NNW,329,3.6,4.0,63,0.00,,---,0.00,VWS V14.01,2013-02-16 07:24:00,
2013-02-16 02:25:00,12.6,2.4,29.06,NNW,329,0.0,3.6,63,0.00,,---,0.00,VWS V14.01,2013-02-16 07:25:00,
2013-02-16 02:26:00,12.6,2.4,29.06,NNW,329,0.0,3.6,63,0.00,,---,0.00,VWS V14.01,2013-02-16 07:26:00,
2013-02-16 02:27:00,12.7,2.5,29.06,NNW,329,3.6,4.0,63,0.00,,---,0.00,VWS V14.01,2013-02-16 07:27:00,
2013-02-16 02:28:00,21.7,17.1,29.03,NNW,329,0.0,0.0,82,0.00,,---,0.00,VWS V14.01,2013-02-16 07:28:00,
2013-02-16 02:29:00,12.6,2.4,29.06,NNW,329,3.1,3.6,63,0.00,,---,0.00,VWS V14.01,2013-02-16 07:29:00,
2013-02-16 02:30:00,12.7,2.5,29.06,NNW,329,2.7,4.9,63,0.00,,---,0.00,VWS V14.01,2013-02-16 07:30:00,
2013-02-16 02:31:00,12.7,2.5,29.06,NNW,329,0.0,2.7,63,0.00,,---,0.00,VWS V14.01,2013-02-16 07:31:00,
2013-02-16 02:32:00,12.6,2.4,29.06,NNW,329,0.0,3.1,63,0.00,,---,0.00,VWS V14.01,2013-02-16 07:32:00,
2013-02-16 02:33:00,22.1,17.5,29.03,NNW,329,0.0,0.0,82,0.00,,---,0.00,VWS V14.01,2013-02-16 07:33:00,
2013-02-16 02:34:00,12.6,2.4,29.06,NNW,329,0.0,2.7,63,0.00,,---,0.00,VWS V14.01,2013-02-16 07:34:00,
2013-02-16 02:35:00,12.6,2.4,29.06,NNW,329,2.7,3.6,63,0.00,,---,0.00,VWS V14.01,2013-02-16 07:35:00,
2013-02-16 02:36:00,12.6,2.4,29.06,NNW,329,0.0,4.0,63,0.00,,---,0.00,VWS V14.01,2013-02-16 07:36:00,
2013-02-16 02:37:00,12.6,2.4,29.06,NNW,329,2.7,3.6,63,0.00,,---,0.00,VWS V14.01,2013-02-16 07:37:00,
2013-02-16 02:38:00,22.1,17.2,29.03,NNW,329,0.0,0.0,81,0.00,,---,0.00,VWS V14.01,2013-02-16 07:38:00,
2013-02-16 02:39:00,12.6,2.4,29.06,NNW,329,0.0,0.0,63,0.00,,---,0.00,VWS V14.01,2013-02-16 07:39:00,
2013-02-16 02:40:00,12.6,2.4,29.06,NNW,329,3.1,3.1,63,0.00,,---,0.00,VWS V14.01,2013-02-16 07:40:00,
2013-02-16 02:41:00,12.6,2.4,29.06,NNW,329,0.0,3.6,63,0.00,,---,0.00,VWS V14.01,2013-02-16 07:41:00,
2013-02-16 02:42:00,12.6,2.4,29.06,NNW,329,0.0,0.0,63,0.00,,---,0.00,VWS V14.01,2013-02-16 07:42:00,
2013-02-16 02:43:00,22.3,17.4,29.03,NNW,330,0.0,2.7,81,0.00,,---,0.00,VWS V14.01,2013-02-16 07:43:00,
2013-02-16 02:44:00,12.6,2.4,29.06,NNW,329,0.0,2.7,63,0.00,,---,0.00,VWS V14.01,2013-02-16 07:44:00,
2013-02-16 02:45:00,12.6,2.4,29.06,NNW,329,0.0,0.0,63,0.00,,---,0.00,VWS V14.01,2013-02-16 07:45:00,
2013-02-16 02:46:00,12.6,2.4,29.06,NNW,329,0.0,0.0,63,0.00,,---,0.00,VWS V14.01,2013-02-16 07:46:00,
2013-02-16 02:47:00,12.4,2.2,29.06,NNW,329,0.0,0.0,63,0.00,,---,0.00,VWS V14.01,2013-02-16 07:47:00,
2013-02-16 02:48:00,22.3,17.6,29.03,NNW,330,0.0,2.7,82,0.00,,---,0.00,VWS V14.01,2013-02-16 07:48:00,
2013-02-16 02:49:00,12.4,2.2,29.06,NNW,329,0.0,0.0,63,0.00,,---,0.00,VWS V14.01,2013-02-16 07:49:00,
2013-02-16 02:50:00,12.4,2.2,29.06,NNW,329,0.0,0.0,63,0.00,,---,0.00,VWS V14.01,2013-02-16 07:50:00,
2013-02-16 02:51:00,12.4,2.2,29.06,NNW,329,0.0,0.0,63,0.00,,---,0.00,VWS V14.01,2013-02-16 07:51:00,
2013-02-16 02:52:00,12.4,2.2,29.06,NNW,329,0.0,0.0,63,0.00,,---,0.00,VWS V14.01,2013-02-16 07:52:00,
2013-02-16 02:53:00,22.5,17.8,29.03,NNW,330,0.0,0.0,82,0.00,,---,0.00,VWS V14.01,2013-02-16 07:53:00,
2013-02-16 02:54:00,12.4,2.2,29.06,NNW,329,0.0,3.1,63,0.00,,---,0.00,VWS V14.01,2013-02-16 07:54:00,
2013-02-16 02:55:00,12.4,2.2,29.06,NNW,329,0.0,2.7,63,0.00,,---,0.00,VWS V14.01,2013-02-16 07:55:00,
2013-02-16 02:56:00,12.2,2.0,29.06,NNW,329,3.1,3.6,63,0.00,,---,0.00,VWS V14.01,2013-02-16 07:56:00,
2013-02-16 02:57:00,12.2,2.0,29.06,NNW,329,2.7,3.6,63,0.00,,---,0.00,VWS V14.01,2013-02-16 07:57:00,
2013-02-16 02:58:00,22.6,18.0,29.03,NNW,330,0.0,0.0,82,0.00,,---,0.00,VWS V14.01,2013-02-16 07:58:00,
2013-02-16 02:59:00,12.2,2.0,29.06,NNW,329,0.0,0.0,63,0.00,,---,0.00,VWS V14.01,2013-02-16 07:59:00,
2013-02-16 03:00:00,12.2,2.0,29.06,NNW,329,0.0,0.0,63,0.00,,---,0.00,VWS V14.01,2013-02-16 08:00:00,
2013-02-16 03:01:00,12.2,2.0,29.06,NNW,329,0.0,0.0,63,0.00,,---,0.00,VWS V14.01,2013-02-16 08:01:00,
2013-02-16 03:02:00,12.2,2.0,29.06,NNW,329,0.0,0.0,63,0.00,,---,0.00,VWS V14.01,2013-02-16 08:02:00,
2013-02-16 03:03:00,22.6,18.0,29.03,NNW,329,0.0,0.0,82,0.00,,---,0.00,VWS V14.01,2013-02-16 08:03:00,
2013-02-16 03:04:00,12.0,1.9,29.06,NNW,329,0.0,0.0,63,0.00,,---,0.00,VWS V14.01,2013-02-16 08:04:00,
2013-02-16 03:05:00,12.0,1.9,29.06,NNW,329,0.0,0.0,63,0.00,,---,0.00,VWS V14.01,2013-02-16 08:05:00,
2013-02-16 03:06:00,12.0,1.9,29.03,NNW,329,0.0,0.0,63,0.00,,---,0.00,VWS V14.01,2013-02-16 08:06:00,
2013-02-16 03:07:00,12.0,1.9,29.03,NNW,329,3.1,3.1,63,0.00,,---,0.00,VWS V14.01,2013-02-16 08:07:00,
2013-02-16 03:08:00,22.8,18.2,29.03,NNW,330,0.0,0.0,82,0.00,,---,0.00,VWS V14.01,2013-02-16 08:08:00,
2013-02-16 03:09:00,12.0,1.9,29.03,NNW,329,0.0,0.0,63,0.00,,---,0.00,VWS V14.01,2013-02-16 08:09:00,
2013-02-16 03:10:00,12.0,1.9,29.03,NNW,329,0.0,0.0,63,0.00,,---,0.00,VWS V14.01,2013-02-16 08:10:00,
2013-02-16 03:11:00,12.0,1.9,29.03,NNW,329,0.0,0.0,63,0.00,,---,0.00,VWS V14.01,2013-02-16 08:11:00,
2013-02-16 03:12:00,12.0,1.9,29.03,NNW,329,0.0,0.0,63,0.00,,---,0.00,VWS V14.01,2013-02-16 08:12:00,
2013-02-16 03:13:00,22.8,18.2,29.03,NNW,329,0.0,0.0,82,0.00,,---,0.00,VWS V14.01,2013-02-16 08:13:00,
2013-02-16 03:14:00,11.8,1.7,29.03,NNW,329,0.0,0.0,63,0.00,,---,0.00,VWS V14.01,2013-02-16 08:14:00,
2013-02-16 03:15:00,11.8,1.7,29.03,NNW,329,3.1,3.1,63,0.00,,---,0.00,VWS V14.01,2013-02-16 08:15:00,
2013-02-16 03:16:00,11.8,1.7,29.03,NNW,329,0.0,3.1,63,0.00,,---,0.00,VWS V14.01,2013-02-16 08:16:00,
2013-02-16 03:17:00,11.8,1.7,29.03,NNW,329,0.0,2.7,63,0.00,,---,0.00,VWS V14.01,2013-02-16 08:17:00,
2013-02-16 03:18:00,23.0,18.3,29.03,NNW,330,0.0,0.0,82,0.00,,---,0.00,VWS V14.01,2013-02-16 08:18:00,
2013-02-16 03:19:00,11.8,1.7,29.03,NNW,329,3.1,3.1,63,0.00,,---,0.00,VWS V14.01,2013-02-16 08:19:00,
2013-02-16 03:20:00,11.8,1.7,29.03,NNW,329,0.0,3.6,63,0.00,,---,0.00,VWS V14.01,2013-02-16 08:20:00,
2013-02-16 03:21:00,11.8,1.7,29.03,NNW,329,0.0,0.0,63,0.00,,---,0.00,VWS V14.01,2013-02-16 08:21:00,
2013-02-16 03:22:00,11.8,1.7,29.03,NNW,329,3.1,3.1,63,0.00,,---,0.00,VWS V14.01,2013-02-16 08:22:00,
2013-02-16 03:23:00,23.0,18.3,29.03,NNW,329,0.0,4.0,82,0.00,,---,0.00,VWS V14.01,2013-02-16 08:23:00,
2013-02-16 03:24:00,11.8,1.7,29.03,NNW,329,2.7,4.0,63,0.00,,---,0.00,VWS V14.01,2013-02-16 08:24:00,
2013-02-16 03:25:00,11.8,1.7,29.03,NNW,329,3.1,3.1,63,0.00,,---,0.00,VWS V14.01,2013-02-16 08:25:00,
2013-02-16 03:27:00,11.8,1.7,29.03,NNW,329,0.0,3.6,63,0.00,,---,0.00,VWS V14.01,2013-02-16 08:27:00,
2013-02-16 03:28:00,23.0,18.0,29.03,NNW,330,3.1,4.5,81,0.00,,---,0.00,VWS V14.01,2013-02-16 08:28:00,
2013-02-16 03:29:00,11.8,1.7,29.03,NNW,329,3.6,3.6,63,0.00,,---,0.00,VWS V14.01,2013-02-16 08:29:00,
2013-02-16 03:30:00,11.8,1.7,29.03,NNW,329,0.0,4.5,63,0.00,,---,0.00,VWS V14.01,2013-02-16 08:30:00,
2013-02-16 03:31:00,11.8,1.7,29.03,NNW,329,2.7,3.6,63,0.00,,---,0.00,VWS V14.01,2013-02-16 08:31:00,
2013-02-16 03:32:00,11.8,1.7,29.03,NNW,329,0.0,3.1,63,0.00,,---,0.00,VWS V14.01,2013-02-16 08:32:00,
2013-02-16 03:33:00,23.0,18.0,29.03,NNW,330,0.0,0.0,81,0.00,,---,0.00,VWS V14.01,2013-02-16 08:33:00,
2013-02-16 03:34:00,11.8,1.7,29.03,NNW,329,0.0,0.0,63,0.00,,---,0.00,VWS V14.01,2013-02-16 08:34:00,
2013-02-16 03:35:00,11.8,1.7,29.03,NNW,329,4.0,6.7,63,0.00,,---,0.00,VWS V14.01,2013-02-16 08:35:00,
2013-02-16 03:36:00,12.0,1.9,29.06,NNW,329,2.7,6.3,63,0.00,,---,0.00,VWS V14.01,2013-02-16 08:36:00,
2013-02-16 03:37:00,12.0,1.9,29.06,NNW,329,3.6,4.5,63,0.00,,---,0.00,VWS V14.01,2013-02-16 08:37:00,
2013-02-16 03:38:00,23.0,18.0,29.03,NNW,329,0.0,0.0,81,0.00,,---,0.00,VWS V14.01,2013-02-16 08:38:00,
2013-02-16 03:39:00,12.0,1.9,29.06,NNW,329,0.0,2.7,63,0.00,,---,0.00,VWS V14.01,2013-02-16 08:39:00,
2013-02-16 03:40:00,12.0,1.9,29.06,NNW,329,0.0,0.0,63,0.00,,---,0.00,VWS V14.01,2013-02-16 08:40:00,
2013-02-16 03:41:00,12.0,1.9,29.06,NNW,329,0.0,4.0,63,0.00,,---,0.00,VWS V14.01,2013-02-16 08:41:00,
2013-02-16 03:42:00,11.8,1.7,29.06,NNW,329,0.0,2.7,63,0.00,,---,0.00,VWS V14.01,2013-02-16 08:42:00,
2013-02-16 03:43:00,23.0,18.0,29.00,NNW,330,0.0,0.0,81,0.00,,---,0.00,VWS V14.01,2013-02-16 08:43:00,
2013-02-16 03:44:00,11.8,1.7,29.06,NNW,329,0.0,4.5,63,0.00,,---,0.00,VWS V14.01,2013-02-16 08:44:00,
2013-02-16 03:45:00,11.8,1.7,29.06,NNW,329,0.0,0.0,63,0.00,,---,0.00,VWS V14.01,2013-02-16 08:45:00,
2013-02-16 03:46:00,11.8,1.7,29.06,NNW,329,0.0,0.0,63,0.00,,---,0.00,VWS V14.01,2013-02-16 08:46:00,
2013-02-16 03:47:00,11.8,1.7,29.06,NNW,329,0.0,2.7,63,0.00,,---,0.00,VWS V14.01,2013-02-16 08:47:00,
2013-02-16 03:48:00,23.0,18.0,29.00,NNW,330,0.0,0.0,81,0.00,,---,0.00,VWS V14.01,2013-02-16 08:48:00,
2013-02-16 03:49:00,11.8,1.7,29.06,NNW,329,0.0,0.0,63,0.00,,---,0.00,VWS V14.01,2013-02-16 08:49:00,
2013-02-16 03:50:00,11.8,1.7,29.06,NNW,329,3.6,3.6,63,0.00,,---,0.00,VWS V14.01,2013-02-16 08:50:00,
2013-02-16 03:51:00,11.8,1.7,29.06,NNW,329,3.1,4.0,63,0.00,,---,0.00,VWS V14.01,2013-02-16 08:51:00,
2013-02-16 03:52:00,11.8,1.7,29.06,NNW,329,0.0,3.6,63,0.00,,---,0.00,VWS V14.01,2013-02-16 08:52:00,
2013-02-16 03:53:00,23.0,17.8,29.00,NNW,330,0.0,0.0,80,0.00,,---,0.00,VWS V14.01,2013-02-16 08:53:00,
2013-02-16 03:54:00,11.8,1.7,29.06,NNW,329,4.9,4.9,63,0.00,,---,0.00,VWS V14.01,2013-02-16 08:54:00,
2013-02-16 03:55:00,11.8,1.7,29.06,NNW,329,0.0,4.9,63,0.00,,---,0.00,VWS V14.01,2013-02-16 08:55:00,
2013-02-16 03:57:00,11.8,1.7,29.06,NNW,329,0.0,3.6,63,0.00,,---,0.00,VWS V14.01,2013-02-16 08:57:00,
2013-02-16 03:58:00,23.2,17.9,29.00,NNW,330,0.0,0.0,80,0.00,,---,0.00,VWS V14.01,2013-02-16 08:58:00,
2013-02-16 03:59:00,11.8,1.7,29.06,NNW,329,2.7,3.1,63,0.00,,---,0.00,VWS V14.01,2013-02-16 08:59:00,
2013-02-16 04:00:00,11.8,1.7,29.06,NNW,329,3.1,4.0,63,0.00,,---,0.00,VWS V14.01,2013-02-16 09:00:00,
2013-02-16 04:01:00,11.8,1.7,29.06,NNW,329,4.0,4.9,63,0.00,,---,0.00,VWS V14.01,2013-02-16 09:01:00,
2013-02-16 04:02:00,11.8,1.7,29.06,NNW,329,0.0,4.9,63,0.00,,---,0.00,VWS V14.01,2013-02-16 09:02:00,
2013-02-16 04:03:00,23.2,17.9,29.00,NNW,330,0.0,0.0,80,0.00,,---,0.00,VWS V14.01,2013-02-16 09:03:00,
2013-02-16 04:04:00,11.8,1.7,29.06,NNW,329,2.7,2.7,63,0.00,,---,0.00,VWS V14.01,2013-02-16 09:04:00,
2013-02-16 04:05:00,11.8,1.7,29.06,NNW,329,3.1,4.5,63,0.00,,---,0.00,VWS V14.01,2013-02-16 09:05:00,
2013-02-16 04:06:00,11.8,1.7,29.06,NNW,329,2.7,4.0,63,0.00,,---,0.00,VWS V14.01,2013-02-16 09:06:00,
2013-02-16 04:07:00,11.8,1.7,29.06,NNW,329,3.1,4.5,63,0.00,,---,0.00,VWS V14.01,2013-02-16 09:07:00,
2013-02-16 04:08:00,11.8,1.7,29.06,NNW,329,3.6,4.0,63,0.00,,---,0.00,VWS V14.01,2013-02-16 09:08:00,
2013-02-16 04:09:00,23.2,17.9,29.00,NNW,330,3.1,3.1,80,0.00,,---,0.00,VWS V14.01,2013-02-16 09:09:00,
2013-02-16 04:10:00,11.8,1.7,29.06,NNW,329,0.0,4.0,63,0.00,,---,0.00,VWS V14.01,2013-02-16 09:10:00,
2013-02-16 04:11:00,11.8,1.7,29.06,NNW,329,4.0,4.9,63,0.00,,---,0.00,VWS V14.01,2013-02-16 09:11:00,
2013-02-16 04:12:00,11.8,1.7,29.06,NNW,329,2.7,4.5,63,0.00,,---,0.00,VWS V14.01,2013-02-16 09:12:00,
2013-02-16 04:13:00,11.8,1.7,29.06,NNW,329,0.0,3.1,63,0.00,,---,0.00,VWS V14.01,2013-02-16 09:13:00,
2013-02-16 04:14:00,11.8,1.7,29.06,NNW,329,3.1,3.6,63,0.00,,---,0.00,VWS V14.01,2013-02-16 09:14:00,
2013-02-16 04:15:00,11.8,1.7,29.06,NNW,329,3.1,5.4,63,0.00,,---,0.00,VWS V14.01,2013-02-16 09:15:00,
2013-02-16 04:16:00,22.6,17.1,29.00,NNW,330,0.0,3.6,79,0.00,,---,0.00,VWS V14.01,2013-02-16 09:16:00,
2013-02-16 04:17:00,11.8,1.7,29.06,NNW,329,3.1,3.6,63,0.00,,---,0.00,VWS V14.01,2013-02-16 09:17:00,
2013-02-16 04:18:00,11.8,1.7,29.06,NNW,329,2.7,3.6,63,0.00,,---,0.00,VWS V14.01,2013-02-16 09:18:00,
2013-02-16 04:19:00,11.8,1.7,29.06,NNW,329,3.1,3.6,63,0.00,,---,0.00,VWS V14.01,2013-02-16 09:19:00,
2013-02-16 04:20:00,11.8,1.7,29.06,NNW,329,3.6,4.0,63,0.00,,---,0.00,VWS V14.01,2013-02-16 09:20:00,
2013-02-16 04:21:00,22.5,16.6,29.00,NNW,330,3.1,4.5,78,0.00,,---,0.00,VWS V14.01,2013-02-16 09:21:00,
2013-02-16 04:22:00,11.8,1.7,29.03,NNW,329,0.0,2.7,63,0.00,,---,0.00,VWS V14.01,2013-02-16 09:22:00,
2013-02-16 04:23:00,11.8,1.7,29.03,NNW,329,0.0,0.0,63,0.00,,---,0.00,VWS V14.01,2013-02-16 09:23:00,
2013-02-16 04:24:00,11.8,1.7,29.03,NNW,329,0.0,0.0,63,0.00,,---,0.00,VWS V14.01,2013-02-16 09:24:00,
2013-02-16 04:25:00,11.8,1.7,29.03,NNW,329,4.0,4.0,63,0.00,,---,0.00,VWS V14.01,2013-02-16 09:25:00,
2013-02-16 04:26:00,22.3,16.5,29.00,NNW,330,4.0,4.0,78,0.00,,---,0.00,VWS V14.01,2013-02-16 09:26:00,
2013-02-16 04:27:00,11.8,1.7,29.03,NNW,329,0.0,3.1,63,0.00,,---,0.00,VWS V14.01,2013-02-16 09:27:00,
2013-02-16 04:28:00,11.8,1.7,29.03,NNW,329,0.0,3.6,63,0.00,,---,0.00,VWS V14.01,2013-02-16 09:28:00,
2013-02-16 04:29:00,11.8,1.7,29.03,NNW,329,0.0,4.0,63,0.00,,---,0.00,VWS V14.01,2013-02-16 09:29:00,
2013-02-16 04:30:00,11.8,1.7,29.03,NNW,329,0.0,3.6,63,0.00,,---,0.00,VWS V14.01,2013-02-16 09:30:00,
2013-02-16 04:31:00,22.3,16.5,29.00,NNW,330,3.1,4.5,78,0.00,,---,0.00,VWS V14.01,2013-02-16 09:31:00,
2013-02-16 04:32:00,11.8,1.7,29.03,NNW,329,0.0,3.1,63,0.00,,---,0.00,VWS V14.01,2013-02-16 09:32:00,
2013-02-16 04:33:00,11.8,1.7,29.03,NNW,329,3.6,3.6,63,0.00,,---,0.00,VWS V14.01,2013-02-16 09:33:00,
2013-02-16 04:34:00,11.8,1.7,29.03,NNW,329,0.0,3.6,63,0.00,,---,0.00,VWS V14.01,2013-02-16 09:34:00,
2013-02-16 04:35:00,11.8,1.7,29.03,NNW,329,3.1,3.6,63,0.00,,---,0.00,VWS V14.01,2013-02-16 09:35:00,
2013-02-16 04:36:00,11.8,1.7,29.03,NNW,329,3.1,4.0,63,0.00,,---,0.00,VWS V14.01,2013-02-16 09:36:00,
2013-02-16 04:37:00,21.9,16.1,29.00,NNW,330,0.0,2.7,78,0.00,,---,0.00,VWS V14.01,2013-02-16 09:37:00,
2013-02-16 04:38:00,11.8,1.7,29.03,NNW,329,0.0,2.7,63,0.00,,---,0.00,VWS V14.01,2013-02-16 09:38:00,
2013-02-16 04:39:00,11.8,1.7,29.03,NNW,329,0.0,0.0,63,0.00,,---,0.00,VWS V14.01,2013-02-16 09:39:00,
2013-02-16 04:40:00,11.8,1.7,29.03,NNW,329,3.1,3.6,63,0.00,,---,0.00,VWS V14.01,2013-02-16 09:40:00,
2013-02-16 04:41:00,11.7,1.5,29.03,NNW,329,0.0,3.6,63,0.00,,---,0.00,VWS V14.01,2013-02-16 09:41:00,
2013-02-16 04:42:00,21.6,15.8,29.00,NNW,330,0.0,2.7,78,0.00,,---,0.00,VWS V14.01,2013-02-16 09:42:00,
2013-02-16 04:43:00,11.7,1.5,29.03,NNW,329,0.0,4.5,63,0.00,,---,0.00,VWS V14.01,2013-02-16 09:43:00,
2013-02-16 04:44:00,11.7,1.5,29.03,NNW,329,3.1,4.0,63,0.00,,---,0.00,VWS V14.01,2013-02-16 09:44:00,
2013-02-16 04:45:00,11.8,1.7,29.03,NNW,329,3.1,3.6,63,0.00,,---,0.00,VWS V14.01,2013-02-16 09:45:00,
2013-02-16 04:46:00,11.8,1.7,29.03,NNW,329,3.1,4.5,63,0.00,,---,0.00,VWS V14.01,2013-02-16 09:46:00,
2013-02-16 04:47:00,21.4,15.6,29.00,NNW,330,0.0,0.0,78,0.00,,---,0.00,VWS V14.01,2013-02-16 09:47:00,
2013-02-16 04:48:00,11.8,1.7,29.03,NNW,329,0.0,0.0,63,0.00,,---,0.00,VWS V14.01,2013-02-16 09:48:00,
2013-02-16 04:49:00,11.8,1.7,29.03,NNW,329,4.0,4.9,63,0.00,,---,0.00,VWS V14.01,2013-02-16 09:49:00,
2013-02-16 04:50:00,11.8,1.7,29.03,NNW,329,2.7,4.5,63,0.00,,---,0.00,VWS V14.01,2013-02-16 09:50:00,
2013-02-16 04:51:00,11.8,1.7,29.03,NNW,329,5.8,5.8,63,0.00,,---,0.00,VWS V14.01,2013-02-16 09:51:00,
2013-02-16 04:52:00,21.4,15.9,29.00,NNW,330,3.1,3.6,79,0.00,,---,0.00,VWS V14.01,2013-02-16 09:52:00,
2013-02-16 04:53:00,11.8,1.7,29.03,NNW,329,4.5,6.3,63,0.00,,---,0.00,VWS V14.01,2013-02-16 09:53:00,
2013-02-16 04:54:00,11.8,1.7,29.03,NNW,329,4.0,4.5,63,0.00,,---,0.00,VWS V14.01,2013-02-16 09:54:00,
2013-02-16 04:55:00,11.8,1.7,29.03,NNW,329,4.5,4.9,63,0.00,,---,0.00,VWS V14.01,2013-02-16 09:55:00,
2013-02-16 04:56:00,12.0,1.9,29.03,NNW,329,4.9,4.9,63,0.00,,---,0.00,VWS V14.01,2013-02-16 09:56:00,
2013-02-16 04:57:00,21.6,16.4,29.00,NW,323,4.5,6.3,80,0.00,,---,0.00,VWS V14.01,2013-02-16 09:57:00,
2013-02-16 04:58:00,12.0,1.9,29.03,NNW,329,0.0,4.5,63,0.00,,---,0.00,VWS V14.01,2013-02-16 09:58:00,
2013-02-16 04:59:00,11.8,1.7,29.03,NNW,329,4.5,4.9,63,0.00,,---,0.00,VWS V14.01,2013-02-16 09:59:00,
2013-02-16 05:00:00,11.8,1.7,29.03,NNW,329,0.0,4.5,63,0.00,,---,0.00,VWS V14.01,2013-02-16 10:00:00,
2013-02-16 05:01:00,11.8,1.7,29.03,NNW,329,4.0,4.0,63,0.00,,---,0.00,VWS V14.01,2013-02-16 10:01:00,
2013-02-16 05:02:00,21.6,16.1,29.00,WNW,287,3.1,5.8,79,0.00,,---,0.00,VWS V14.01,2013-02-16 10:02:00,
2013-02-16 05:03:00,11.8,1.7,29.03,NNW,329,0.0,4.9,63,0.00,,---,0.00,VWS V14.01,2013-02-16 10:03:00,
2013-02-16 05:04:00,11.7,1.5,29.03,NNW,329,4.0,4.0,63,0.00,,---,0.00,VWS V14.01,2013-02-16 10:04:00,
2013-02-16 05:05:00,11.7,1.5,29.03,NNW,329,0.0,4.5,63,0.00,,---,0.00,VWS V14.01,2013-02-16 10:05:00,
2013-02-16 05:06:00,11.7,1.5,29.06,NNW,329,3.1,3.1,63,0.00,,---,0.00,VWS V14.01,2013-02-16 10:06:00,
2013-02-16 05:07:00,21.7,15.4,29.00,NW,309,3.6,5.4,76,0.00,,---,0.00,VWS V14.01,2013-02-16 10:07:00,
2013-02-16 05:08:00,11.7,1.5,29.06,NNW,329,3.1,4.5,63,0.00,,---,0.00,VWS V14.01,2013-02-16 10:08:00,
2013-02-16 05:09:00,11.7,1.5,29.06,NNW,329,3.1,3.6,63,0.00,,---,0.00,VWS V14.01,2013-02-16 10:09:00,
2013-02-16 05:10:00,11.8,1.7,29.06,WNW,298,2.7,6.9,63,0.00,,---,0.00,VWS V14.01,2013-02-16 10:10:00,
2013-02-16 05:11:00,11.8,1.7,29.06,WNW,298,2.7,4.9,63,0.00,,---,0.00,VWS V14.01,2013-02-16 10:11:00,
2013-02-16 05:12:00,21.7,13.5,29.00,WNW,293,4.5,6.7,70,0.00,,---,0.00,VWS V14.01,2013-02-16 10:12:00,
2013-02-16 05:13:00,11.8,1.7,29.06,WNW,298,6.7,6.7,63,0.00,,---,0.00,VWS V14.01,2013-02-16 10:13:00,
2013-02-16 05:14:00,11.8,1.7,29.06,WNW,298,4.5,6.7,63,0.00,,---,0.00,VWS V14.01,2013-02-16 10:14:00,
2013-02-16 05:15:00,12.0,1.9,29.06,WNW,298,4.0,5.4,63,0.00,,---,0.00,VWS V14.01,2013-02-16 10:15:00,
2013-02-16 05:16:00,12.0,1.9,29.06,WNW,298,4.5,4.5,63,0.00,,---,0.00,VWS V14.01,2013-02-16 10:16:00,
2013-02-16 05:17:00,21.9,12.0,29.00,NW,320,3.6,4.5,65,0.00,,---,0.00,VWS V14.01,2013-02-16 10:17:00,
2013-02-16 05:18:00,11.8,1.7,29.06,WNW,298,3.1,4.9,63,0.00,,---,0.00,VWS V14.01,2013-02-16 10:18:00,
2013-02-16 05:19:00,11.8,1.7,29.06,WNW,298,4.0,5.4,63,0.00,,---,0.00,VWS V14.01,2013-02-16 10:19:00,
2013-02-16 05:20:00,11.8,1.7,29.06,WNW,298,3.6,5.8,63,0.00,,---,0.00,VWS V14.01,2013-02-16 10:20:00,
2013-02-16 05:21:00,11.8,1.7,29.06,WNW,298,3.1,4.9,63,0.00,,---,0.00,VWS V14.01,2013-02-16 10:21:00,
2013-02-16 05:22:00,21.6,10.6,29.00,NW,319,3.1,5.4,62,0.00,,---,0.00,VWS V14.01,2013-02-16 10:22:00,
2013-02-16 05:23:00,11.8,1.7,29.06,WNW,298,4.0,4.0,63,0.00,,---,0.00,VWS V14.01,2013-02-16 10:23:00,
2013-02-16 05:24:00,11.8,1.7,29.06,WNW,298,0.0,4.9,63,0.00,,---,0.00,VWS V14.01,2013-02-16 10:24:00,
2013-02-16 05:25:00,11.8,1.7,29.06,WNW,298,0.0,0.0,63,0.00,,---,0.00,VWS V14.01,2013-02-16 10:25:00,
2013-02-16 05:26:00,11.7,1.5,29.06,WNW,298,0.0,0.0,63,0.00,,---,0.00,VWS V14.01,2013-02-16 10:26:00,
2013-02-16 05:27:00,21.6,10.2,29.00,NW,310,3.6,6.3,61,0.00,,---,0.00,VWS V14.01,2013-02-16 10:27:00,
2013-02-16 05:28:00,11.7,1.5,29.06,WNW,298,3.6,5.8,63,0.00,,---,0.00,VWS V14.01,2013-02-16 10:28:00,
2013-02-16 05:29:00,11.7,1.5,29.06,WNW,298,2.7,4.5,63,0.00,,---,0.00,VWS V14.01,2013-02-16 10:29:00,
2013-02-16 05:30:00,11.7,1.5,29.06,WNW,298,0.0,4.5,63,0.00,,---,0.00,VWS V14.01,2013-02-16 10:30:00,
2013-02-16 05:31:00,11.7,1.5,29.06,WNW,298,2.7,4.5,63,0.00,,---,0.00,VWS V14.01,2013-02-16 10:31:00,
2013-02-16 05:32:00,21.7,10.7,29.00,NNW,327,4.9,6.9,62,0.00,,---,0.00,VWS V14.01,2013-02-16 10:32:00,
2013-02-16 05:33:00,11.8,1.7,29.06,WNW,298,3.6,4.5,63,0.00,,---,0.00,VWS V14.01,2013-02-16 10:33:00,
2013-02-16 05:34:00,11.8,1.7,29.06,WNW,298,4.0,4.9,63,0.00,,---,0.00,VWS V14.01,2013-02-16 10:34:00,
2013-02-16 05:35:00,11.8,1.7,29.06,WNW,298,4.0,4.5,63,0.00,,---,0.00,VWS V14.01,2013-02-16 10:35:00,
2013-02-16 05:36:00,11.8,1.7,29.06,WNW,298,3.1,4.0,63,0.00,,---,0.00,VWS V14.01,2013-02-16 10:36:00,
2013-02-16 05:37:00,21.9,11.3,29.00,NW,311,4.9,6.3,63,0.00,,---,0.00,VWS V14.01,2013-02-16 10:37:00,
2013-02-16 05:38:00,11.8,1.7,29.06,WNW,298,0.0,4.9,63,0.00,,---,0.00,VWS V14.01,2013-02-16 10:38:00,
2013-02-16 05:39:00,11.8,1.7,29.06,WNW,298,3.1,3.6,63,0.00,,---,0.00,VWS V14.01,2013-02-16 10:39:00,
2013-02-16 05:40:00,11.8,1.7,29.06,WNW,298,0.0,3.6,63,0.00,,---,0.00,VWS V14.01,2013-02-16 10:40:00,
2013-02-16 05:41:00,11.8,1.7,29.06,WNW,298,0.0,0.0,63,0.00,,---,0.00,VWS V14.01,2013-02-16 10:41:00,
2013-02-16 05:42:00,21.9,11.6,29.00,WNW,303,4.0,4.9,64,0.00,,---,0.00,VWS V14.01,2013-02-16 10:42:00,
2013-02-16 05:43:00,11.8,1.7,29.06,WNW,298,4.0,4.9,63,0.00,,---,0.00,VWS V14.01,2013-02-16 10:43:00,
2013-02-16 05:44:00,11.8,1.7,29.06,WNW,298,0.0,5.8,63,0.00,,---,0.00,VWS V14.01,2013-02-16 10:44:00,
2013-02-16 05:45:00,11.8,1.7,29.06,WNW,298,5.4,5.4,63,0.00,,---,0.00,VWS V14.01,2013-02-16 10:45:00,
2013-02-16 05:46:00,11.8,1.7,29.06,WNW,298,0.0,5.4,63,0.00,,---,0.00,VWS V14.01,2013-02-16 10:46:00,
2013-02-16 05:47:00,21.9,11.6,29.00,WNW,301,4.5,5.4,64,0.00,,---,0.00,VWS V14.01,2013-02-16 10:47:00,
2013-02-16 05:48:00,11.8,1.7,29.06,WNW,298,4.0,6.7,63,0.00,,---,0.00,VWS V14.01,2013-02-16 10:48:00,
2013-02-16 05:49:00,11.8,1.7,29.06,WNW,288,4.0,7.4,63,0.00,,---,0.00,VWS V14.01,2013-02-16 10:49:00,
2013-02-16 05:50:00,11.8,1.7,29.06,WNW,299,5.4,5.8,63,0.00,,---,0.00,VWS V14.01,2013-02-16 10:50:00,
2013-02-16 05:51:00,12.0,1.9,29.06,WNW,299,0.0,5.4,63,0.00,,---,0.00,VWS V14.01,2013-02-16 10:51:00,
2013-02-16 05:52:00,21.6,11.3,29.00,WNW,301,4.9,5.4,64,0.00,,---,0.00,VWS V14.01,2013-02-16 10:52:00,
2013-02-16 05:53:00,11.8,1.7,29.06,WNW,299,4.0,4.5,63,0.00,,---,0.00,VWS V14.01,2013-02-16 10:53:00,
2013-02-16 05:54:00,11.8,1.7,29.06,WNW,300,4.9,5.4,63,0.00,,---,0.00,VWS V14.01,2013-02-16 10:54:00,
2013-02-16 05:55:00,11.8,1.7,29.06,NNW,330,4.0,6.3,63,0.00,,---,0.00,VWS V14.01,2013-02-16 10:55:00,
2013-02-16 05:56:00,11.8,1.7,29.06,NNW,338,0.0,6.3,63,0.00,,---,0.00,VWS V14.01,2013-02-16 10:56:00,
2013-02-16 05:57:00,21.4,11.8,29.00,WSW,243,0.0,4.9,66,0.00,,---,0.00,VWS V14.01,2013-02-16 10:57:00,
2013-02-16 05:58:00,11.8,1.7,29.06,WNW,295,0.0,3.6,63,0.00,,---,0.00,VWS V14.01,2013-02-16 10:58:00,
2013-02-16 05:59:00,11.8,1.7,29.06,WNW,295,3.6,3.6,63,0.00,,---,0.00,VWS V14.01,2013-02-16 10:59:00,
2013-02-16 06:00:00,11.8,1.7,29.06,WNW,295,3.1,4.5,63,0.00,,---,0.00,VWS V14.01,2013-02-16 11:00:00,
2013-02-16 06:01:00,11.8,1.7,29.06,WNW,296,0.0,4.9,63,0.00,,---,0.00,VWS V14.01,2013-02-16 11:01:00,
2013-02-16 06:02:00,21.4,12.5,29.00,NW,305,4.0,7.8,68,0.00,,---,0.00,VWS V14.01,2013-02-16 11:02:00,
2013-02-16 06:03:00,11.8,1.7,29.06,WNW,296,4.9,4.9,63,0.00,,---,0.00,VWS V14.01,2013-02-16 11:03:00,
2013-02-16 06:04:00,11.8,1.7,29.06,WNW,296,5.4,5.4,63,0.00,,---,0.00,VWS V14.01,2013-02-16 11:04:00,
2013-02-16 06:05:00,11.8,1.7,29.06,WNW,290,4.5,5.8,63,0.00,,---,0.00,VWS V14.01,2013-02-16 11:05:00,
2013-02-16 06:06:00,11.8,1.7,29.06,WNW,290,3.6,5.4,63,0.00,,---,0.00,VWS V14.01,2013-02-16 11:06:00,
2013-02-16 06:07:00,21.4,12.8,29.00,WNW,288,8.3,8.3,69,0.00,,---,0.00,VWS V14.01,2013-02-16 11:07:00,
2013-02-16 06:08:00,11.8,1.7,29.06,WNW,290,5.4,5.4,63,0.00,,---,0.00,VWS V14.01,2013-02-16 11:08:00,
2013-02-16 06:09:00,11.8,1.7,29.06,WNW,295,4.0,6.3,63,0.00,,---,0.00,VWS V14.01,2013-02-16 11:09:00,
2013-02-16 06:10:00,11.8,1.7,29.06,WNW,295,2.7,4.0,63,0.00,,---,0.00,VWS V14.01,2013-02-16 11:10:00,
2013-02-16 06:11:00,11.8,1.7,29.06,West,278,4.0,4.9,63,0.00,,---,0.00,VWS V14.01,2013-02-16 11:11:00,
2013-02-16 06:12:00,21.4,13.4,29.00,NW,306,0.0,5.8,71,0.00,,---,0.00,VWS V14.01,2013-02-16 11:12:00,
2013-02-16 06:13:00,12.0,1.9,29.06,West,270,2.7,5.8,63,0.00,,---,0.00,VWS V14.01,2013-02-16 11:13:00,
2013-02-16 06:14:00,12.0,1.9,29.06,West,270,4.5,4.5,63,0.00,,---,0.00,VWS V14.01,2013-02-16 11:14:00,
2013-02-16 06:15:00,12.0,1.9,29.06,West,273,4.5,5.4,63,0.00,,---,0.00,VWS V14.01,2013-02-16 11:15:00,
2013-02-16 06:16:00,12.0,1.9,29.06,West,274,0.0,4.9,63,0.00,,---,0.00,VWS V14.01,2013-02-16 11:16:00,
2013-02-16 06:17:00,21.2,13.3,29.00,WNW,297,8.7,8.7,71,0.00,,---,0.00,VWS V14.01,2013-02-16 11:17:00,
2013-02-16 06:18:00,12.0,1.9,29.06,NW,306,2.7,5.8,63,0.00,,---,0.00,VWS V14.01,2013-02-16 11:18:00,
2013-02-16 06:19:00,12.0,1.9,29.06,NW,304,6.3,7.4,63,0.00,,---,0.00,VWS V14.01,2013-02-16 11:19:00,
2013-02-16 06:20:00,12.0,1.9,29.06,NW,305,3.6,6.9,63,0.00,,---,0.00,VWS V14.01,2013-02-16 11:20:00,
2013-02-16 06:21:00,12.0,1.9,29.06,NW,305,0.0,4.0,63,0.00,,---,0.00,VWS V14.01,2013-02-16 11:21:00,
2013-02-16 06:22:00,21.0,13.4,29.00,NW,314,5.4,6.7,72,0.00,,---,0.00,VWS V14.01,2013-02-16 11:22:00,
2013-02-16 06:23:00,12.0,1.9,29.06,NW,305,5.4,5.4,63,0.00,,---,0.00,VWS V14.01,2013-02-16 11:23:00,
2013-02-16 06:24:00,12.0,1.9,29.06,NW,304,4.5,5.4,63,0.00,,---,0.00,VWS V14.01,2013-02-16 11:24:00,
2013-02-16 06:25:00,12.0,1.9,29.06,NW,304,4.0,4.5,63,0.00,,---,0.00,VWS V14.01,2013-02-16 11:25:00,
2013-02-16 06:26:00,12.0,1.9,29.06,WNW,282,7.8,7.8,63,0.00,,---,0.00,VWS V14.01,2013-02-16 11:26:00,
2013-02-16 06:27:00,21.2,13.9,29.00,WNW,301,6.3,7.4,73,0.00,,---,0.00,VWS V14.01,2013-02-16 11:27:00,
2013-02-16 06:28:00,12.0,1.9,29.06,WNW,282,6.7,8.7,63,0.00,,---,0.00,VWS V14.01,2013-02-16 11:28:00,
2013-02-16 06:29:00,12.2,2.0,29.06,WNW,299,4.0,6.9,63,0.00,,---,0.00,VWS V14.01,2013-02-16 11:29:00,
2013-02-16 06:30:00,12.2,2.0,29.06,WNW,299,0.0,4.9,63,0.00,,---,0.00,VWS V14.01,2013-02-16 11:30:00,
2013-02-16 06:31:00,12.2,2.0,29.06,WNW,298,4.5,6.3,63,0.00,,---,0.00,VWS V14.01,2013-02-16 11:31:00,
2013-02-16 06:32:00,21.0,14.1,29.00,WNW,297,3.6,4.0,74,0.00,,---,0.00,VWS V14.01,2013-02-16 11:32:00,
2013-02-16 06:33:00,12.0,1.9,29.06,WNW,289,3.6,4.0,63,0.00,,---,0.00,VWS V14.01,2013-02-16 11:33:00,
2013-02-16 06:34:00,12.0,1.9,29.06,WNW,289,4.5,4.9,63,0.00,,---,0.00,VWS V14.01,2013-02-16 11:34:00,
2013-02-16 06:35:00,12.0,1.9,29.06,WNW,291,4.5,7.4,63,0.00,,---,0.00,VWS V14.01,2013-02-16 11:35:00,
2013-02-16 06:36:00,12.0,1.9,29.06,WNW,291,4.0,5.8,63,0.00,,---,0.00,VWS V14.01,2013-02-16 11:36:00,
2013-02-16 06:37:00,21.0,14.1,29.00,WNW,288,4.5,4.9,74,0.00,,---,0.00,VWS V14.01,2013-02-16 11:37:00,
2013-02-16 06:38:00,11.8,1.7,29.06,WNW,291,3.1,4.0,63,0.00,,---,0.00,VWS V14.01,2013-02-16 11:38:00,
2013-02-16 06:39:00,11.8,1.7,29.06,WNW,291,4.5,5.8,63,0.00,,---,0.00,VWS V14.01,2013-02-16 11:39:00,
2013-02-16 06:40:00,11.8,1.7,29.06,WNW,291,3.6,4.5,63,0.00,,---,0.00,VWS V14.01,2013-02-16 11:40:00,
2013-02-16 06:41:00,11.8,1.7,29.06,WNW,291,0.0,4.0,63,0.00,,---,0.00,VWS V14.01,2013-02-16 11:41:00,
2013-02-16 06:42:00,20.7,13.7,29.00,WNW,289,0.0,5.4,74,0.00,,---,0.00,VWS V14.01,2013-02-16 11:42:00,
2013-02-16 06:43:00,11.7,1.5,29.06,WNW,291,0.0,0.0,63,0.00,,---,0.00,VWS V14.01,2013-02-16 11:43:00,
2013-02-16 06:44:00,11.7,1.5,29.06,WNW,291,3.6,3.6,63,0.00,,---,0.00,VWS V14.01,2013-02-16 11:44:00,
2013-02-16 06:45:00,11.7,1.5,29.06,WNW,292,3.1,5.4,63,0.00,,---,0.00,VWS V14.01,2013-02-16 11:45:00,
2013-02-16 06:46:00,11.7,1.5,29.06,WNW,292,0.0,4.5,63,0.00,,---,0.00,VWS V14.01,2013-02-16 11:46:00,
2013-02-16 06:47:00,20.5,13.5,29.00,WNW,289,4.0,4.9,74,0.00,,---,0.00,VWS V14.01,2013-02-16 11:47:00,
2013-02-16 06:48:00,11.5,1.3,29.06,WNW,291,2.7,4.0,63,0.00,,---,0.00,VWS V14.01,2013-02-16 11:48:00,
2013-02-16 06:49:00,11.5,1.3,29.06,WNW,292,3.6,3.6,63,0.00,,---,0.00,VWS V14.01,2013-02-16 11:49:00,
2013-02-16 06:50:00,11.5,1.3,29.06,WNW,292,3.6,4.5,63,0.00,,---,0.00,VWS V14.01,2013-02-16 11:50:00,
2013-02-16 06:51:00,11.5,1.3,29.06,WNW,292,3.1,4.5,63,0.00,,---,0.00,VWS V14.01,2013-02-16 11:51:00,
2013-02-16 06:52:00,20.3,13.7,29.00,WNW,288,0.0,4.0,75,0.00,,---,0.00,VWS V14.01,2013-02-16 11:52:00,
2013-02-16 06:53:00,11.5,1.3,29.06,WNW,292,3.1,4.5,63,0.00,,---,0.00,VWS V14.01,2013-02-16 11:53:00,
2013-02-16 06:54:00,11.5,1.3,29.06,WNW,292,0.0,4.0,63,0.00,,---,0.00,VWS V14.01,2013-02-16 11:54:00,
2013-02-16 06:55:00,11.5,1.3,29.06,WNW,292,2.7,4.5,63,0.00,,---,0.00,VWS V14.01,2013-02-16 11:55:00,
2013-02-16 06:56:00,11.5,1.3,29.06,WNW,292,4.0,4.5,63,0.00,,---,0.00,VWS V14.01,2013-02-16 11:56:00,
2013-02-16 06:57:00,20.3,13.7,29.00,WNW,289,3.1,4.5,75,0.00,,---,0.00,VWS V14.01,2013-02-16 11:57:00,
2013-02-16 06:58:00,11.5,1.3,29.06,WNW,292,2.7,4.5,63,0.00,,---,0.00,VWS V14.01,2013-02-16 11:58:00,
2013-02-16 06:59:00,11.5,1.3,29.06,WNW,292,3.6,4.5,63,0.00,,---,0.00,VWS V14.01,2013-02-16 11:59:00,
2013-02-16 07:00:00,11.5,1.3,29.06,WNW,292,3.6,4.5,63,0.00,,---,0.00,VWS V14.01,2013-02-16 12:00:00,
2013-02-16 07:01:00,11.5,1.3,29.06,WNW,292,2.7,5.8,63,0.00,,---,0.00,VWS V14.01,2013-02-16 12:01:00,
2013-02-16 07:02:00,20.3,14.0,29.00,WNW,288,0.0,4.0,76,0.00,,---,0.00,VWS V14.01,2013-02-16 12:02:00,
2013-02-16 07:03:00,11.5,1.3,29.06,WNW,292,2.7,5.8,63,0.00,,---,0.00,VWS V14.01,2013-02-16 12:03:00,
2013-02-16 07:04:00,11.5,1.3,29.06,WNW,292,2.7,3.6,63,0.00,,---,0.00,VWS V14.01,2013-02-16 12:04:00,
2013-02-16 07:05:00,11.5,1.3,29.06,WNW,292,0.0,4.5,63,0.00,,---,0.00,VWS V14.01,2013-02-16 12:05:00,
2013-02-16 07:06:00,11.5,1.3,29.09,WNW,292,3.6,3.6,63,0.00,,---,0.00,VWS V14.01,2013-02-16 12:06:00,
2013-02-16 07:07:00,20.1,14.1,29.00,WNW,289,0.0,4.0,77,0.00,,---,0.00,VWS V14.01,2013-02-16 12:07:00,
2013-02-16 07:08:00,11.5,1.3,29.09,WNW,292,5.8,6.3,63,0.00,,---,0.00,VWS V14.01,2013-02-16 12:08:00,
2013-02-16 07:09:00,11.5,1.3,29.09,WNW,292,3.6,5.8,63,0.00,,---,0.00,VWS V14.01,2013-02-16 12:09:00,
2013-02-16 07:10:00,11.5,1.3,29.09,WNW,292,4.0,5.4,63,0.00,,---,0.00,VWS V14.01,2013-02-16 12:10:00,
2013-02-16 07:11:00,11.5,1.3,29.09,WNW,292,4.5,4.5,63,0.00,,---,0.00,VWS V14.01,2013-02-16 12:11:00,
2013-02-16 07:12:00,20.1,14.1,29.00,WNW,289,2.7,3.6,77,0.00,,---,0.00,VWS V14.01,2013-02-16 12:12:00,
2013-02-16 07:13:00,11.5,1.3,29.09,WNW,292,4.0,4.0,63,0.00,,---,0.00,VWS V14.01,2013-02-16 12:13:00,
2013-02-16 07:14:00,11.5,1.3,29.09,WNW,292,3.1,4.9,63,0.00,,---,0.00,VWS V14.01,2013-02-16 12:14:00,
2013-02-16 07:15:00,11.5,1.3,29.09,WNW,292,0.0,4.0,63,0.00,,---,0.00,VWS V14.01,2013-02-16 12:15:00,
2013-02-16 07:16:00,11.5,1.3,29.09,WNW,292,0.0,4.0,63,0.00,,---,0.00,VWS V14.01,2013-02-16 12:16:00,
2013-02-16 07:17:00,20.1,14.1,29.00,WNW,289,4.9,6.9,77,0.00,,---,0.00,VWS V14.01,2013-02-16 12:17:00,
2013-02-16 07:18:00,11.5,1.3,29.09,WNW,292,0.0,3.6,63,0.00,,---,0.00,VWS V14.01,2013-02-16 12:18:00,
2013-02-16 07:19:00,11.3,1.2,29.09,WNW,292,4.0,4.0,63,0.00,,---,0.00,VWS V14.01,2013-02-16 12:19:00,
2013-02-16 07:20:00,11.5,1.3,29.09,WNW,292,3.1,5.4,63,0.00,,---,0.00,VWS V14.01,2013-02-16 12:20:00,
2013-02-16 07:21:00,11.5,1.3,29.09,WNW,292,4.0,4.5,63,0.00,,---,0.00,VWS V14.01,2013-02-16 12:21:00,
2013-02-16 07:22:00,20.5,14.7,29.00,WNW,297,3.1,6.9,78,0.00,,---,0.00,VWS V14.01,2013-02-16 12:22:00,
2013-02-16 07:23:00,11.5,1.3,29.09,WNW,292,4.9,4.9,63,0.00,,---,0.00,VWS V14.01,2013-02-16 12:23:00,
2013-02-16 07:24:00,11.5,1.3,29.09,WNW,292,4.5,5.8,63,0.00,,---,0.00,VWS V14.01,2013-02-16 12:24:00,
2013-02-16 07:25:00,11.5,1.3,29.09,WNW,292,0.0,4.5,63,0.00,,---,0.00,VWS V14.01,2013-02-16 12:25:00,
2013-02-16 07:26:00,11.5,1.3,29.09,WNW,292,3.1,4.0,63,0.00,,---,0.00,VWS V14.01,2013-02-16 12:26:00,
2013-02-16 07:27:00,20.7,14.9,29.00,WNW,297,4.0,4.9,78,0.00,,---,0.00,VWS V14.01,2013-02-16 12:27:00,
2013-02-16 07:28:00,11.5,1.3,29.09,WNW,292,4.0,4.5,63,0.00,,---,0.00,VWS V14.01,2013-02-16 12:28:00,
2013-02-16 07:29:00,11.5,1.3,29.09,WNW,292,0.0,5.4,63,0.00,,---,0.00,VWS V14.01,2013-02-16 12:29:00,
2013-02-16 07:30:00,11.5,1.3,29.09,WNW,292,0.0,3.6,63,0.00,,---,0.00,VWS V14.01,2013-02-16 12:30:00,
2013-02-16 07:31:00,11.5,1.3,29.09,WNW,292,3.6,4.0,63,0.00,,---,0.00,VWS V14.01,2013-02-16 12:31:00,
2013-02-16 07:32:00,20.8,15.4,29.00,WNW,297,4.0,4.9,79,0.00,,---,0.00,VWS V14.01,2013-02-16 12:32:00,
2013-02-16 07:33:00,11.5,1.3,29.09,WNW,292,0.0,5.8,63,0.00,,---,0.00,VWS V14.01,2013-02-16 12:33:00,
2013-02-16 07:34:00,11.5,1.3,29.09,WNW,292,0.0,3.1,63,0.00,,---,0.00,VWS V14.01,2013-02-16 12:34:00,
2013-02-16 07:35:00,11.5,1.3,29.09,WNW,292,2.7,3.6,63,0.00,,---,0.00,VWS V14.01,2013-02-16 12:35:00,
2013-02-16 07:36:00,11.5,1.3,29.09,WNW,292,2.7,3.1,63,0.00,,---,0.00,VWS V14.01,2013-02-16 12:36:00,
2013-02-16 07:37:00,21.2,15.7,29.00,WNW,297,0.0,6.9,79,0.00,,---,0.00,VWS V14.01,2013-02-16 12:37:00,
2013-02-16 07:38:00,11.3,1.2,29.09,WNW,292,2.7,3.1,63,0.00,,---,0.00,VWS V14.01,2013-02-16 12:38:00,
2013-02-16 07:39:00,11.1,1.0,29.09,WNW,292,0.0,3.1,63,0.00,,---,0.00,VWS V14.01,2013-02-16 12:39:00,
2013-02-16 07:40:00,11.1,1.0,29.09,WNW,292,2.7,3.6,63,0.00,,---,0.00,VWS V14.01,2013-02-16 12:40:00,
2013-02-16 07:41:00,11.1,1.0,29.09,WNW,292,2.7,3.6,63,0.00,,---,0.00,VWS V14.01,2013-02-16 12:41:00,
2013-02-16 07:42:00,21.4,15.9,29.00,WNW,297,2.7,5.8,79,0.00,,---,0.00,VWS V14.01,2013-02-16 12:42:00,
2013-02-16 07:43:00,11.1,1.0,29.09,WNW,292,2.7,5.8,63,0.00,,---,0.00,VWS V14.01,2013-02-16 12:43:00,
2013-02-16 07:44:00,11.1,1.0,29.09,WNW,292,0.0,2.7,63,0.00,,---,0.00,VWS V14.01,2013-02-16 12:44:00,
2013-02-16 07:45:00,11.1,1.0,29.09,WNW,292,2.7,3.1,63,0.00,,---,0.00,VWS V14.01,2013-02-16 12:45:00,
2013-02-16 07:46:00,11.1,1.0,29.09,WNW,292,0.0,3.6,63,0.00,,---,0.00,VWS V14.01,2013-02-16 12:46:00,
2013-02-16 07:47:00,21.7,16.2,29.00,WNW,301,4.9,5.8,79,0.00,,---,0.00,VWS V14.01,2013-02-16 12:47:00,
2013-02-16 07:48:00,11.1,1.0,29.09,WNW,292,0.0,4.5,63,0.00,,---,0.00,VWS V14.01,2013-02-16 12:48:00,
2013-02-16 07:49:00,11.1,1.0,29.09,WNW,292,5.4,5.4,63,0.00,,---,0.00,VWS V14.01,2013-02-16 12:49:00,
2013-02-16 07:50:00,11.1,1.0,29.09,WNW,292,0.0,5.4,63,0.00,,---,0.00,VWS V14.01,2013-02-16 12:50:00,
2013-02-16 07:51:00,11.1,1.0,29.09,WNW,292,3.6,5.4,63,0.00,,---,0.00,VWS V14.01,2013-02-16 12:51:00,
2013-02-16 07:52:00,22.1,16.0,29.00,NW,320,5.8,6.9,77,0.00,,---,0.00,VWS V14.01,2013-02-16 12:52:00,
2013-02-16 07:53:00,11.1,1.0,29.09,WNW,292,3.6,3.6,63,0.00,,---,0.00,VWS V14.01,2013-02-16 12:53:00,
2013-02-16 07:54:00,11.1,1.0,29.09,WNW,292,3.6,5.4,63,0.00,,---,0.00,VWS V14.01,2013-02-16 12:54:00,
2013-02-16 07:55:00,11.3,1.2,29.09,WNW,292,2.7,3.6,63,0.00,,---,0.00,VWS V14.01,2013-02-16 12:55:00,
2013-02-16 07:56:00,11.3,1.2,29.09,WNW,292,2.7,4.5,63,0.00,,---,0.00,VWS V14.01,2013-02-16 12:56:00,
2013-02-16 07:57:00,22.3,15.9,29.00,NW,304,5.4,6.3,76,0.00,,---,0.00,VWS V14.01,2013-02-16 12:57:00,
2013-02-16 07:58:00,11.3,1.2,29.09,WNW,292,0.0,2.7,63,0.00,,---,0.00,VWS V14.01,2013-02-16 12:58:00,
2013-02-16 07:59:00,11.3,1.2,29.09,WNW,292,0.0,5.8,63,0.00,,---,0.00,VWS V14.01,2013-02-16 12:59:00,
2013-02-16 08:00:00,11.3,1.2,29.09,WNW,292,4.5,4.9,63,0.00,,---,0.00,VWS V14.01,2013-02-16 13:00:00,
2013-02-16 08:01:00,11.3,1.2,29.09,WNW,292,3.1,4.5,63,0.00,,---,0.00,VWS V14.01,2013-02-16 13:01:00,
2013-02-16 08:02:00,22.3,15.6,29.00,NNW,327,5.8,8.7,75,0.00,,---,0.00,VWS V14.01,2013-02-16 13:02:00,
2013-02-16 08:03:00,11.3,1.2,29.09,WNW,292,4.5,5.8,63,0.00,,---,0.00,VWS V14.01,2013-02-16 13:03:00,
2013-02-16 08:04:00,11.3,1.2,29.09,WNW,292,4.5,5.8,63,0.00,,---,0.00,VWS V14.01,2013-02-16 13:04:00,
2013-02-16 08:05:00,11.3,1.2,29.09,WNW,292,0.0,4.5,63,0.00,,---,0.00,VWS V14.01,2013-02-16 13:05:00,
2013-02-16 08:06:00,11.3,1.2,29.09,WNW,292,0.0,4.9,63,0.00,,---,0.00,VWS V14.01,2013-02-16 13:06:00,
2013-02-16 08:07:00,22.5,15.4,29.00,NNW,329,4.5,5.8,74,0.00,,---,0.00,VWS V14.01,2013-02-16 13:07:00,
2013-02-16 08:08:00,11.1,1.0,29.09,WNW,292,0.0,4.0,63,0.00,,---,0.00,VWS V14.01,2013-02-16 13:08:00,
2013-02-16 08:09:00,11.1,1.0,29.09,WNW,292,0.0,2.7,63,0.00,,---,0.00,VWS V14.01,2013-02-16 13:09:00,
2013-02-16 08:10:00,11.1,1.0,29.09,WNW,292,0.0,0.0,63,0.00,,---,0.00,VWS V14.01,2013-02-16 13:10:00,
2013-02-16 08:11:00,11.1,1.0,29.09,WNW,292,0.0,0.0,63,0.00,,---,0.00,VWS V14.01,2013-02-16 13:11:00,
2013-02-16 08:12:00,22.5,15.4,29.00,NNW,343,5.8,6.9,74,0.00,,---,0.00,VWS V14.01,2013-02-16 13:12:00,
2013-02-16 08:13:00,10.9,0.8,29.09,WNW,292,2.7,4.5,63,0.00,,---,0.00,VWS V14.01,2013-02-16 13:13:00,
2013-02-16 08:14:00,10.9,0.8,29.09,WNW,292,0.0,2.7,63,0.00,,---,0.00,VWS V14.01,2013-02-16 13:14:00,
2013-02-16 08:15:00,10.9,0.8,29.09,WNW,292,3.1,3.1,63,0.00,,---,0.00,VWS V14.01,2013-02-16 13:15:00,
2013-02-16 08:16:00,10.9,0.8,29.09,WNW,292,0.0,4.9,63,0.00,,---,0.00,VWS V14.01,2013-02-16 13:16:00,
2013-02-16 08:17:00,22.8,15.8,29.00,NW,310,4.5,5.4,74,0.00,,---,0.00,VWS V14.01,2013-02-16 13:17:00,
2013-02-16 08:18:00,10.9,0.8,29.09,WNW,292,5.8,5.8,63,0.00,,---,0.00,VWS V14.01,2013-02-16 13:18:00,
2013-02-16 08:19:00,10.9,0.8,29.09,WNW,292,0.0,5.8,63,0.00,,---,0.00,VWS V14.01,2013-02-16 13:19:00,
2013-02-16 08:20:00,10.9,0.8,29.09,WNW,292,4.0,4.0,63,0.00,,---,0.00,VWS V14.01,2013-02-16 13:20:00,
2013-02-16 08:21:00,10.9,0.8,29.09,WNW,292,0.0,4.5,63,0.00,,---,0.00,VWS V14.01,2013-02-16 13:21:00,
2013-02-16 08:22:00,22.8,15.8,29.00,WNW,293,4.9,8.3,74,0.00,,---,0.00,VWS V14.01,2013-02-16 13:22:00,
2013-02-16 08:23:00,10.9,0.8,29.09,WNW,292,0.0,0.0,63,0.00,,---,0.00,VWS V14.01,2013-02-16 13:23:00,
2013-02-16 08:24:00,10.8,0.7,29.09,WNW,292,0.0,0.0,63,0.00,,---,0.00,VWS V14.01,2013-02-16 13:24:00,
2013-02-16 08:25:00,10.8,0.7,29.09,WNW,292,0.0,4.5,63,0.00,,---,0.00,VWS V14.01,2013-02-16 13:25:00,
2013-02-16 08:26:00,10.8,0.7,29.09,WNW,292,0.0,3.1,63,0.00,,---,0.00,VWS V14.01,2013-02-16 13:26:00,
2013-02-16 08:27:00,22.6,15.6,29.00,NW,314,6.7,9.2,74,0.00,,---,0.00,VWS V14.01,2013-02-16 13:27:00,
2013-02-16 08:28:00,10.8,0.7,29.09,WNW,292,0.0,2.7,63,0.00,,---,0.00,VWS V14.01,2013-02-16 13:28:00,
2013-02-16 08:29:00,10.8,0.7,29.09,WNW,292,0.0,4.0,63,0.00,,---,0.00,VWS V14.01,2013-02-16 13:29:00,
2013-02-16 08:30:00,10.9,0.8,29.09,WNW,292,0.0,0.0,63,0.00,,---,0.00,VWS V14.01,2013-02-16 13:30:00,
2013-02-16 08:31:00,10.9,0.8,29.09,WNW,292,0.0,4.5,63,0.00,,---,0.00,VWS V14.01,2013-02-16 13:31:00,
2013-02-16 08:32:00,22.5,14.5,29.00,NNW,327,5.4,6.9,71,0.00,,---,0.00,VWS V14.01,2013-02-16 13:32:00,
2013-02-16 08:33:00,10.9,0.8,29.09,WNW,292,0.0,2.7,63,0.00,,---,0.00,VWS V14.01,2013-02-16 13:33:00,
2013-02-16 08:34:00,10.9,0.8,29.09,WNW,292,0.0,4.0,63,0.00,,---,0.00,VWS V14.01,2013-02-16 13:34:00,
2013-02-16 08:35:00,10.9,0.8,29.09,WNW,292,0.0,3.1,63,0.00,,---,0.00,VWS V14.01,2013-02-16 13:35:00,
2013-02-16 08:36:00,10.9,0.8,29.09,WNW,292,0.0,4.0,63,0.00,,---,0.00,VWS V14.01,2013-02-16 13:36:00,
2013-02-16 08:37:00,22.5,13.8,29.00,NW,310,6.3,11.0,69,0.00,,---,0.00,VWS V14.01,2013-02-16 13:37:00,
2013-02-16 08:38:00,10.9,0.8,29.09,WNW,292,3.1,3.1,63,0.00,,---,0.00,VWS V14.01,2013-02-16 13:38:00,
2013-02-16 08:39:00,10.9,0.8,29.09,WNW,292,0.0,3.1,63,0.00,,---,0.00,VWS V14.01,2013-02-16 13:39:00,
2013-02-16 08:40:00,10.9,0.8,29.09,WNW,292,0.0,3.1,63,0.00,,---,0.00,VWS V14.01,2013-02-16 13:40:00,
2013-02-16 08:41:00,11.1,1.0,29.09,WNW,292,0.0,4.5,63,0.00,,---,0.00,VWS V14.01,2013-02-16 13:41:00,
2013-02-16 08:42:00,22.3,13.0,29.00,NW,313,7.8,9.2,67,0.00,,---,0.00,VWS V14.01,2013-02-16 13:42:00,
2013-02-16 08:43:00,11.1,1.0,29.09,WNW,292,5.4,5.8,63,0.00,,---,0.00,VWS V14.01,2013-02-16 13:43:00,
2013-02-16 08:44:00,11.1,1.0,29.09,WNW,292,0.0,5.4,63,0.00,,---,0.00,VWS V14.01,2013-02-16 13:44:00,
2013-02-16 08:45:00,11.3,1.2,29.09,WNW,292,2.7,4.0,63,0.00,,---,0.00,VWS V14.01,2013-02-16 13:45:00,
2013-02-16 08:46:00,11.3,1.2,29.09,WNW,292,0.0,2.7,63,0.00,,---,0.00,VWS V14.01,2013-02-16 13:46:00,
2013-02-16 08:47:00,22.1,13.2,29.00,WNW,298,5.8,9.2,68,0.00,,---,0.00,VWS V14.01,2013-02-16 13:47:00,
2013-02-16 08:48:00,11.3,1.2,29.09,WNW,292,0.0,3.1,63,0.00,,---,0.00,VWS V14.01,2013-02-16 13:48:00,
2013-02-16 08:49:00,11.1,1.0,29.09,WNW,292,0.0,0.0,63,0.00,,---,0.00,VWS V14.01,2013-02-16 13:49:00,
2013-02-16 08:50:00,11.1,1.0,29.09,WNW,292,0.0,2.7,63,0.00,,---,0.00,VWS V14.01,2013-02-16 13:50:00,
2013-02-16 08:51:00,11.3,1.2,29.12,WNW,292,2.7,3.6,63,0.00,,---,0.00,VWS V14.01,2013-02-16 13:51:00,
2013-02-16 08:52:00,21.9,13.3,29.00,NW,310,5.8,6.9,69,0.00,,---,0.00,VWS V14.01,2013-02-16 13:52:00,
2013-02-16 08:53:00,11.3,1.2,29.12,WNW,292,0.0,0.0,63,0.00,,---,0.00,VWS V14.01,2013-02-16 13:53:00,
2013-02-16 08:54:00,11.3,1.2,29.12,WNW,292,3.1,3.1,63,0.00,,---,0.00,VWS V14.01,2013-02-16 13:54:00,
2013-02-16 08:55:00,11.3,1.2,29.12,WNW,292,3.6,3.6,63,0.00,,---,0.00,VWS V14.01,2013-02-16 13:55:00,
2013-02-16 08:56:00,11.5,1.3,29.12,WNW,292,0.0,3.6,63,0.00,,---,0.00,VWS V14.01,2013-02-16 13:56:00,
2013-02-16 08:57:00,21.9,13.6,29.00,NW,321,5.4,7.8,70,0.00,,---,0.00,VWS V14.01,2013-02-16 13:57:00,
2013-02-16 08:58:00,11.5,1.3,29.12,WNW,292,0.0,3.6,63,0.00,,---,0.00,VWS V14.01,2013-02-16 13:58:00,
2013-02-16 08:59:00,11.5,1.3,29.12,WNW,292,0.0,2.7,63,0.00,,---,0.00,VWS V14.01,2013-02-16 13:59:00,
2013-02-16 09:00:00,11.5,1.3,29.12,WNW,292,0.0,0.0,63,0.00,,---,0.00,VWS V14.01,2013-02-16 14:00:00,
2013-02-16 09:01:00,11.7,1.5,29.12,WNW,292,4.0,4.0,63,0.00,,---,0.00,VWS V14.01,2013-02-16 14:01:00,
2013-02-16 09:02:00,22.5,14.5,29.00,NW,309,6.7,8.7,71,0.00,,---,0.00,VWS V14.01,2013-02-16 14:02:00,
2013-02-16 09:03:00,11.7,1.5,29.12,WNW,292,3.6,4.9,63,0.00,,---,0.00,VWS V14.01,2013-02-16 14:03:00,
2013-02-16 09:04:00,11.8,1.7,29.12,WNW,292,4.9,5.4,63,0.00,,---,0.00,VWS V14.01,2013-02-16 14:04:00,
2013-02-16 09:05:00,11.8,1.7,29.12,WNW,292,0.0,5.4,63,0.00,,---,0.00,VWS V14.01,2013-02-16 14:05:00,
2013-02-16 09:06:00,12.0,1.9,29.12,WNW,292,0.0,3.6,63,0.00,,---,0.00,VWS V14.01,2013-02-16 14:06:00,
2013-02-16 09:07:00,23.0,14.7,29.00,NW,315,5.4,8.7,70,0.00,,---,0.00,VWS V14.01,2013-02-16 14:07:00,
2013-02-16 09:08:00,12.2,2.0,29.12,WNW,292,3.6,4.0,63,0.00,,---,0.00,VWS V14.01,2013-02-16 14:08:00,
2013-02-16 09:09:00,12.2,2.0,29.12,WNW,292,0.0,4.0,63,0.00,,---,0.00,VWS V14.01,2013-02-16 14:09:00,
2013-02-16 09:10:00,12.4,2.2,29.12,WNW,292,0.0,4.0,63,0.00,,---,0.00,VWS V14.01,2013-02-16 14:10:00,
2013-02-16 09:11:00,12.4,2.2,29.12,WNW,292,2.7,4.0,63,0.00,,---,0.00,VWS V14.01,2013-02-16 14:11:00,
2013-02-16 09:12:00,23.0,13.7,29.00,West,281,8.3,11.0,67,0.00,,---,0.00,VWS V14.01,2013-02-16 14:12:00,
2013-02-16 09:13:00,12.6,2.4,29.12,WNW,292,5.4,6.9,63,0.00,,---,0.00,VWS V14.01,2013-02-16 14:13:00,
2013-02-16 09:14:00,12.7,2.5,29.12,WNW,292,4.9,5.4,63,0.00,,---,0.00,VWS V14.01,2013-02-16 14:14:00,
2013-02-16 09:15:00,12.7,2.5,29.12,WNW,292,4.0,4.9,63,0.00,,---,0.00,VWS V14.01,2013-02-16 14:15:00,
2013-02-16 09:16:00,12.9,2.7,29.12,WNW,292,3.6,4.5,63,0.00,,---,0.00,VWS V14.01,2013-02-16 14:16:00,
2013-02-16 09:17:00,22.6,12.0,29.00,NNW,333,5.8,9.2,63,0.00,,---,0.00,VWS V14.01,2013-02-16 14:17:00,
2013-02-16 09:18:00,13.1,2.9,29.12,WNW,292,3.1,4.5,63,0.00,,---,0.00,VWS V14.01,2013-02-16 14:18:00,
2013-02-16 09:19:00,13.3,3.1,29.12,WNW,292,0.0,3.6,63,0.00,,---,0.00,VWS V14.01,2013-02-16 14:19:00,
2013-02-16 09:20:00,13.3,3.1,29.12,NW,317,7.8,7.8,63,0.00,,---,0.00,VWS V14.01,2013-02-16 14:20:00,
2013-02-16 09:21:00,13.3,3.1,29.12,WNW,298,4.9,7.8,63,0.00,,---,0.00,VWS V14.01,2013-02-16 14:21:00,
2013-02-16 09:22:00,22.5,11.4,29.00,West,279,8.7,9.2,62,0.00,,---,0.00,VWS V14.01,2013-02-16 14:22:00,
2013-02-16 09:23:00,13.5,3.2,29.12,WNW,294,4.5,6.3,63,0.00,,---,0.00,VWS V14.01,2013-02-16 14:23:00,
2013-02-16 09:24:00,13.6,3.4,29.12,WNW,297,4.9,5.4,63,0.00,,---,0.00,VWS V14.01,2013-02-16 14:24:00,
2013-02-16 09:25:00,13.6,3.4,29.12,NW,321,4.5,5.8,63,0.00,,---,0.00,VWS V14.01,2013-02-16 14:25:00,
2013-02-16 09:26:00,13.8,3.6,29.12,NW,319,2.7,4.5,63,0.00,,---,0.00,VWS V14.01,2013-02-16 14:26:00,
2013-02-16 09:27:00,14.0,2.0,29.12,NNW,332,4.5,4.9,58,0.00,,---,0.00,VWS V14.01,2013-02-16 14:27:00,
2013-02-16 09:28:00,22.1,11.4,29.00,WNW,288,8.7,12.1,63,0.00,,---,0.00,VWS V14.01,2013-02-16 14:28:00,
2013-02-16 09:29:00,14.0,2.0,29.12,NW,322,5.8,6.7,58,0.00,,---,0.00,VWS V14.01,2013-02-16 14:29:00,
2013-02-16 09:30:00,14.2,2.1,29.12,NW,316,4.5,5.8,58,0.00,,---,0.00,VWS V14.01,2013-02-16 14:30:00,
2013-02-16 09:31:00,14.2,1.8,29.12,NW,326,4.9,4.9,57,0.00,,---,0.00,VWS V14.01,2013-02-16 14:31:00,
2013-02-16 09:32:00,14.4,1.9,29.12,NNW,338,5.4,6.3,57,0.00,,---,0.00,VWS V14.01,2013-02-16 14:32:00,
2013-02-16 09:33:00,21.7,11.1,29.00,NW,324,6.9,10.1,63,0.00,,---,0.00,VWS V14.01,2013-02-16 14:33:00,
2013-02-16 09:34:00,14.4,1.9,29.12,NNW,340,4.9,6.9,57,0.00,,---,0.00,VWS V14.01,2013-02-16 14:34:00,
2013-02-16 09:35:00,14.4,1.5,29.12,NW,311,4.9,6.3,56,0.00,,---,0.00,VWS V14.01,2013-02-16 14:35:00,
2013-02-16 09:36:00,14.4,1.5,29.12,NNW,330,4.9,6.9,56,0.00,,---,0.00,VWS V14.01,2013-02-16 14:36:00,
2013-02-16 09:37:00,14.5,1.7,29.12,NW,310,5.4,5.8,56,0.00,,---,0.00,VWS V14.01,2013-02-16 14:37:00,
2013-02-16 09:38:00,21.6,9.5,29.00,NW,325,4.5,8.7,59,0.00,,---,0.00,VWS V14.01,2013-02-16 14:38:00,
2013-02-16 09:39:00,14.7,1.9,29.12,NW,306,5.8,6.3,56,0.00,,---,0.00,VWS V14.01,2013-02-16 14:39:00,
2013-02-16 09:40:00,14.9,2.0,29.12,WNW,302,4.9,5.8,56,0.00,,---,0.00,VWS V14.01,2013-02-16 14:40:00,
2013-02-16 09:41:00,14.9,1.7,29.12,NW,324,5.8,6.3,55,0.00,,---,0.00,VWS V14.01,2013-02-16 14:41:00,
2013-02-16 09:42:00,14.9,1.7,29.12,NNW,328,5.8,6.3,55,0.00,,---,0.00,VWS V14.01,2013-02-16 14:42:00,
2013-02-16 09:43:00,21.9,9.8,29.00,NW,312,8.7,9.2,59,0.00,,---,0.00,VWS V14.01,2013-02-16 14:43:00,
2013-02-16 09:44:00,15.1,1.8,29.12,NNW,328,6.7,6.9,55,0.00,,---,0.00,VWS V14.01,2013-02-16 14:44:00,
2013-02-16 09:45:00,14.9,1.7,29.12,NW,318,3.1,7.8,55,0.00,,---,0.00,VWS V14.01,2013-02-16 14:45:00,
2013-02-16 09:46:00,15.1,1.8,29.12,NW,323,5.4,5.4,55,0.00,,---,0.00,VWS V14.01,2013-02-16 14:46:00,
2013-02-16 09:47:00,15.3,2.0,29.12,North,351,5.8,5.8,55,0.00,,---,0.00,VWS V14.01,2013-02-16 14:47:00,
2013-02-16 09:48:00,22.5,9.9,29.00,NNW,335,4.5,5.8,58,0.00,,---,0.00,VWS V14.01,2013-02-16 14:48:00,
2013-02-16 09:49:00,15.3,2.0,29.12,WNW,300,4.0,7.4,55,0.00,,---,0.00,VWS V14.01,2013-02-16 14:49:00,
2013-02-16 09:50:00,15.3,1.6,29.12,NW,310,4.5,5.8,54,0.00,,---,0.00,VWS V14.01,2013-02-16 14:50:00,
2013-02-16 09:51:00,15.3,1.6,29.12,NW,305,4.9,6.7,54,0.00,,---,0.00,VWS V14.01,2013-02-16 14:51:00,
2013-02-16 09:52:00,15.3,1.6,29.12,NNW,343,6.7,6.7,54,0.00,,---,0.00,VWS V14.01,2013-02-16 14:52:00,
2013-02-16 09:53:00,22.8,9.9,29.00,NNW,339,7.4,8.7,57,0.00,,---,0.00,VWS V14.01,2013-02-16 14:53:00,
2013-02-16 09:54:00,15.6,2.0,29.12,NW,326,3.6,4.9,54,0.00,,---,0.00,VWS V14.01,2013-02-16 14:54:00,
2013-02-16 09:55:00,15.6,2.0,29.12,North,351,5.4,5.8,54,0.00,,---,0.00,VWS V14.01,2013-02-16 14:55:00,
2013-02-16 09:56:00,15.8,2.1,29.12,NNW,343,4.5,6.3,54,0.00,,---,0.00,VWS V14.01,2013-02-16 14:56:00,
2013-02-16 09:57:00,15.8,2.1,29.12,NNW,343,3.6,4.5,54,0.00,,---,0.00,VWS V14.01,2013-02-16 14:57:00,
2013-02-16 09:58:00,22.6,9.7,29.00,North,351,5.4,9.6,57,0.00,,---,0.00,VWS V14.01,2013-02-16 14:58:00,
2013-02-16 09:59:00,16.0,2.3,29.12,NW,313,5.4,6.3,54,0.00,,---,0.00,VWS V14.01,2013-02-16 14:59:00,
2013-02-16 10:00:00,16.2,2.5,29.12,NNW,342,6.3,6.3,54,0.00,,---,0.00,VWS V14.01,2013-02-16 15:00:00,
2013-02-16 10:01:00,16.0,2.3,29.12,NW,310,5.4,6.7,54,0.00,,---,0.00,VWS V14.01,2013-02-16 15:01:00,
2013-02-16 10:02:00,16.0,2.3,29.12,NW,322,4.5,6.3,54,0.00,,---,0.00,VWS V14.01,2013-02-16 15:02:00,
2013-02-16 10:03:00,22.6,9.3,29.00,WNW,284,7.4,8.7,56,0.00,,---,0.00,VWS V14.01,2013-02-16 15:03:00,
2013-02-16 10:04:00,16.3,2.2,29.12,NW,311,4.0,6.7,53,0.00,,---,0.00,VWS V14.01,2013-02-16 15:04:00,
2013-02-16 10:05:00,16.3,2.2,29.12,WNW,303,4.9,5.8,53,0.00,,---,0.00,VWS V14.01,2013-02-16 15:05:00,
2013-02-16 10:06:00,16.3,2.2,29.12,NW,321,5.8,6.7,53,0.00,,---,0.00,VWS V14.01,2013-02-16 15:06:00,
2013-02-16 10:07:00,16.3,2.2,29.12,NNW,339,4.9,6.3,53,0.00,,---,0.00,VWS V14.01,2013-02-16 15:07:00,
2013-02-16 10:08:00,22.3,8.6,29.00,NW,319,6.7,8.3,55,0.00,,---,0.00,VWS V14.01,2013-02-16 15:08:00,
2013-02-16 10:09:00,16.3,2.2,29.12,NNW,340,5.4,6.9,53,0.00,,---,0.00,VWS V14.01,2013-02-16 15:09:00,
2013-02-16 10:10:00,16.5,2.0,29.12,NNW,332,4.0,5.4,52,0.00,,---,0.00,VWS V14.01,2013-02-16 15:10:00,
2013-02-16 10:11:00,16.5,2.0,29.12,NW,325,5.4,6.7,52,0.00,,---,0.00,VWS V14.01,2013-02-16 15:11:00,
2013-02-16 10:12:00,16.5,2.0,29.12,NNW,327,5.8,6.3,52,0.00,,---,0.00,VWS V14.01,2013-02-16 15:12:00,
2013-02-16 10:13:00,22.1,8.4,29.00,NNW,343,6.9,11.6,55,0.00,,---,0.00,VWS V14.01,2013-02-16 15:13:00,
2013-02-16 10:14:00,16.5,2.0,29.12,NW,313,5.8,6.9,52,0.00,,---,0.00,VWS V14.01,2013-02-16 15:14:00,
2013-02-16 10:15:00,16.5,2.0,29.12,NNW,334,5.4,6.9,52,0.00,,---,0.00,VWS V14.01,2013-02-16 15:15:00,
2013-02-16 10:16:00,16.5,2.0,29.12,NW,319,3.1,5.4,52,0.00,,---,0.00,VWS V14.01,2013-02-16 15:16:00,
2013-02-16 10:17:00,16.7,2.1,29.12,NW,307,4.5,5.4,52,0.00,,---,0.00,VWS V14.01,2013-02-16 15:17:00,
2013-02-16 10:18:00,22.1,8.8,29.00,NW,323,5.4,11.0,56,0.00,,---,0.00,VWS V14.01,2013-02-16 15:18:00,
2013-02-16 10:19:00,16.9,2.3,29.12,NNW,335,5.8,6.9,52,0.00,,---,0.00,VWS V14.01,2013-02-16 15:19:00,
2013-02-16 10:20:00,16.7,2.1,29.12,NW,325,4.0,6.7,52,0.00,,---,0.00,VWS V14.01,2013-02-16 15:20:00,
2013-02-16 10:21:00,16.9,2.3,29.12,NNW,333,4.9,5.4,52,0.00,,---,0.00,VWS V14.01,2013-02-16 15:21:00,
2013-02-16 10:22:00,16.9,2.3,29.12,NNW,331,4.0,6.3,52,0.00,,---,0.00,VWS V14.01,2013-02-16 15:22:00,
2013-02-16 10:23:00,22.1,8.4,29.00,NNW,328,7.8,10.5,55,0.00,,---,0.00,VWS V14.01,2013-02-16 15:23:00,
2013-02-16 10:24:00,17.2,2.7,29.12,NNW,342,4.0,5.4,52,0.00,,---,0.00,VWS V14.01,2013-02-16 15:24:00,
2013-02-16 10:25:00,17.2,2.7,29.12,NW,320,4.5,5.4,52,0.00,,---,0.00,VWS V14.01,2013-02-16 15:25:00,
2013-02-16 10:26:00,17.4,3.2,29.12,NNW,330,3.6,5.4,53,0.00,,---,0.00,VWS V14.01,2013-02-16 15:26:00,
2013-02-16 10:27:00,17.4,3.2,29.12,NNW,330,4.9,5.4,53,0.00,,---,0.00,VWS V14.01,2013-02-16 15:27:00,
2013-02-16 10:28:00,22.1,8.0,29.00,NNW,339,6.7,11.2,54,0.00,,---,0.00,VWS V14.01,2013-02-16 15:28:00,
2013-02-16 10:29:00,17.8,3.6,29.12,NW,313,5.8,5.8,53,0.00,,---,0.00,VWS V14.01,2013-02-16 15:29:00,
2013-02-16 10:30:00,18.0,3.7,29.12,NW,305,4.9,6.7,53,0.00,,---,0.00,VWS V14.01,2013-02-16 15:30:00,
2013-02-16 10:31:00,18.0,3.7,29.12,NW,311,3.1,5.8,53,0.00,,---,0.00,VWS V14.01,2013-02-16 15:31:00,
2013-02-16 10:32:00,18.1,3.9,29.12,WNW,302,5.8,6.7,53,0.00,,---,0.00,VWS V14.01,2013-02-16 15:32:00,
2013-02-16 10:33:00,22.1,8.0,29.00,NW,307,7.4,9.6,54,0.00,,---,0.00,VWS V14.01,2013-02-16 15:33:00,
2013-02-16 10:34:00,18.3,4.1,29.12,WNW,283,6.7,6.9,53,0.00,,---,0.00,VWS V14.01,2013-02-16 15:34:00,
2013-02-16 10:35:00,18.3,3.7,29.12,NNW,336,4.5,6.9,52,0.00,,---,0.00,VWS V14.01,2013-02-16 15:35:00,
2013-02-16 10:36:00,18.5,3.8,29.12,NW,318,3.1,4.9,52,0.00,,---,0.00,VWS V14.01,2013-02-16 15:36:00,
2013-02-16 10:37:00,18.5,3.4,29.12,NW,318,3.1,4.0,51,0.00,,---,0.00,VWS V14.01,2013-02-16 15:37:00,
2013-02-16 10:38:00,21.9,7.4,29.00,NW,318,6.7,11.0,53,0.00,,---,0.00,VWS V14.01,2013-02-16 15:38:00,
2013-02-16 10:39:00,18.7,3.6,29.12,WNW,294,6.3,7.4,51,0.00,,---,0.00,VWS V14.01,2013-02-16 15:39:00,
2013-02-16 10:40:00,18.9,3.7,29.12,NW,311,3.6,6.3,51,0.00,,---,0.00,VWS V14.01,2013-02-16 15:40:00,
2013-02-16 10:41:00,18.9,3.7,29.12,NW,307,5.8,6.3,51,0.00,,---,0.00,VWS V14.01,2013-02-16 15:41:00,
2013-02-16 10:42:00,18.9,3.7,29.12,NNW,344,4.5,7.4,51,0.00,,---,0.00,VWS V14.01,2013-02-16 15:42:00,
2013-02-16 10:43:00,21.9,6.6,29.00,NNW,332,6.9,9.6,51,0.00,,---,0.00,VWS V14.01,2013-02-16 15:43:00,
2013-02-16 10:44:00,18.9,3.3,29.12,North,351,3.6,5.8,50,0.00,,---,0.00,VWS V14.01,2013-02-16 15:44:00,
2013-02-16 10:45:00,19.0,3.5,29.12,NW,316,4.9,5.8,50,0.00,,---,0.00,VWS V14.01,2013-02-16 15:45:00,
2013-02-16 10:46:00,19.0,3.5,29.12,NW,324,2.7,4.9,50,0.00,,---,0.00,VWS V14.01,2013-02-16 15:46:00,
2013-02-16 10:47:00,19.2,3.6,29.12,NNW,342,3.1,4.5,50,0.00,,---,0.00,VWS V14.01,2013-02-16 15:47:00,
2013-02-16 10:48:00,22.1,5.9,29.00,NW,326,7.8,9.6,49,0.00,,---,0.00,VWS V14.01,2013-02-16 15:48:00,
2013-02-16 10:49:00,20.1,4.9,29.12,NNE,28,0.0,3.1,51,0.00,,---,0.00,VWS V14.01,2013-02-16 15:49:00,
2013-02-16 10:50:00,20.3,4.6,29.12,NNW,332,6.9,6.9,50,0.00,,---,0.00,VWS V14.01,2013-02-16 15:50:00,
2013-02-16 10:51:00,20.3,4.6,29.12,North,351,3.6,6.9,50,0.00,,---,0.00,VWS V14.01,2013-02-16 15:51:00,
2013-02-16 10:52:00,20.3,4.2,29.12,North,351,3.6,4.5,49,0.00,,---,0.00,VWS V14.01,2013-02-16 15:52:00,
2013-02-16 10:53:00,22.5,5.3,29.00,NW,307,7.4,7.8,47,0.00,,---,0.00,VWS V14.01,2013-02-16 15:53:00,
2013-02-16 10:54:00,20.5,3.9,29.12,NW,317,4.0,5.8,48,0.00,,---,0.00,VWS V14.01,2013-02-16 15:54:00,
2013-02-16 10:55:00,20.7,4.1,29.12,NW,317,0.0,4.0,48,0.00,,---,0.00,VWS V14.01,2013-02-16 15:55:00,
2013-02-16 10:56:00,20.7,3.6,29.12,NW,323,2.7,4.9,47,0.00,,---,0.00,VWS V14.01,2013-02-16 15:56:00,
2013-02-16 10:57:00,20.7,3.6,29.12,NW,320,0.0,5.8,47,0.00,,---,0.00,VWS V14.01,2013-02-16 15:57:00,
2013-02-16 10:58:00,20.7,3.6,29.12,NNW,346,4.9,5.4,47,0.00,,---,0.00,VWS V14.01,2013-02-16 15:58:00,
2013-02-16 10:59:00,22.1,5.0,29.00,NW,314,5.4,7.8,47,0.00,,---,0.00,VWS V14.01,2013-02-16 15:59:00,
2013-02-16 11:00:00,21.0,4.0,29.12,NNW,345,0.0,0.0,47,0.00,,---,0.00,VWS V14.01,2013-02-16 16:00:00,
2013-02-16 11:01:00,21.2,4.1,29.12,NNE,12,4.5,6.3,47,0.00,,---,0.00,VWS V14.01,2013-02-16 16:01:00,
2013-02-16 11:02:00,21.7,4.6,29.12,NNE,25,3.6,4.9,47,0.00,,---,0.00,VWS V14.01,2013-02-16 16:02:00,
2013-02-16 11:03:00,21.6,4.0,29.12,NNW,329,7.4,7.4,46,0.00,,---,0.00,VWS V14.01,2013-02-16 16:03:00,
2013-02-16 11:04:00,22.6,5.9,29.00,WNW,283,4.0,13.9,48,0.00,,---,0.00,VWS V14.01,2013-02-16 16:04:00,
2013-02-16 11:05:00,21.4,3.8,29.12,NNW,344,3.6,5.4,46,0.00,,---,0.00,VWS V14.01,2013-02-16 16:05:00,
2013-02-16 11:06:00,21.2,3.2,29.15,North,356,6.7,6.7,45,0.00,,---,0.00,VWS V14.01,2013-02-16 16:06:00,
2013-02-16 11:07:00,21.0,3.0,29.15,NNW,335,4.0,6.7,45,0.00,,---,0.00,VWS V14.01,2013-02-16 16:07:00,
2013-02-16 11:08:00,20.8,2.9,29.15,NNW,336,4.9,6.7,45,0.00,,---,0.00,VWS V14.01,2013-02-16 16:08:00,
2013-02-16 11:09:00,22.6,5.5,29.00,West,275,9.2,11.6,47,0.00,,---,0.00,VWS V14.01,2013-02-16 16:09:00,
2013-02-16 11:10:00,20.8,2.9,29.15,NW,316,4.0,5.8,45,0.00,,---,0.00,VWS V14.01,2013-02-16 16:10:00,
2013-02-16 11:11:00,20.8,3.3,29.15,NW,307,4.9,6.3,46,0.00,,---,0.00,VWS V14.01,2013-02-16 16:11:00,
2013-02-16 11:12:00,20.8,3.3,29.15,NNW,327,5.4,6.9,46,0.00,,---,0.00,VWS V14.01,2013-02-16 16:12:00,
2013-02-16 11:13:00,20.8,3.3,29.15,North,351,3.6,5.8,46,0.00,,---,0.00,VWS V14.01,2013-02-16 16:13:00,
2013-02-16 11:14:00,21.2,3.7,29.15,NNW,347,0.0,4.9,46,0.00,,---,0.00,VWS V14.01,2013-02-16 16:14:00,
2013-02-16 11:15:00,22.1,4.5,29.00,NNW,340,5.8,8.3,46,0.00,,---,0.00,VWS V14.01,2013-02-16 16:15:00,
2013-02-16 11:16:00,21.2,3.7,29.15,NW,317,2.7,5.4,46,0.00,,---,0.00,VWS V14.01,2013-02-16 16:16:00,
2013-02-16 11:17:00,21.2,3.7,29.15,WNW,283,4.0,6.7,46,0.00,,---,0.00,VWS V14.01,2013-02-16 16:17:00,
2013-02-16 11:18:00,21.2,3.7,29.15,NNW,342,5.4,5.4,46,0.00,,---,0.00,VWS V14.01,2013-02-16 16:18:00,
2013-02-16 11:19:00,21.4,3.8,29.15,NNW,341,0.0,5.4,46,0.00,,---,0.00,VWS V14.01,2013-02-16 16:19:00,
2013-02-16 11:20:00,21.4,3.8,29.15,North,0,0.0,5.8,46,0.00,,---,0.00,VWS V14.01,2013-02-16 16:20:00,
2013-02-16 11:21:00,22.1,5.0,29.00,NNW,331,7.8,11.0,47,0.00,,---,0.00,VWS V14.01,2013-02-16 16:21:00,
2013-02-16 11:22:00,22.1,4.5,29.12,NNW,340,3.6,3.6,46,0.00,,---,0.00,VWS V14.01,2013-02-16 16:22:00,
2013-02-16 11:23:00,22.3,4.2,29.12,NNW,340,0.0,3.6,45,0.00,,---,0.00,VWS V14.01,2013-02-16 16:23:00,
2013-02-16 11:24:00,22.8,4.7,29.12,NNW,340,0.0,3.6,45,0.00,,---,0.00,VWS V14.01,2013-02-16 16:24:00,
2013-02-16 11:25:00,23.0,4.8,29.12,NNW,335,4.9,4.9,45,0.00,,---,0.00,VWS V14.01,2013-02-16 16:25:00,
2013-02-16 11:26:00,22.6,5.5,29.00,WNW,282,6.3,9.2,47,0.00,,---,0.00,VWS V14.01,2013-02-16 16:26:00,
2013-02-16 11:27:00,22.6,4.0,29.12,NNW,340,4.0,5.8,44,0.00,,---,0.00,VWS V14.01,2013-02-16 16:27:00,
2013-02-16 11:28:00,22.6,4.0,29.12,NNW,332,4.5,5.4,44,0.00,,---,0.00,VWS V14.01,2013-02-16 16:28:00,
2013-02-16 11:29:00,22.5,3.9,29.12,NNW,338,3.6,5.8,44,0.00,,---,0.00,VWS V14.01,2013-02-16 16:29:00,
2013-02-16 11:30:00,22.8,4.2,29.12,NNW,338,0.0,3.6,44,0.00,,---,0.00,VWS V14.01,2013-02-16 16:30:00,
2013-02-16 11:31:00,22.8,5.6,29.00,NW,314,6.3,9.6,47,0.00,,---,0.00,VWS V14.01,2013-02-16 16:31:00,
2013-02-16 11:32:00,23.2,4.5,29.12,NNW,330,6.9,6.9,44,0.00,,---,0.00,VWS V14.01,2013-02-16 16:32:00,
2013-02-16 11:33:00,23.0,3.8,29.12,NW,318,6.3,6.9,43,0.00,,---,0.00,VWS V14.01,2013-02-16 16:33:00,
2013-02-16 11:34:00,22.8,3.7,29.12,WNW,303,5.8,6.3,43,0.00,,---,0.00,VWS V14.01,2013-02-16 16:34:00,
2013-02-16 11:35:00,22.8,3.7,29.12,West,273,4.0,5.8,43,0.00,,---,0.00,VWS V14.01,2013-02-16 16:35:00,
2013-02-16 11:36:00,23.0,3.8,29.15,West,279,4.0,5.4,43,0.00,,---,0.00,VWS V14.01,2013-02-16 16:36:00,
2013-02-16 11:37:00,23.0,3.8,29.15,NNW,332,4.5,5.4,43,0.00,,---,0.00,VWS V14.01,2013-02-16 16:37:00,
2013-02-16 11:38:00,23.0,3.8,29.15,NNW,336,0.0,5.4,43,0.00,,---,0.00,VWS V14.01,2013-02-16 16:38:00,
2013-02-16 11:39:00,23.4,4.2,29.15,North,356,3.1,3.1,43,0.00,,---,0.00,VWS V14.01,2013-02-16 16:39:00,
2013-02-16 11:40:00,22.3,4.7,29.00,West,269,6.3,9.2,46,0.00,,---,0.00,VWS V14.01,2013-02-16 16:40:00,
2013-02-16 11:41:00,24.4,4.7,29.15,NNW,342,4.5,4.5,42,0.00,,---,0.00,VWS V14.01,2013-02-16 16:41:00,
2013-02-16 11:42:00,24.6,4.8,29.15,NNE,18,2.7,4.5,42,0.00,,---,0.00,VWS V14.01,2013-02-16 16:42:00,
2013-02-16 11:43:00,25.3,5.5,29.15,NNE,18,0.0,4.0,42,0.00,,---,0.00,VWS V14.01,2013-02-16 16:43:00,
2013-02-16 11:45:00,22.3,5.1,29.00,NNW,333,6.9,8.3,47,0.00,,---,0.00,VWS V14.01,2013-02-16 16:45:00,
2013-02-16 11:46:00,26.4,5.9,29.15,North,0,0.0,0.0,41,0.00,,---,0.00,VWS V14.01,2013-02-16 16:46:00,
2013-02-16 11:47:00,26.1,4.5,29.15,North,351,4.5,5.8,39,0.00,,---,0.00,VWS V14.01,2013-02-16 16:47:00,
2013-02-16 11:48:00,26.2,4.1,29.15,North,351,0.0,4.5,38,0.00,,---,0.00,VWS V14.01,2013-02-16 16:48:00,
2013-02-16 11:49:00,25.9,2.6,29.15,WNW,299,3.6,4.5,36,0.00,,---,0.00,VWS V14.01,2013-02-16 16:49:00,
2013-02-16 11:50:00,22.5,6.2,29.00,WNW,302,9.6,10.1,49,0.00,,---,0.00,VWS V14.01,2013-02-16 16:50:00,
2013-02-16 11:51:00,25.2,1.4,29.15,NW,326,3.1,5.8,35,0.00,,---,0.00,VWS V14.01,2013-02-16 16:51:00,
2013-02-16 11:52:00,25.0,1.8,29.15,NNW,327,3.6,4.5,36,0.00,,---,0.00,VWS V14.01,2013-02-16 16:52:00,
2013-02-16 11:53:00,24.8,1.6,29.15,NNW,337,0.0,4.5,36,0.00,,---,0.00,VWS V14.01,2013-02-16 16:53:00,
2013-02-16 11:54:00,25.2,2.0,29.15,NNW,344,0.0,4.0,36,0.00,,---,0.00,VWS V14.01,2013-02-16 16:54:00,
2013-02-16 11:55:00,23.0,8.4,29.00,NNW,327,9.2,10.5,53,0.00,,---,0.00,VWS V14.01,2013-02-16 16:55:00,
2013-02-16 11:56:00,25.2,2.0,29.15,NNW,340,3.6,4.9,36,0.00,,---,0.00,VWS V14.01,2013-02-16 16:56:00,
2013-02-16 11:57:00,25.2,2.0,29.15,NNW,330,5.4,6.3,36,0.00,,---,0.00,VWS V14.01,2013-02-16 16:57:00,
2013-02-16 11:58:00,25.0,1.8,29.15,NNW,342,4.0,5.8,36,0.00,,---,0.00,VWS V14.01,2013-02-16 16:58:00,
2013-02-16 11:59:00,24.6,1.5,29.15,NNW,335,3.6,6.7,36,0.00,,---,0.00,VWS V14.01,2013-02-16 16:59:00,
2013-02-16 12:00:00,24.8,1.6,29.15,NW,309,3.1,3.6,36,0.00,,---,0.00,VWS V14.01,2013-02-16 17:00:00,
2013-02-16 12:01:00,22.3,6.9,29.00,NW,315,9.2,9.2,51,0.00,,---,0.00,VWS V14.01,2013-02-16 17:01:00,
2013-02-16 12:02:00,24.6,1.5,29.15,NW,309,4.0,5.8,36,0.00,,---,0.00,VWS V14.01,2013-02-16 17:02:00,
2013-02-16 12:03:00,24.6,1.5,29.15,North,351,5.4,5.4,36,0.00,,---,0.00,VWS V14.01,2013-02-16 17:03:00,
2013-02-16 12:04:00,25.0,1.8,29.15,NW,322,4.5,5.8,36,0.00,,---,0.00,VWS V14.01,2013-02-16 17:04:00,
2013-02-16 12:05:00,24.6,0.9,29.15,NNW,336,5.8,6.7,35,0.00,,---,0.00,VWS V14.01,2013-02-16 17:05:00,
2013-02-16 12:06:00,21.9,7.0,29.00,North,351,6.9,9.2,52,0.00,,---,0.00,VWS V14.01,2013-02-16 17:06:00,
2013-02-16 12:07:00,23.9,0.2,29.15,NNW,333,3.6,6.7,35,0.00,,---,0.00,VWS V14.01,2013-02-16 17:07:00,
2013-02-16 12:08:00,23.7,0.1,29.15,NNW,333,3.1,4.0,35,0.00,,---,0.00,VWS V14.01,2013-02-16 17:08:00,
2013-02-16 12:09:00,23.7,0.1,29.15,NW,317,4.9,4.9,35,0.00,,---,0.00,VWS V14.01,2013-02-16 17:09:00,
2013-02-16 12:10:00,23.9,0.2,29.15,NNW,347,0.0,5.4,35,0.00,,---,0.00,VWS V14.01,2013-02-16 17:10:00,
2013-02-16 12:11:00,21.9,4.3,29.00,NW,318,5.8,12.1,46,0.00,,---,0.00,VWS V14.01,2013-02-16 17:11:00,
2013-02-16 12:12:00,23.9,0.2,29.15,West,264,6.9,6.9,35,0.00,,---,0.00,VWS V14.01,2013-02-16 17:12:00,
2013-02-16 12:13:00,24.1,0.4,29.15,WSW,256,5.8,7.8,35,0.00,,---,0.00,VWS V14.01,2013-02-16 17:13:00,
2013-02-16 12:14:00,24.3,0.6,29.15,WNW,289,4.5,5.8,35,0.00,,---,0.00,VWS V14.01,2013-02-16 17:14:00,
2013-02-16 12:15:00,24.1,0.4,29.15,WNW,297,4.5,5.4,35,0.00,,---,0.00,VWS V14.01,2013-02-16 17:15:00,
2013-02-16 12:16:00,23.9,4.7,29.00,WNW,297,6.9,10.5,43,0.00,,---,0.00,VWS V14.01,2013-02-16 17:16:00,
2013-02-16 12:17:00,24.6,0.9,29.15,WSW,247,4.9,6.7,35,0.00,,---,0.00,VWS V14.01,2013-02-16 17:17:00,
2013-02-16 12:18:00,24.8,1.0,29.15,WSW,247,2.7,4.9,35,0.00,,---,0.00,VWS V14.01,2013-02-16 17:18:00,
2013-02-16 12:19:00,25.3,1.5,29.15,WSW,247,0.0,2.7,35,0.00,,---,0.00,VWS V14.01,2013-02-16 17:19:00,
2013-02-16 12:20:00,25.7,1.9,29.15,WSW,247,0.0,0.0,35,0.00,,---,0.00,VWS V14.01,2013-02-16 17:20:00,
2013-02-16 12:21:00,22.6,4.0,29.00,WNW,282,8.3,15.2,44,0.00,,---,0.00,VWS V14.01,2013-02-16 17:21:00,
2013-02-16 12:22:00,26.6,2.7,29.15,WNW,287,4.0,4.0,35,0.00,,---,0.00,VWS V14.01,2013-02-16 17:22:00,
2013-02-16 12:23:00,26.8,2.2,29.15,NNW,332,5.8,5.8,34,0.00,,---,0.00,VWS V14.01,2013-02-16 17:23:00,
2013-02-16 12:24:00,26.4,1.9,29.15,NNW,329,4.5,7.4,34,0.00,,---,0.00,VWS V14.01,2013-02-16 17:24:00,
2013-02-16 12:25:00,26.4,1.2,29.15,NW,313,7.8,7.8,33,0.00,,---,0.00,VWS V14.01,2013-02-16 17:25:00,
2013-02-16 12:26:00,22.3,4.7,29.00,NW,311,8.7,13.0,46,0.00,,---,0.00,VWS V14.01,2013-02-16 17:26:00,
2013-02-16 12:27:00,26.2,0.4,29.15,SW,228,5.8,7.4,32,0.00,,---,0.00,VWS V14.01,2013-02-16 17:27:00,
2013-02-16 12:28:00,26.1,0.2,29.15,WSW,255,4.0,7.4,32,0.00,,---,0.00,VWS V14.01,2013-02-16 17:28:00,
2013-02-16 12:29:00,25.7,-0.1,29.15,WNW,301,3.6,4.5,32,0.00,,---,0.00,VWS V14.01,2013-02-16 17:29:00,
2013-02-16 12:30:00,25.9,0.1,29.15,WNW,301,0.0,3.6,32,0.00,,---,0.00,VWS V14.01,2013-02-16 17:30:00,
2013-02-16 12:31:00,22.3,4.2,29.00,NW,304,8.7,12.1,45,0.00,,---,0.00,VWS V14.01,2013-02-16 17:31:00,
2013-02-16 12:32:00,25.7,-0.1,29.15,WNW,301,0.0,0.0,32,0.00,,---,0.00,VWS V14.01,2013-02-16 17:32:00,
2013-02-16 12:33:00,25.5,-0.2,29.15,WNW,301,3.6,4.0,32,0.00,,---,0.00,VWS V14.01,2013-02-16 17:33:00,
2013-02-16 12:34:00,25.5,-0.2,29.15,WNW,301,0.0,3.6,32,0.00,,---,0.00,VWS V14.01,2013-02-16 17:34:00,
2013-02-16 12:35:00,25.9,0.1,29.15,WNW,301,2.7,3.6,32,0.00,,---,0.00,VWS V14.01,2013-02-16 17:35:00,
2013-02-16 12:36:00,22.6,3.5,29.00,WNW,286,8.3,13.4,43,0.00,,---,0.00,VWS V14.01,2013-02-16 17:36:00,
2013-02-16 12:37:00,27.1,1.2,29.15,NW,313,3.6,4.5,32,0.00,,---,0.00,VWS V14.01,2013-02-16 17:37:00,
2013-02-16 12:38:00,27.7,1.7,29.15,NW,313,0.0,3.6,32,0.00,,---,0.00,VWS V14.01,2013-02-16 17:38:00,
2013-02-16 12:39:00,28.4,2.3,29.15,NW,313,3.1,3.1,32,0.00,,---,0.00,VWS V14.01,2013-02-16 17:39:00,
2013-02-16 12:40:00,29.3,3.1,29.15,NW,313,0.0,3.1,32,0.00,,---,0.00,VWS V14.01,2013-02-16 17:40:00,
2013-02-16 12:41:00,23.9,2.6,29.00,NNW,336,9.2,10.1,39,0.00,,---,0.00,VWS V14.01,2013-02-16 17:41:00,
2013-02-16 12:42:00,29.7,2.7,29.15,NW,313,3.1,4.9,31,0.00,,---,0.00,VWS V14.01,2013-02-16 17:42:00,
2013-02-16 12:43:00,29.3,1.7,29.15,NW,313,3.6,3.6,30,0.00,,---,0.00,VWS V14.01,2013-02-16 17:43:00,
2013-02-16 12:44:00,28.9,-0.1,29.15,WNW,296,7.4,7.4,28,0.00,,---,0.00,VWS V14.01,2013-02-16 17:44:00,
2013-02-16 12:45:00,27.5,-1.3,29.15,NW,311,4.9,7.8,28,0.00,,---,0.00,VWS V14.01,2013-02-16 17:45:00,
2013-02-16 12:46:00,22.8,1.0,29.00,North,356,7.8,13.4,38,0.00,,---,0.00,VWS V14.01,2013-02-16 17:46:00,
2013-02-16 12:47:00,26.6,-1.4,29.15,NW,325,0.0,4.5,29,0.00,,---,0.00,VWS V14.01,2013-02-16 17:47:00,
2013-02-16 12:48:00,26.4,-1.5,29.15,NNW,329,4.0,4.9,29,0.00,,---,0.00,VWS V14.01,2013-02-16 17:48:00,
2013-02-16 12:49:00,26.2,-1.7,29.15,NNW,329,4.5,4.5,29,0.00,,---,0.00,VWS V14.01,2013-02-16 17:49:00,
2013-02-16 12:50:00,26.1,-1.8,29.15,NNW,328,0.0,4.5,29,0.00,,---,0.00,VWS V14.01,2013-02-16 17:50:00,
2013-02-16 12:51:00,23.2,1.4,29.00,NNW,332,8.7,9.2,38,0.00,,---,0.00,VWS V14.01,2013-02-16 17:51:00,
2013-02-16 12:52:00,26.4,-1.5,29.15,NNW,328,0.0,0.0,29,0.00,,---,0.00,VWS V14.01,2013-02-16 17:52:00,
2013-02-16 12:53:00,26.8,-1.2,29.15,NNW,328,0.0,0.0,29,0.00,,---,0.00,VWS V14.01,2013-02-16 17:53:00,
2013-02-16 12:54:00,27.3,0.7,29.15,NNW,328,0.0,0.0,31,0.00,,---,0.00,VWS V14.01,2013-02-16 17:54:00,
2013-02-16 12:55:00,28.0,1.3,29.15,ENE,69,3.6,3.6,31,0.00,,---,0.00,VWS V14.01,2013-02-16 17:55:00,
2013-02-16 12:56:00,23.2,0.8,29.00,North,351,9.6,9.6,37,0.00,,---,0.00,VWS V14.01,2013-02-16 17:56:00,
2013-02-16 12:57:00,29.7,0.6,29.15,East,87,3.1,3.6,28,0.00,,---,0.00,VWS V14.01,2013-02-16 17:57:00,
2013-02-16 12:58:00,30.4,1.2,29.15,ENE,74,4.0,4.5,28,0.00,,---,0.00,VWS V14.01,2013-02-16 17:58:00,
2013-02-16 12:59:00,31.3,2.0,29.15,East,92,4.9,5.4,28,0.00,,---,0.00,VWS V14.01,2013-02-16 17:59:00,
2013-02-16 13:00:00,32.2,2.8,29.15,ENE,57,3.6,5.8,28,0.00,,---,0.00,VWS V14.01,2013-02-16 18:00:00,
2013-02-16 13:01:00,22.5,2.8,29.00,NNW,338,8.7,10.5,42,0.00,,---,0.00,VWS V14.01,2013-02-16 18:01:00,
2013-02-16 13:02:00,32.4,0.5,29.15,NE,34,4.0,4.5,25,0.00,,---,0.00,VWS V14.01,2013-02-16 18:02:00,
2013-02-16 13:03:00,32.2,0.3,29.15,North,11,2.7,4.5,25,0.00,,---,0.00,VWS V14.01,2013-02-16 18:03:00,
2013-02-16 13:04:00,32.4,-1.3,29.15,North,11,0.0,3.1,23,0.00,,---,0.00,VWS V14.01,2013-02-16 18:04:00,
2013-02-16 13:05:00,31.3,-2.2,29.15,NNW,331,3.6,5.4,23,0.00,,---,0.00,VWS V14.01,2013-02-16 18:05:00,
2013-02-16 13:06:00,29.7,-3.6,29.15,NNW,336,4.9,6.7,23,0.00,,---,0.00,VWS V14.01,2013-02-16 18:06:00,
2013-02-16 13:07:00,22.6,1.4,29.00,WNW,303,5.8,11.2,39,0.00,,---,0.00,VWS V14.01,2013-02-16 18:07:00,
2013-02-16 13:08:00,29.3,-3.9,29.15,NNE,29,3.6,4.0,23,0.00,,---,0.00,VWS V14.01,2013-02-16 18:08:00,
2013-02-16 13:09:00,28.6,-4.5,29.15,NNW,332,4.9,5.8,23,0.00,,---,0.00,VWS V14.01,2013-02-16 18:09:00,
2013-02-16 13:10:00,28.0,-5.0,29.15,NNW,332,3.1,4.9,23,0.00,,---,0.00,VWS V14.01,2013-02-16 18:10:00,
2013-02-16 13:11:00,27.7,-5.3,29.15,NNW,332,3.6,5.4,23,0.00,,---,0.00,VWS V14.01,2013-02-16 18:11:00,
2013-02-16 13:12:00,22.6,0.3,29.00,NNW,339,10.5,11.2,37,0.00,,---,0.00,VWS V14.01,2013-02-16 18:12:00,
2013-02-16 13:13:00,27.0,-5.0,29.15,NW,318,4.0,6.3,24,0.00,,---,0.00,VWS V14.01,2013-02-16 18:13:00,
2013-02-16 13:15:00,27.1,-4.8,29.15,NW,318,4.5,4.5,24,0.00,,---,0.00,VWS V14.01,2013-02-16 18:15:00,
2013-02-16 13:16:00,27.3,-4.7,29.15,NW,318,3.1,4.9,24,0.00,,---,0.00,VWS V14.01,2013-02-16 18:16:00,
2013-02-16 13:17:00,22.5,0.7,29.00,WNW,294,7.4,9.2,38,0.00,,---,0.00,VWS V14.01,2013-02-16 18:17:00,
2013-02-16 13:19:00,27.1,-4.8,29.15,WSW,254,3.1,4.9,24,0.00,,---,0.00,VWS V14.01,2013-02-16 18:19:00,
2013-02-16 13:20:00,27.1,-4.8,29.15,WSW,247,0.0,3.1,24,0.00,,---,0.00,VWS V14.01,2013-02-16 18:20:00,
2013-02-16 13:21:00,27.3,-4.7,29.15,WSW,247,0.0,3.1,24,0.00,,---,0.00,VWS V14.01,2013-02-16 18:21:00,
2013-02-16 13:22:00,22.1,-0.8,29.00,NNW,332,8.3,11.2,36,0.00,,---,0.00,VWS V14.01,2013-02-16 18:22:00,
2013-02-16 13:23:00,27.5,-5.4,29.15,WSW,247,4.0,4.0,23,0.00,,---,0.00,VWS V14.01,2013-02-16 18:23:00,
2013-02-16 13:24:00,27.5,-5.4,29.15,WNW,289,6.3,6.3,23,0.00,,---,0.00,VWS V14.01,2013-02-16 18:24:00,
2013-02-16 13:25:00,27.0,-5.0,29.15,West,274,6.3,6.9,24,0.00,,---,0.00,VWS V14.01,2013-02-16 18:25:00,
2013-02-16 13:26:00,27.0,-5.0,29.15,West,276,4.9,6.3,24,0.00,,---,0.00,VWS V14.01,2013-02-16 18:26:00,
2013-02-16 13:27:00,22.5,0.1,29.00,NNW,336,11.0,13.0,37,0.00,,---,0.00,VWS V14.01,2013-02-16 18:27:00,
2013-02-16 13:28:00,26.6,-5.3,29.15,WNW,299,0.0,5.4,24,0.00,,---,0.00,VWS V14.01,2013-02-16 18:28:00,
2013-02-16 13:29:00,27.1,-4.8,29.15,West,262,6.7,6.7,24,0.00,,---,0.00,VWS V14.01,2013-02-16 18:29:00,
2013-02-16 13:30:00,27.3,-4.7,29.15,West,263,3.6,6.7,24,0.00,,---,0.00,VWS V14.01,2013-02-16 18:30:00,
2013-02-16 13:31:00,28.0,-5.0,29.15,WSW,244,5.4,5.8,23,0.00,,---,0.00,VWS V14.01,2013-02-16 18:31:00,
2013-02-16 13:32:00,23.7,-0.5,29.00,WNW,291,10.5,11.2,34,0.00,,---,0.00,VWS V14.01,2013-02-16 18:32:00,
2013-02-16 13:33:00,29.1,-4.1,29.15,WSW,244,0.0,3.6,23,0.00,,---,0.00,VWS V14.01,2013-02-16 18:33:00,
2013-02-16 13:34:00,30.2,-3.1,29.15,WSW,244,3.1,4.0,23,0.00,,---,0.00,VWS V14.01,2013-02-16 18:34:00,
2013-02-16 13:35:00,30.6,-2.8,29.15,WSW,244,0.0,3.1,23,0.00,,---,0.00,VWS V14.01,2013-02-16 18:35:00,
2013-02-16 13:36:00,30.7,-2.7,29.12,WSW,244,0.0,2.7,23,0.00,,---,0.00,VWS V14.01,2013-02-16 18:36:00,
2013-02-16 13:37:00,31.1,-2.4,29.12,NW,305,5.4,6.3,23,0.00,,---,0.00,VWS V14.01,2013-02-16 18:37:00,
2013-02-16 13:38:00,23.2,-1.6,29.00,NW,307,9.2,10.1,33,0.00,,---,0.00,VWS V14.01,2013-02-16 18:38:00,
2013-02-16 13:39:00,30.0,-3.3,29.12,WNW,298,0.0,8.3,23,0.00,,---,0.00,VWS V14.01,2013-02-16 18:39:00,
2013-02-16 13:40:00,29.8,-3.4,29.12,WNW,284,4.9,6.7,23,0.00,,---,0.00,VWS V14.01,2013-02-16 18:40:00,
2013-02-16 13:41:00,29.5,-3.7,29.12,WNW,285,5.4,5.4,23,0.00,,---,0.00,VWS V14.01,2013-02-16 18:41:00,
2013-02-16 13:42:00,28.9,-4.2,29.12,WNW,286,0.0,5.4,23,0.00,,---,0.00,VWS V14.01,2013-02-16 18:42:00,
2013-02-16 13:43:00,23.0,-1.8,28.97,WNW,298,11.2,11.6,33,0.00,,---,0.00,VWS V14.01,2013-02-16 18:43:00,
2013-02-16 13:44:00,28.8,-4.3,29.12,WNW,286,0.0,0.0,23,0.00,,---,0.00,VWS V14.01,2013-02-16 18:44:00,
2013-02-16 13:45:00,28.4,-4.7,29.12,WNW,286,0.0,4.0,23,0.00,,---,0.00,VWS V14.01,2013-02-16 18:45:00,
2013-02-16 13:46:00,28.0,-5.0,29.12,WNW,286,3.6,4.5,23,0.00,,---,0.00,VWS V14.01,2013-02-16 18:46:00,
2013-02-16 13:47:00,27.7,-5.3,29.12,NW,304,5.8,5.8,23,0.00,,---,0.00,VWS V14.01,2013-02-16 18:47:00,
2013-02-16 13:48:00,22.6,-2.1,28.97,NNW,327,6.3,11.0,33,0.00,,---,0.00,VWS V14.01,2013-02-16 18:48:00,
2013-02-16 13:49:00,26.8,-5.2,29.12,WNW,290,6.7,7.8,24,0.00,,---,0.00,VWS V14.01,2013-02-16 18:49:00,
2013-02-16 13:50:00,26.2,-5.6,29.12,WNW,289,6.3,7.4,24,0.00,,---,0.00,VWS V14.01,2013-02-16 18:50:00,
2013-02-16 13:51:00,25.7,-6.1,29.12,WNW,289,2.7,6.3,24,0.00,,---,0.00,VWS V14.01,2013-02-16 18:51:00,
2013-02-16 13:52:00,25.5,-6.2,29.12,WNW,290,4.5,5.8,24,0.00,,---,0.00,VWS V14.01,2013-02-16 18:52:00,
2013-02-16 13:53:00,22.5,-2.3,28.97,NW,316,6.7,11.6,33,0.00,,---,0.00,VWS V14.01,2013-02-16 18:53:00,
2013-02-16 13:54:00,25.7,-6.1,29.12,West,267,5.8,5.8,24,0.00,,---,0.00,VWS V14.01,2013-02-16 18:54:00,
2013-02-16 13:55:00,25.7,-6.1,29.12,West,267,3.6,6.7,24,0.00,,---,0.00,VWS V14.01,2013-02-16 18:55:00,
2013-02-16 13:56:00,25.9,-5.9,29.12,West,267,0.0,3.6,24,0.00,,---,0.00,VWS V14.01,2013-02-16 18:56:00,
2013-02-16 13:57:00,25.9,-5.9,29.12,West,267,2.7,4.5,24,0.00,,---,0.00,VWS V14.01,2013-02-16 18:57:00,
2013-02-16 13:58:00,23.4,-2.1,28.97,WNW,299,10.5,14.3,32,0.00,,---,0.00,VWS V14.01,2013-02-16 18:58:00,
2013-02-16 13:59:00,26.1,-5.8,29.12,West,274,4.5,4.5,24,0.00,,---,0.00,VWS V14.01,2013-02-16 18:59:00,
2013-02-16 14:00:00,25.9,-5.9,29.12,NNW,331,5.4,5.4,24,0.00,,---,0.00,VWS V14.01,2013-02-16 19:00:00,
2013-02-16 14:01:00,25.7,-6.1,29.12,NNW,337,4.9,6.7,24,0.00,,---,0.00,VWS V14.01,2013-02-16 19:01:00,
2013-02-16 14:02:00,25.5,-6.2,29.12,NNW,332,5.4,6.3,24,0.00,,---,0.00,VWS V14.01,2013-02-16 19:02:00,
2013-02-16 14:03:00,23.7,-1.8,28.97,NNW,337,5.8,11.0,32,0.00,,---,0.00,VWS V14.01,2013-02-16 19:03:00,
2013-02-16 14:04:00,25.5,-6.2,29.12,NNW,333,4.5,4.9,24,0.00,,---,0.00,VWS V14.01,2013-02-16 19:04:00,
2013-02-16 14:05:00,25.5,-6.2,29.12,NW,308,6.7,6.9,24,0.00,,---,0.00,VWS V14.01,2013-02-16 19:05:00,
2013-02-16 14:06:00,25.5,-6.2,29.12,NW,308,3.1,6.7,24,0.00,,---,0.00,VWS V14.01,2013-02-16 19:06:00,
2013-02-16 14:07:00,25.7,-6.1,29.12,NW,308,5.4,5.4,24,0.00,,---,0.00,VWS V14.01,2013-02-16 19:07:00,
2013-02-16 14:08:00,24.4,-1.2,28.97,NW,315,9.2,9.2,32,0.00,,---,0.00,VWS V14.01,2013-02-16 19:08:00,
2013-02-16 14:09:00,25.5,-6.2,29.12,NNW,333,5.8,6.3,24,0.00,,---,0.00,VWS V14.01,2013-02-16 19:09:00,
2013-02-16 14:10:00,25.3,-6.4,29.12,NNW,331,3.6,5.8,24,0.00,,---,0.00,VWS V14.01,2013-02-16 19:10:00,
2013-02-16 14:11:00,25.3,-6.4,29.12,NNW,331,0.0,4.0,24,0.00,,---,0.00,VWS V14.01,2013-02-16 19:11:00,
2013-02-16 14:12:00,25.3,-6.4,29.12,NNW,331,4.9,4.9,24,0.00,,---,0.00,VWS V14.01,2013-02-16 19:12:00,
2013-02-16 14:13:00,23.0,-2.5,28.97,NW,305,6.9,11.0,32,0.00,,---,0.00,VWS V14.01,2013-02-16 19:13:00,
2013-02-16 14:14:00,25.2,-6.6,29.12,NNW,331,4.5,4.5,24,0.00,,---,0.00,VWS V14.01,2013-02-16 19:14:00,
2013-02-16 14:15:00,25.0,-6.7,29.12,NNW,331,3.1,4.5,24,0.00,,---,0.00,VWS V14.01,2013-02-16 19:15:00,
2013-02-16 14:16:00,25.2,-6.6,29.12,NNW,331,4.5,4.9,24,0.00,,---,0.00,VWS V14.01,2013-02-16 19:16:00,
2013-02-16 14:17:00,25.2,-6.6,29.12,NNW,331,4.5,4.9,24,0.00,,---,0.00,VWS V14.01,2013-02-16 19:17:00,
2013-02-16 14:18:00,22.8,-2.0,28.97,WNW,300,10.1,10.1,33,0.00,,---,0.00,VWS V14.01,2013-02-16 19:18:00,
2013-02-16 14:19:00,25.0,-6.7,29.12,NNW,331,4.0,4.5,24,0.00,,---,0.00,VWS V14.01,2013-02-16 19:19:00,
2013-02-16 14:20:00,25.0,-6.7,29.12,NNW,331,0.0,4.0,24,0.00,,---,0.00,VWS V14.01,2013-02-16 19:20:00,
2013-02-16 14:21:00,25.0,-6.7,29.12,NNW,331,0.0,0.0,24,0.00,,---,0.00,VWS V14.01,2013-02-16 19:21:00,
2013-02-16 14:22:00,25.2,-6.6,29.12,NNW,331,0.0,0.0,24,0.00,,---,0.00,VWS V14.01,2013-02-16 19:22:00,
2013-02-16 14:23:00,22.3,-2.4,28.97,NNW,337,10.5,11.6,33,0.00,,---,0.00,VWS V14.01,2013-02-16 19:23:00,
2013-02-16 14:24:00,25.3,-6.4,29.12,NNW,331,2.7,4.0,24,0.00,,---,0.00,VWS V14.01,2013-02-16 19:24:00,
2013-02-16 14:25:00,25.5,-6.2,29.12,NNW,331,3.6,4.5,24,0.00,,---,0.00,VWS V14.01,2013-02-16 19:25:00,
2013-02-16 14:26:00,25.5,-6.2,29.12,NNW,331,0.0,3.6,24,0.00,,---,0.00,VWS V14.01,2013-02-16 19:26:00,
2013-02-16 14:27:00,25.5,-6.2,29.12,NNW,331,0.0,0.0,24,0.00,,---,0.00,VWS V14.01,2013-02-16 19:27:00,
2013-02-16 14:28:00,22.8,-2.0,28.97,NNW,339,7.4,9.6,33,0.00,,---,0.00,VWS V14.01,2013-02-16 19:28:00,
2013-02-16 14:29:00,25.7,-6.1,29.12,NW,307,3.6,4.9,24,0.00,,---,0.00,VWS V14.01,2013-02-16 19:29:00,
2013-02-16 14:30:00,25.9,-5.9,29.12,NW,307,0.0,3.6,24,0.00,,---,0.00,VWS V14.01,2013-02-16 19:30:00,
2013-02-16 14:31:00,26.2,-5.6,29.12,NW,307,0.0,0.0,24,0.00,,---,0.00,VWS V14.01,2013-02-16 19:31:00,
2013-02-16 14:32:00,26.4,-5.5,29.12,NW,307,0.0,0.0,24,0.00,,---,0.00,VWS V14.01,2013-02-16 19:32:00,
2013-02-16 14:33:00,23.0,-2.5,28.97,NW,304,8.3,9.2,32,0.00,,---,0.00,VWS V14.01,2013-02-16 19:33:00,
2013-02-16 14:34:00,26.8,-5.2,29.12,NW,307,0.0,0.0,24,0.00,,---,0.00,VWS V14.01,2013-02-16 19:34:00,
2013-02-16 14:35:00,27.1,-4.8,29.12,NW,308,3.1,4.0,24,0.00,,---,0.00,VWS V14.01,2013-02-16 19:35:00,
2013-02-16 14:36:00,27.5,-5.4,29.12,NW,308,0.0,4.5,23,0.00,,---,0.00,VWS V14.01,2013-02-16 19:36:00,
2013-02-16 14:37:00,28.2,-4.8,29.12,NW,308,3.1,4.0,23,0.00,,---,0.00,VWS V14.01,2013-02-16 19:37:00,
2013-02-16 14:38:00,22.5,-2.9,28.97,NNW,329,10.5,11.2,32,0.00,,---,0.00,VWS V14.01,2013-02-16 19:38:00,
2013-02-16 14:39:00,29.7,-3.6,29.12,NW,308,4.0,4.9,23,0.00,,---,0.00,VWS V14.01,2013-02-16 19:39:00,
2013-02-16 14:40:00,30.0,-3.3,29.12,NW,308,0.0,4.0,23,0.00,,---,0.00,VWS V14.01,2013-02-16 19:40:00,
2013-02-16 14:41:00,30.4,-3.0,29.12,NW,308,0.0,3.1,23,0.00,,---,0.00,VWS V14.01,2013-02-16 19:41:00,
2013-02-16 14:42:00,30.4,-3.0,29.12,West,263,4.5,6.3,23,0.00,,---,0.00,VWS V14.01,2013-02-16 19:42:00,
2013-02-16 14:43:00,22.8,-2.6,28.97,NW,309,9.6,9.6,32,0.00,,---,0.00,VWS V14.01,2013-02-16 19:43:00,
2013-02-16 14:44:00,31.3,-2.2,29.12,NNW,345,0.0,4.9,23,0.00,,---,0.00,VWS V14.01,2013-02-16 19:44:00,
2013-02-16 14:45:00,31.8,-1.8,29.12,WSW,252,0.0,0.0,23,0.00,,---,0.00,VWS V14.01,2013-02-16 19:45:00,
2013-02-16 14:46:00,32.2,-1.4,29.12,NW,307,0.0,0.0,23,0.00,,---,0.00,VWS V14.01,2013-02-16 19:46:00,
2013-02-16 14:47:00,32.5,-1.1,29.12,NW,307,0.0,0.0,23,0.00,,---,0.00,VWS V14.01,2013-02-16 19:47:00,
2013-02-16 14:48:00,22.5,-2.9,28.97,NW,315,7.8,15.9,32,0.00,,---,0.00,VWS V14.01,2013-02-16 19:48:00,
2013-02-16 14:50:00,32.0,-1.6,29.12,NW,304,6.9,8.7,23,0.00,,---,0.00,VWS V14.01,2013-02-16 19:50:00,
2013-02-16 14:51:00,31.8,-1.8,29.12,NW,317,0.0,6.9,23,0.00,,---,0.00,VWS V14.01,2013-02-16 19:51:00,
2013-02-16 14:52:00,31.8,-1.8,29.12,WNW,282,4.9,5.8,23,0.00,,---,0.00,VWS V14.01,2013-02-16 19:52:00,
2013-02-16 14:53:00,23.5,-3.3,28.97,WNW,285,13.0,14.8,30,0.00,,---,0.00,VWS V14.01,2013-02-16 19:53:00,
2013-02-16 14:54:00,31.6,-1.9,29.12,West,277,5.4,8.7,23,0.00,,---,0.00,VWS V14.01,2013-02-16 19:54:00,
2013-02-16 14:55:00,31.6,-1.9,29.12,SW,220,6.3,6.9,23,0.00,,---,0.00,VWS V14.01,2013-02-16 19:55:00,
2013-02-16 14:56:00,32.0,-1.6,29.12,SW,235,4.5,6.3,23,0.00,,---,0.00,VWS V14.01,2013-02-16 19:56:00,
2013-02-16 14:57:00,32.7,-1.0,29.12,SW,224,4.5,6.7,23,0.00,,---,0.00,VWS V14.01,2013-02-16 19:57:00,
2013-02-16 14:58:00,24.4,-4.7,28.97,WNW,287,7.8,10.1,27,0.00,,---,0.00,VWS V14.01,2013-02-16 19:58:00,
2013-02-16 14:59:00,32.9,-1.8,29.12,WSW,246,4.5,6.3,22,0.00,,---,0.00,VWS V14.01,2013-02-16 19:59:00,
2013-02-16 15:00:00,32.7,-1.0,29.12,West,259,6.7,7.4,23,0.00,,---,0.00,VWS V14.01,2013-02-16 20:00:00,
2013-02-16 15:01:00,32.7,-1.0,29.12,West,266,4.0,6.9,23,0.00,,---,0.00,VWS V14.01,2013-02-16 20:01:00,
2013-02-16 15:02:00,32.7,-1.0,29.12,WSW,238,4.0,6.9,23,0.00,,---,0.00,VWS V14.01,2013-02-16 20:02:00,
2013-02-16 15:03:00,23.4,-7.3,28.97,NW,318,9.6,9.6,25,0.00,,---,0.00,VWS V14.01,2013-02-16 20:03:00,
2013-02-16 15:04:00,32.2,-4.4,29.12,West,260,3.1,6.7,20,0.00,,---,0.00,VWS V14.01,2013-02-16 20:04:00,
2013-02-16 15:05:00,32.2,-4.4,29.12,SW,236,5.4,5.4,20,0.00,,---,0.00,VWS V14.01,2013-02-16 20:05:00,
2013-02-16 15:06:00,31.8,-4.7,29.12,WSW,238,4.5,5.8,20,0.00,,---,0.00,VWS V14.01,2013-02-16 20:06:00,
2013-02-16 15:07:00,31.5,-5.0,29.12,WSW,238,5.4,5.4,20,0.00,,---,0.00,VWS V14.01,2013-02-16 20:07:00,
2013-02-16 15:08:00,22.5,-4.3,28.97,NNW,335,11.2,13.0,30,0.00,,---,0.00,VWS V14.01,2013-02-16 20:08:00,
2013-02-16 15:09:00,31.1,-5.3,29.12,SW,229,0.0,3.1,20,0.00,,---,0.00,VWS V14.01,2013-02-16 20:09:00,
2013-02-16 15:10:00,31.1,-5.3,29.12,West,270,5.4,6.9,20,0.00,,---,0.00,VWS V14.01,2013-02-16 20:10:00,
2013-02-16 15:11:00,30.9,-5.4,29.12,West,278,4.5,5.8,20,0.00,,---,0.00,VWS V14.01,2013-02-16 20:11:00,
2013-02-16 15:12:00,31.3,-5.1,29.12,West,278,0.0,4.5,20,0.00,,---,0.00,VWS V14.01,2013-02-16 20:12:00,
2013-02-16 15:13:00,22.3,-2.4,28.97,WNW,294,10.1,15.2,33,0.00,,---,0.00,VWS V14.01,2013-02-16 20:13:00,
2013-02-16 15:14:00,32.2,-1.4,29.12,West,278,0.0,0.0,23,0.00,,---,0.00,VWS V14.01,2013-02-16 20:14:00,
2013-02-16 15:15:00,32.7,-1.0,29.12,West,278,4.5,4.9,23,0.00,,---,0.00,VWS V14.01,2013-02-16 20:15:00,
2013-02-16 15:16:00,33.1,-1.6,29.12,West,262,5.8,5.8,22,0.00,,---,0.00,VWS V14.01,2013-02-16 20:16:00,
2013-02-16 15:17:00,32.7,-1.0,29.12,West,270,8.7,11.0,23,0.00,,---,0.00,VWS V14.01,2013-02-16 20:17:00,
2013-02-16 15:18:00,22.8,-2.0,28.97,NNW,346,5.8,7.8,33,0.00,,---,0.00,VWS V14.01,2013-02-16 20:18:00,
2013-02-16 15:19:00,33.1,-1.6,29.12,SSW,200,0.0,4.9,22,0.00,,---,0.00,VWS V14.01,2013-02-16 20:19:00,
2013-02-16 15:20:00,33.4,-1.3,29.12,SSW,200,0.0,0.0,22,0.00,,---,0.00,VWS V14.01,2013-02-16 20:20:00,
2013-02-16 15:21:00,33.8,-1.0,29.12,SSW,200,0.0,0.0,22,0.00,,---,0.00,VWS V14.01,2013-02-16 20:21:00,
2013-02-16 15:22:00,34.2,-0.7,29.12,SW,219,4.9,5.8,22,0.00,,---,0.00,VWS V14.01,2013-02-16 20:22:00,
2013-02-16 15:23:00,23.4,-3.5,28.97,NNW,334,6.9,10.1,30,0.00,,---,0.00,VWS V14.01,2013-02-16 20:23:00,
2013-02-16 15:24:00,34.3,-0.6,29.12,NNW,329,7.4,7.4,22,0.00,,---,0.00,VWS V14.01,2013-02-16 20:24:00,
2013-02-16 15:25:00,33.3,-3.5,29.12,West,270,7.4,7.8,20,0.00,,---,0.00,VWS V14.01,2013-02-16 20:25:00,
2013-02-16 15:26:00,33.1,-3.6,29.12,WSW,245,4.5,9.2,20,0.00,,---,0.00,VWS V14.01,2013-02-16 20:26:00,
2013-02-16 15:27:00,33.3,-3.5,29.12,WSW,245,6.7,6.7,20,0.00,,---,0.00,VWS V14.01,2013-02-16 20:27:00,
2013-02-16 15:28:00,22.1,-4.6,28.97,NW,323,7.4,12.1,30,0.00,,---,0.00,VWS V14.01,2013-02-16 20:28:00,
2013-02-16 15:29:00,33.1,-3.6,29.12,West,264,6.7,9.2,20,0.00,,---,0.00,VWS V14.01,2013-02-16 20:29:00,
2013-02-16 15:30:00,32.9,-3.8,29.12,SW,235,4.5,6.9,20,0.00,,---,0.00,VWS V14.01,2013-02-16 20:30:00,
2013-02-16 15:31:00,32.7,-3.9,29.12,WSW,245,8.3,8.3,20,0.00,,---,0.00,VWS V14.01,2013-02-16 20:31:00,
2013-02-16 15:32:00,32.0,-4.5,29.12,WSW,254,7.4,9.6,20,0.00,,---,0.00,VWS V14.01,2013-02-16 20:32:00,
2013-02-16 15:33:00,22.1,-3.2,28.97,NW,322,7.4,10.5,32,0.00,,---,0.00,VWS V14.01,2013-02-16 20:33:00,
2013-02-16 15:34:00,30.7,-5.6,29.12,WSW,251,3.1,6.3,20,0.00,,---,0.00,VWS V14.01,2013-02-16 20:34:00,
2013-02-16 15:35:00,29.7,-6.5,29.12,WNW,291,6.9,10.1,20,0.00,,---,0.00,VWS V14.01,2013-02-16 20:35:00,
2013-02-16 15:36:00,29.7,-6.5,29.12,NW,310,4.5,7.8,20,0.00,,---,0.00,VWS V14.01,2013-02-16 20:36:00,
2013-02-16 15:37:00,29.7,-6.5,29.12,WNW,294,6.7,7.4,20,0.00,,---,0.00,VWS V14.01,2013-02-16 20:37:00,
2013-02-16 15:38:00,22.1,-3.2,28.97,NW,318,8.7,10.1,32,0.00,,---,0.00,VWS V14.01,2013-02-16 20:38:00,
2013-02-16 15:39:00,30.0,-6.2,29.12,West,281,6.3,8.3,20,0.00,,---,0.00,VWS V14.01,2013-02-16 20:39:00,
2013-02-16 15:40:00,30.4,-5.9,29.12,West,261,3.6,6.7,20,0.00,,---,0.00,VWS V14.01,2013-02-16 20:40:00,
2013-02-16 15:41:00,30.9,-5.4,29.12,SW,216,5.4,6.7,20,0.00,,---,0.00,VWS V14.01,2013-02-16 20:41:00,
2013-02-16 15:42:00,31.6,-4.8,29.12,SW,216,0.0,5.4,20,0.00,,---,0.00,VWS V14.01,2013-02-16 20:42:00,
2013-02-16 15:43:00,22.3,-6.6,28.97,NNW,336,6.9,12.1,27,0.00,,---,0.00,VWS V14.01,2013-02-16 20:43:00,
2013-02-16 15:44:00,32.5,-4.1,29.12,SW,216,0.0,0.0,20,0.00,,---,0.00,VWS V14.01,2013-02-16 20:44:00,
2013-02-16 15:45:00,32.7,-3.9,29.12,SW,217,4.0,4.0,20,0.00,,---,0.00,VWS V14.01,2013-02-16 20:45:00,
2013-02-16 15:46:00,32.9,-3.8,29.12,WSW,253,3.6,9.6,20,0.00,,---,0.00,VWS V14.01,2013-02-16 20:46:00,
2013-02-16 15:47:00,33.1,-3.6,29.12,West,265,8.3,8.3,20,0.00,,---,0.00,VWS V14.01,2013-02-16 20:47:00,
2013-02-16 15:48:00,33.1,-3.6,29.12,West,267,3.6,8.3,20,0.00,,---,0.00,VWS V14.01,2013-02-16 20:48:00,
2013-02-16 15:49:00,33.1,-3.6,29.12,WSW,250,5.4,6.7,20,0.00,,---,0.00,VWS V14.01,2013-02-16 20:49:00,
2013-02-16 15:50:00,33.3,-3.5,29.12,SW,215,4.5,7.4,20,0.00,,---,0.00,VWS V14.01,2013-02-16 20:50:00,
2013-02-16 15:51:00,22.1,-4.6,28.97,NW,310,10.1,14.8,30,0.00,,---,0.00,VWS V14.01,2013-02-16 20:51:00,
2013-02-16 15:52:00,32.9,-3.8,29.12,WNW,290,8.3,8.3,20,0.00,,---,0.00,VWS V14.01,2013-02-16 20:52:00,
2013-02-16 15:53:00,32.0,-4.5,29.12,West,261,5.4,8.3,20,0.00,,---,0.00,VWS V14.01,2013-02-16 20:53:00,
2013-02-16 15:54:00,31.6,-4.8,29.12,North,351,4.9,5.8,20,0.00,,---,0.00,VWS V14.01,2013-02-16 20:54:00,
2013-02-16 15:55:00,31.6,-4.8,29.12,NW,313,4.9,5.8,20,0.00,,---,0.00,VWS V14.01,2013-02-16 20:55:00,
2013-02-16 15:56:00,31.5,-5.0,29.12,NNW,339,5.4,5.4,20,0.00,,---,0.00,VWS V14.01,2013-02-16 20:56:00,
2013-02-16 15:57:00,21.4,-7.4,29.00,WNW,302,12.1,12.5,27,0.00,,---,0.00,VWS V14.01,2013-02-16 20:57:00,
2013-02-16 15:58:00,31.3,-5.1,29.12,WNW,300,4.9,6.3,20,0.00,,---,0.00,VWS V14.01,2013-02-16 20:58:00,
2013-02-16 15:59:00,31.6,-4.8,29.12,West,267,5.4,6.7,20,0.00,,---,0.00,VWS V14.01,2013-02-16 20:59:00,
2013-02-16 16:00:00,31.6,-4.8,29.12,West,276,0.0,5.4,20,0.00,,---,0.00,VWS V14.01,2013-02-16 21:00:00,
2013-02-16 16:01:00,32.0,-4.5,29.12,SSW,211,6.3,7.4,20,0.00,,---,0.00,VWS V14.01,2013-02-16 21:01:00,
2013-02-16 16:02:00,31.8,-4.7,29.12,WSW,255,5.8,8.3,20,0.00,,---,0.00,VWS V14.01,2013-02-16 21:02:00,
2013-02-16 16:03:00,31.6,-4.8,29.12,WSW,239,6.7,10.5,20,0.00,,---,0.00,VWS V14.01,2013-02-16 21:03:00,
2013-02-16 16:04:00,31.3,-5.1,29.12,WSW,241,6.7,9.6,20,0.00,,---,0.00,VWS V14.01,2013-02-16 21:04:00,
2013-02-16 16:05:00,31.1,-5.3,29.12,WNW,296,11.0,11.6,20,0.00,,---,0.00,VWS V14.01,2013-02-16 21:05:00,
2013-02-16 16:06:00,30.7,-5.6,29.12,West,279,6.9,11.6,20,0.00,,---,0.00,VWS V14.01,2013-02-16 21:06:00,
2013-02-16 16:07:00,22.1,-6.8,29.00,NNW,342,10.5,11.6,27,0.00,,---,0.00,VWS V14.01,2013-02-16 21:07:00,
2013-02-16 16:08:00,31.3,-5.1,29.12,WSW,254,6.7,6.7,20,0.00,,---,0.00,VWS V14.01,2013-02-16 21:08:00,
2013-02-16 16:09:00,31.5,-5.0,29.12,WSW,249,4.5,8.3,20,0.00,,---,0.00,VWS V14.01,2013-02-16 21:09:00,
2013-02-16 16:10:00,31.5,-5.0,29.12,WNW,282,6.7,7.8,20,0.00,,---,0.00,VWS V14.01,2013-02-16 21:10:00,
2013-02-16 16:11:00,31.8,-4.7,29.12,WSW,249,2.7,6.7,20,0.00,,---,0.00,VWS V14.01,2013-02-16 21:11:00,
2013-02-16 16:12:00,21.6,-7.2,29.00,NNW,332,6.7,12.5,27,0.00,,---,0.00,VWS V14.01,2013-02-16 21:12:00,
2013-02-16 16:13:00,32.0,-4.5,29.12,West,270,6.9,8.7,20,0.00,,---,0.00,VWS V14.01,2013-02-16 21:13:00,
2013-02-16 16:14:00,31.3,-5.1,29.12,West,267,6.3,9.2,20,0.00,,---,0.00,VWS V14.01,2013-02-16 21:14:00,
2013-02-16 16:15:00,31.3,-5.1,29.12,SW,228,4.5,7.8,20,0.00,,---,0.00,VWS V14.01,2013-02-16 21:15:00,
2013-02-16 16:16:00,31.5,-5.0,29.12,WSW,249,5.8,8.3,20,0.00,,---,0.00,VWS V14.01,2013-02-16 21:16:00,
2013-02-16 16:17:00,21.4,-7.4,29.00,NNW,331,11.0,15.2,27,0.00,,---,0.00,VWS V14.01,2013-02-16 21:17:00,
2013-02-16 16:18:00,31.3,-5.1,29.12,WSW,241,4.5,8.7,20,0.00,,---,0.00,VWS V14.01,2013-02-16 21:18:00,
2013-02-16 16:19:00,31.5,-5.0,29.12,WSW,244,6.3,7.8,20,0.00,,---,0.00,VWS V14.01,2013-02-16 21:19:00,
2013-02-16 16:20:00,31.3,-5.1,29.12,WNW,283,5.4,7.4,20,0.00,,---,0.00,VWS V14.01,2013-02-16 21:20:00,
2013-02-16 16:21:00,31.1,-5.3,29.12,North,351,3.6,5.8,20,0.00,,---,0.00,VWS V14.01,2013-02-16 21:21:00,
2013-02-16 16:22:00,30.9,-5.4,29.12,WNW,290,4.0,7.4,20,0.00,,---,0.00,VWS V14.01,2013-02-16 21:22:00,
2013-02-16 16:23:00,31.3,-5.1,29.12,WNW,287,0.0,4.5,20,0.00,,---,0.00,VWS V14.01,2013-02-16 21:23:00,
2013-02-16 16:24:00,31.6,-4.8,29.12,WNW,287,0.0,2.7,20,0.00,,---,0.00,VWS V14.01,2013-02-16 21:24:00,
2013-02-16 16:25:00,32.2,-4.4,29.12,WNW,286,5.8,5.8,20,0.00,,---,0.00,VWS V14.01,2013-02-16 21:25:00,
2013-02-16 16:26:00,32.2,-4.4,29.12,West,271,4.0,5.8,20,0.00,,---,0.00,VWS V14.01,2013-02-16 21:26:00,
2013-02-16 16:27:00,21.2,-9.1,29.00,NNW,340,9.2,9.2,25,0.00,,---,0.00,VWS V14.01,2013-02-16 21:27:00,
2013-02-16 16:28:00,32.0,-4.5,29.12,WSW,249,4.0,6.3,20,0.00,,---,0.00,VWS V14.01,2013-02-16 21:28:00,
2013-02-16 16:29:00,32.2,-4.4,29.12,West,259,4.5,4.9,20,0.00,,---,0.00,VWS V14.01,2013-02-16 21:29:00,
2013-02-16 16:30:00,32.2,-4.4,29.12,WNW,299,5.8,6.7,20,0.00,,---,0.00,VWS V14.01,2013-02-16 21:30:00,
2013-02-16 16:31:00,31.6,-4.8,29.12,WNW,288,3.6,7.4,20,0.00,,---,0.00,VWS V14.01,2013-02-16 21:31:00,
2013-02-16 16:32:00,31.6,-4.8,29.12,WNW,303,6.7,6.7,20,0.00,,---,0.00,VWS V14.01,2013-02-16 21:32:00,
2013-02-16 16:33:00,21.2,-7.6,29.00,NNW,343,6.7,12.1,27,0.00,,---,0.00,VWS V14.01,2013-02-16 21:33:00,
2013-02-16 16:34:00,31.3,-5.1,29.12,WSW,257,9.2,9.2,20,0.00,,---,0.00,VWS V14.01,2013-02-16 21:34:00,
2013-02-16 16:35:00,31.1,-5.3,29.12,West,261,4.5,9.2,20,0.00,,---,0.00,VWS V14.01,2013-02-16 21:35:00,
2013-02-16 16:36:00,31.1,-5.3,29.12,WSW,247,4.5,5.8,20,0.00,,---,0.00,VWS V14.01,2013-02-16 21:36:00,
2013-02-16 16:37:00,31.1,-5.3,29.12,West,262,6.7,7.4,20,0.00,,---,0.00,VWS V14.01,2013-02-16 21:37:00,
2013-02-16 16:38:00,21.4,-7.4,29.00,NW,315,7.8,11.2,27,0.00,,---,0.00,VWS V14.01,2013-02-16 21:38:00,
2013-02-16 16:39:00,31.3,-5.1,29.12,West,270,0.0,4.9,20,0.00,,---,0.00,VWS V14.01,2013-02-16 21:39:00,
2013-02-16 16:40:00,31.6,-4.8,29.12,West,270,0.0,0.0,20,0.00,,---,0.00,VWS V14.01,2013-02-16 21:40:00,
2013-02-16 16:41:00,32.0,-4.5,29.12,West,270,4.5,4.5,20,0.00,,---,0.00,VWS V14.01,2013-02-16 21:41:00,
2013-02-16 16:42:00,32.2,-4.4,29.12,West,272,4.9,6.7,20,0.00,,---,0.00,VWS V14.01,2013-02-16 21:42:00,
2013-02-16 16:43:00,21.6,-7.2,29.00,NW,308,11.2,15.2,27,0.00,,---,0.00,VWS V14.01,2013-02-16 21:43:00,
2013-02-16 16:44:00,32.2,-1.4,29.12,West,268,9.2,10.1,23,0.00,,---,0.00,VWS V14.01,2013-02-16 21:44:00,
2013-02-16 16:45:00,32.0,-4.5,29.12,SSW,209,4.5,10.1,20,0.00,,---,0.00,VWS V14.01,2013-02-16 21:45:00,
2013-02-16 16:46:00,32.2,-4.4,29.12,SSW,213,6.7,7.4,20,0.00,,---,0.00,VWS V14.01,2013-02-16 21:46:00,
2013-02-16 16:47:00,32.4,-4.2,29.12,South,184,4.9,6.7,20,0.00,,---,0.00,VWS V14.01,2013-02-16 21:47:00,
2013-02-16 16:48:00,32.7,-3.9,29.12,SSW,196,3.6,6.3,20,0.00,,---,0.00,VWS V14.01,2013-02-16 21:48:00,
2013-02-16 16:49:00,21.0,-5.5,29.00,NNW,334,4.5,8.7,30,0.00,,---,0.00,VWS V14.01,2013-02-16 21:49:00,
2013-02-16 16:50:00,32.5,-4.1,29.12,West,259,2.7,6.9,20,0.00,,---,0.00,VWS V14.01,2013-02-16 21:50:00,
2013-02-16 16:51:00,32.7,-3.9,29.12,West,259,2.7,3.1,20,0.00,,---,0.00,VWS V14.01,2013-02-16 21:51:00,
2013-02-16 16:52:00,33.1,-3.6,29.12,West,259,3.6,3.6,20,0.00,,---,0.00,VWS V14.01,2013-02-16 21:52:00,
2013-02-16 16:53:00,33.3,-3.5,29.12,SW,216,2.7,4.0,20,0.00,,---,0.00,VWS V14.01,2013-02-16 21:53:00,
2013-02-16 16:54:00,20.8,-5.7,29.00,NNW,331,7.4,12.5,30,0.00,,---,0.00,VWS V14.01,2013-02-16 21:54:00,
2013-02-16 16:55:00,33.1,-3.6,29.12,WSW,248,8.7,8.7,20,0.00,,---,0.00,VWS V14.01,2013-02-16 21:55:00,
2013-02-16 16:56:00,32.5,-4.1,29.12,West,261,6.3,10.5,20,0.00,,---,0.00,VWS V14.01,2013-02-16 21:56:00,
2013-02-16 16:57:00,32.2,-4.4,29.12,WSW,249,5.8,9.2,20,0.00,,---,0.00,VWS V14.01,2013-02-16 21:57:00,
2013-02-16 16:58:00,32.0,-4.5,29.12,WSW,251,10.1,10.1,20,0.00,,---,0.00,VWS V14.01,2013-02-16 21:58:00,
2013-02-16 16:59:00,21.0,-7.7,29.00,NNW,334,10.1,11.6,27,0.00,,---,0.00,VWS V14.01,2013-02-16 21:59:00,
2013-02-16 17:00:00,31.6,-4.8,29.12,WSW,239,4.9,5.8,20,0.00,,---,0.00,VWS V14.01,2013-02-16 22:00:00,
2013-02-16 17:01:00,31.8,-4.7,29.12,WSW,239,0.0,4.9,20,0.00,,---,0.00,VWS V14.01,2013-02-16 22:01:00,
2013-02-16 17:02:00,32.0,-4.5,29.12,SSW,213,5.4,6.3,20,0.00,,---,0.00,VWS V14.01,2013-02-16 22:02:00,
2013-02-16 17:03:00,32.2,-4.4,29.12,South,179,5.8,5.8,20,0.00,,---,0.00,VWS V14.01,2013-02-16 22:03:00,
2013-02-16 17:04:00,20.5,-6.0,29.00,NNW,343,12.5,16.3,30,0.00,,---,0.00,VWS V14.01,2013-02-16 22:04:00,
2013-02-16 17:05:00,32.4,-4.2,29.12,SSW,210,2.7,4.9,20,0.00,,---,0.00,VWS V14.01,2013-02-16 22:05:00,
2013-02-16 17:06:00,32.5,-4.1,29.09,SSW,210,0.0,4.0,20,0.00,,---,0.00,VWS V14.01,2013-02-16 22:06:00,
2013-02-16 17:07:00,32.7,-3.9,29.09,SSW,213,4.9,5.8,20,0.00,,---,0.00,VWS V14.01,2013-02-16 22:07:00,
2013-02-16 17:08:00,32.9,-3.8,29.09,South,187,4.5,5.4,20,0.00,,---,0.00,VWS V14.01,2013-02-16 22:08:00,
2013-02-16 17:09:00,32.7,-3.9,29.09,West,265,6.7,6.7,20,0.00,,---,0.00,VWS V14.01,2013-02-16 22:09:00,
2013-02-16 17:10:00,20.7,-8.0,29.00,NNW,328,6.9,11.6,27,0.00,,---,0.00,VWS V14.01,2013-02-16 22:10:00,
2013-02-16 17:11:00,32.9,-3.8,29.09,SSW,212,3.6,6.9,20,0.00,,---,0.00,VWS V14.01,2013-02-16 22:11:00,
2013-02-16 17:12:00,32.9,-3.8,29.09,SW,236,0.0,4.9,20,0.00,,---,0.00,VWS V14.01,2013-02-16 22:12:00,
2013-02-16 17:13:00,33.1,-3.6,29.09,WSW,237,3.6,3.6,20,0.00,,---,0.00,VWS V14.01,2013-02-16 22:13:00,
2013-02-16 17:14:00,32.9,-3.8,29.09,WSW,254,7.8,7.8,20,0.00,,---,0.00,VWS V14.01,2013-02-16 22:14:00,
2013-02-16 17:15:00,32.7,-3.9,29.09,WNW,290,4.0,7.8,20,0.00,,---,0.00,VWS V14.01,2013-02-16 22:15:00,
2013-02-16 17:16:00,20.1,-7.8,29.00,NNW,336,9.2,11.2,28,0.00,,---,0.00,VWS V14.01,2013-02-16 22:16:00,
2013-02-16 17:17:00,32.0,-4.5,29.09,West,271,6.7,6.7,20,0.00,,---,0.00,VWS V14.01,2013-02-16 22:17:00,
2013-02-16 17:18:00,31.8,-4.7,29.09,WSW,256,0.0,9.2,20,0.00,,---,0.00,VWS V14.01,2013-02-16 22:18:00,
2013-02-16 17:19:00,31.8,-4.7,29.09,West,274,5.8,6.3,20,0.00,,---,0.00,VWS V14.01,2013-02-16 22:19:00,
2013-02-16 17:20:00,31.8,-4.7,29.09,West,274,0.0,5.8,20,0.00,,---,0.00,VWS V14.01,2013-02-16 22:20:00,
2013-02-16 17:21:00,19.9,-7.9,29.00,NNW,327,7.8,10.1,28,0.00,,---,0.00,VWS V14.01,2013-02-16 22:21:00,
2013-02-16 17:22:00,32.4,-4.2,29.09,SSW,193,0.0,4.9,20,0.00,,---,0.00,VWS V14.01,2013-02-16 22:22:00,
2013-02-16 17:23:00,32.5,-4.1,29.09,SW,232,5.4,5.8,20,0.00,,---,0.00,VWS V14.01,2013-02-16 22:23:00,
2013-02-16 17:24:00,32.5,-4.1,29.09,WSW,245,6.3,6.9,20,0.00,,---,0.00,VWS V14.01,2013-02-16 22:24:00,
2013-02-16 17:25:00,32.5,-4.1,29.09,WSW,250,7.8,8.3,20,0.00,,---,0.00,VWS V14.01,2013-02-16 22:25:00,
2013-02-16 17:26:00,19.9,-7.9,29.00,NW,323,7.8,11.2,28,0.00,,---,0.00,VWS V14.01,2013-02-16 22:26:00,
2013-02-16 17:27:00,32.0,-4.5,29.09,WNW,301,4.5,6.9,20,0.00,,---,0.00,VWS V14.01,2013-02-16 22:27:00,
2013-02-16 17:28:00,31.8,-4.7,29.09,WSW,245,5.8,8.7,20,0.00,,---,0.00,VWS V14.01,2013-02-16 22:28:00,
2013-02-16 17:29:00,31.8,-4.7,29.09,WSW,245,4.0,5.8,20,0.00,,---,0.00,VWS V14.01,2013-02-16 22:29:00,
2013-02-16 17:30:00,32.2,-4.4,29.09,WSW,243,2.7,4.9,20,0.00,,---,0.00,VWS V14.01,2013-02-16 22:30:00,
2013-02-16 17:31:00,20.1,-7.8,29.00,NNW,337,4.9,10.1,28,0.00,,---,0.00,VWS V14.01,2013-02-16 22:31:00,
2013-02-16 17:32:00,32.2,-4.4,29.09,West,267,5.4,6.7,20,0.00,,---,0.00,VWS V14.01,2013-02-16 22:32:00,
2013-02-16 17:33:00,32.2,-4.4,29.09,West,262,6.3,8.3,20,0.00,,---,0.00,VWS V14.01,2013-02-16 22:33:00,
2013-02-16 17:34:00,31.8,-4.7,29.09,West,276,4.9,7.8,20,0.00,,---,0.00,VWS V14.01,2013-02-16 22:34:00,
2013-02-16 17:35:00,31.5,-5.0,29.09,West,272,0.0,6.7,20,0.00,,---,0.00,VWS V14.01,2013-02-16 22:35:00,
2013-02-16 17:36:00,19.9,-7.9,29.00,NNW,329,8.3,11.2,28,0.00,,---,0.00,VWS V14.01,2013-02-16 22:36:00,
2013-02-16 17:37:00,31.6,-4.8,29.09,South,184,4.0,6.3,20,0.00,,---,0.00,VWS V14.01,2013-02-16 22:37:00,
2013-02-16 17:38:00,31.6,-4.8,29.09,SSW,192,3.1,4.9,20,0.00,,---,0.00,VWS V14.01,2013-02-16 22:38:00,
2013-02-16 17:39:00,31.6,-4.8,29.09,SSW,211,4.5,4.5,20,0.00,,---,0.00,VWS V14.01,2013-02-16 22:39:00,
2013-02-16 17:40:00,31.6,-4.8,29.09,SW,220,4.9,5.4,20,0.00,,---,0.00,VWS V14.01,2013-02-16 22:40:00,
2013-02-16 17:41:00,19.8,-8.1,29.00,NNW,346,7.4,12.5,28,0.00,,---,0.00,VWS V14.01,2013-02-16 22:41:00,
2013-02-16 17:42:00,31.8,-4.7,29.09,West,277,6.7,7.4,20,0.00,,---,0.00,VWS V14.01,2013-02-16 22:42:00,
2013-02-16 17:43:00,31.6,-4.8,29.09,WSW,250,6.3,7.4,20,0.00,,---,0.00,VWS V14.01,2013-02-16 22:43:00,
2013-02-16 17:44:00,31.8,-4.7,29.09,WSW,247,5.4,6.3,20,0.00,,---,0.00,VWS V14.01,2013-02-16 22:44:00,
2013-02-16 17:45:00,31.8,-4.7,29.09,WSW,243,3.6,6.9,20,0.00,,---,0.00,VWS V14.01,2013-02-16 22:45:00,
2013-02-16 17:46:00,19.8,-8.1,29.00,NNW,343,6.7,9.2,28,0.00,,---,0.00,VWS V14.01,2013-02-16 22:46:00,
2013-02-16 17:47:00,32.0,-4.5,29.09,WSW,247,3.6,4.9,20,0.00,,---,0.00,VWS V14.01,2013-02-16 22:47:00,
2013-02-16 17:48:00,32.0,-4.5,29.09,WSW,248,8.3,8.3,20,0.00,,---,0.00,VWS V14.01,2013-02-16 22:48:00,
2013-02-16 17:49:00,32.0,-4.5,29.09,West,276,4.5,8.3,20,0.00,,---,0.00,VWS V14.01,2013-02-16 22:49:00,
2013-02-16 17:50:00,32.0,-4.5,29.09,WSW,256,3.6,5.8,20,0.00,,---,0.00,VWS V14.01,2013-02-16 22:50:00,
2013-02-16 17:51:00,19.8,-8.1,29.00,NW,320,7.4,9.2,28,0.00,,---,0.00,VWS V14.01,2013-02-16 22:51:00,
2013-02-16 17:52:00,32.0,-4.5,29.09,West,267,5.4,6.7,20,0.00,,---,0.00,VWS V14.01,2013-02-16 22:52:00,
2013-02-16 17:53:00,32.0,-4.5,29.09,WSW,250,4.0,5.8,20,0.00,,---,0.00,VWS V14.01,2013-02-16 22:53:00,
2013-02-16 17:54:00,32.0,-4.5,29.09,WSW,258,5.4,6.7,20,0.00,,---,0.00,VWS V14.01,2013-02-16 22:54:00,
2013-02-16 17:55:00,31.8,-4.7,29.09,WSW,258,4.5,6.7,20,0.00,,---,0.00,VWS V14.01,2013-02-16 22:55:00,
2013-02-16 17:56:00,19.8,-8.1,29.00,WNW,302,8.3,8.7,28,0.00,,---,0.00,VWS V14.01,2013-02-16 22:56:00,
2013-02-16 17:57:00,31.8,-4.7,29.09,WSW,242,7.8,7.8,20,0.00,,---,0.00,VWS V14.01,2013-02-16 22:57:00,
2013-02-16 17:58:00,31.6,-4.8,29.09,WSW,249,4.5,7.8,20,0.00,,---,0.00,VWS V14.01,2013-02-16 22:58:00,
2013-02-16 17:59:00,31.6,-4.8,29.09,WSW,257,4.5,5.4,20,0.00,,---,0.00,VWS V14.01,2013-02-16 22:59:00,
2013-02-16 18:00:00,31.6,-4.8,29.09,West,266,6.3,7.4,20,0.00,,---,0.00,VWS V14.01,2013-02-16 23:00:00,
2013-02-16 18:01:00,19.9,-7.9,29.00,NNW,334,6.9,7.4,28,0.00,,---,0.00,VWS V14.01,2013-02-16 23:01:00,
2013-02-16 18:02:00,31.6,-4.8,29.09,WSW,252,4.0,5.8,20,0.00,,---,0.00,VWS V14.01,2013-02-16 23:02:00,
2013-02-16 18:03:00,31.3,-5.1,29.09,SW,233,6.3,8.7,20,0.00,,---,0.00,VWS V14.01,2013-02-16 23:03:00,
2013-02-16 18:04:00,31.1,-5.3,29.09,West,260,5.8,6.7,20,0.00,,---,0.00,VWS V14.01,2013-02-16 23:04:00,
2013-02-16 18:05:00,30.9,-5.4,29.09,SW,214,4.0,6.7,20,0.00,,---,0.00,VWS V14.01,2013-02-16 23:05:00,
2013-02-16 18:06:00,19.8,-8.1,29.00,NW,313,6.9,11.0,28,0.00,,---,0.00,VWS V14.01,2013-02-16 23:06:00,
2013-02-16 18:07:00,30.9,-5.4,29.09,SW,226,5.8,6.7,20,0.00,,---,0.00,VWS V14.01,2013-02-16 23:07:00,
2013-02-16 18:08:00,31.1,-5.3,29.09,SW,229,4.9,6.3,20,0.00,,---,0.00,VWS V14.01,2013-02-16 23:08:00,
2013-02-16 18:09:00,31.1,-5.3,29.09,SW,232,6.9,6.9,20,0.00,,---,0.00,VWS V14.01,2013-02-16 23:09:00,
2013-02-16 18:10:00,31.1,-5.3,29.09,SW,214,3.6,6.9,20,0.00,,---,0.00,VWS V14.01,2013-02-16 23:10:00,
2013-02-16 18:11:00,19.6,-6.8,29.00,NNW,338,9.2,11.2,30,0.00,,---,0.00,VWS V14.01,2013-02-16 23:11:00,
2013-02-16 18:12:00,30.9,-5.4,29.09,WSW,255,4.0,6.7,20,0.00,,---,0.00,VWS V14.01,2013-02-16 23:12:00,
2013-02-16 18:13:00,30.9,-5.4,29.09,SW,229,6.3,7.8,20,0.00,,---,0.00,VWS V14.01,2013-02-16 23:13:00,
2013-02-16 18:14:00,30.9,-5.4,29.09,West,259,4.5,6.3,20,0.00,,---,0.00,VWS V14.01,2013-02-16 23:14:00,
2013-02-16 18:15:00,30.7,-5.6,29.09,WSW,254,6.7,9.2,20,0.00,,---,0.00,VWS V14.01,2013-02-16 23:15:00,
2013-02-16 18:16:00,19.2,-7.1,29.03,NW,319,9.2,10.5,30,0.00,,---,0.00,VWS V14.01,2013-02-16 23:16:00,
2013-02-16 18:17:00,30.4,-5.9,29.09,WSW,256,8.3,8.3,20,0.00,,---,0.00,VWS V14.01,2013-02-16 23:17:00,
2013-02-16 18:18:00,30.2,-6.0,29.09,WSW,258,5.8,8.3,20,0.00,,---,0.00,VWS V14.01,2013-02-16 23:18:00,
2013-02-16 18:19:00,30.2,-6.0,29.09,SSW,200,4.5,6.7,20,0.00,,---,0.00,VWS V14.01,2013-02-16 23:19:00,
2013-02-16 18:20:00,30.0,-6.2,29.09,WSW,246,0.0,5.8,20,0.00,,---,0.00,VWS V14.01,2013-02-16 23:20:00,
2013-02-16 18:21:00,19.2,-5.2,29.03,NW,322,4.9,11.0,33,0.00,,---,0.00,VWS V14.01,2013-02-16 23:21:00,
2013-02-16 18:22:00,30.0,-6.2,29.09,WSW,246,3.1,4.0,20,0.00,,---,0.00,VWS V14.01,2013-02-16 23:22:00,
2013-02-16 18:23:00,30.0,-6.2,29.09,WSW,257,4.9,5.8,20,0.00,,---,0.00,VWS V14.01,2013-02-16 23:23:00,
2013-02-16 18:24:00,29.8,-6.3,29.09,West,261,3.6,6.3,20,0.00,,---,0.00,VWS V14.01,2013-02-16 23:24:00,
2013-02-16 18:25:00,29.7,-6.5,29.09,West,272,7.4,7.4,20,0.00,,---,0.00,VWS V14.01,2013-02-16 23:25:00,
2013-02-16 18:26:00,18.9,-5.5,29.03,NW,312,8.7,8.7,33,0.00,,---,0.00,VWS V14.01,2013-02-16 23:26:00,
2013-02-16 18:27:00,29.3,-6.8,29.09,West,276,4.0,6.9,20,0.00,,---,0.00,VWS V14.01,2013-02-16 23:27:00,
2013-02-16 18:28:00,29.1,-5.9,29.09,WSW,249,6.9,8.3,21,0.00,,---,0.00,VWS V14.01,2013-02-16 23:28:00,
2013-02-16 18:29:00,28.8,-6.2,29.09,West,262,3.6,6.9,21,0.00,,---,0.00,VWS V14.01,2013-02-16 23:29:00,
2013-02-16 18:30:00,28.8,-6.2,29.09,SW,228,3.6,5.4,21,0.00,,---,0.00,VWS V14.01,2013-02-16 23:30:00,
2013-02-16 18:31:00,18.9,-5.5,29.03,NW,307,6.3,7.8,33,0.00,,---,0.00,VWS V14.01,2013-02-16 23:31:00,
2013-02-16 18:32:00,28.4,-6.5,29.09,WSW,238,4.0,6.9,21,0.00,,---,0.00,VWS V14.01,2013-02-16 23:32:00,
2013-02-16 18:33:00,28.4,-6.5,29.09,WNW,289,6.3,6.3,21,0.00,,---,0.00,VWS V14.01,2013-02-16 23:33:00,
2013-02-16 18:34:00,28.2,-6.7,29.09,WSW,254,2.7,6.3,21,0.00,,---,0.00,VWS V14.01,2013-02-16 23:34:00,
2013-02-16 18:35:00,28.2,-6.7,29.09,West,261,5.8,6.7,21,0.00,,---,0.00,VWS V14.01,2013-02-16 23:35:00,
2013-02-16 18:36:00,18.5,-5.2,29.03,NNW,332,6.7,8.7,34,0.00,,---,0.00,VWS V14.01,2013-02-16 23:36:00,
2013-02-16 18:37:00,28.0,-6.8,29.09,WSW,254,4.5,6.7,21,0.00,,---,0.00,VWS V14.01,2013-02-16 23:37:00,
2013-02-16 18:38:00,28.0,-6.8,29.09,WSW,253,5.8,8.7,21,0.00,,---,0.00,VWS V14.01,2013-02-16 23:38:00,
2013-02-16 18:39:00,27.9,-7.0,29.09,West,264,6.9,6.9,21,0.00,,---,0.00,VWS V14.01,2013-02-16 23:39:00,
2013-02-16 18:40:00,27.9,-7.0,29.09,West,265,2.7,6.9,21,0.00,,---,0.00,VWS V14.01,2013-02-16 23:40:00,
2013-02-16 18:41:00,18.3,-5.3,29.03,NW,311,6.7,6.7,34,0.00,,---,0.00,VWS V14.01,2013-02-16 23:41:00,
2013-02-16 18:42:00,27.7,-7.2,29.09,West,265,0.0,4.9,21,0.00,,---,0.00,VWS V14.01,2013-02-16 23:42:00,
2013-02-16 18:43:00,27.5,-7.3,29.09,West,265,0.0,2.7,21,0.00,,---,0.00,VWS V14.01,2013-02-16 23:43:00,
2013-02-16 18:44:00,27.5,-7.3,29.09,West,265,3.1,3.6,21,0.00,,---,0.00,VWS V14.01,2013-02-16 23:44:00,
2013-02-16 18:45:00,27.5,-7.3,29.09,West,265,5.4,5.4,21,0.00,,---,0.00,VWS V14.01,2013-02-16 23:45:00,
2013-02-16 18:46:00,18.3,-5.3,29.03,NNW,343,5.8,9.2,34,0.00,,---,0.00,VWS V14.01,2013-02-16 23:46:00,
2013-02-16 18:47:00,27.3,-7.4,29.09,West,265,0.0,0.0,21,0.00,,---,0.00,VWS V14.01,2013-02-16 23:47:00,
2013-02-16 18:48:00,27.1,-7.6,29.09,West,265,2.7,4.9,21,0.00,,---,0.00,VWS V14.01,2013-02-16 23:48:00,
2013-02-16 18:49:00,27.1,-7.6,29.09,West,265,0.0,3.1,21,0.00,,---,0.00,VWS V14.01,2013-02-16 23:49:00,
2013-02-16 18:50:00,27.1,-7.6,29.09,West,265,0.0,3.6,21,0.00,,---,0.00,VWS V14.01,2013-02-16 23:50:00,
2013-02-16 18:51:00,27.1,-7.6,29.09,West,265,2.7,3.1,21,0.00,,---,0.00,VWS V14.01,2013-02-16 23:51:00,
2013-02-16 18:52:00,27.0,-7.8,29.09,West,265,2.7,4.5,21,0.00,,---,0.00,VWS V14.01,2013-02-16 23:52:00,
2013-02-16 18:53:00,27.0,-7.8,29.09,West,265,0.0,3.6,21,0.00,,---,0.00,VWS V14.01,2013-02-16 23:53:00,
2013-02-16 18:54:00,18.3,-4.7,29.03,NW,322,4.9,5.4,35,0.00,,---,0.00,VWS V14.01,2013-02-16 23:54:00,
2013-02-16 18:55:00,26.8,-7.9,29.09,West,265,4.5,5.4,21,0.00,,---,0.00,VWS V14.01,2013-02-16 23:55:00,
2013-02-16 18:56:00,26.8,-7.9,29.09,West,265,3.1,5.8,21,0.00,,---,0.00,VWS V14.01,2013-02-16 23:56:00,
2013-02-16 18:57:00,26.6,-8.1,29.09,West,265,0.0,4.5,21,0.00,,---,0.00,VWS V14.01,2013-02-16 23:57:00,
2013-02-16 18:58:00,26.6,-8.1,29.09,West,265,0.0,5.4,21,0.00,,---,0.00,VWS V14.01,2013-02-16 23:58:00,
2013-02-16 18:59:00,18.3,-4.7,29.03,NW,312,7.8,7.8,35,0.00,,---,0.00,VWS V14.01,2013-02-16 23:59:00,
2013-02-16 19:00:00,26.4,-8.2,29.09,West,265,3.6,4.9,21,0.00,,---,0.00,VWS V14.01,2013-02-17 00:00:00,
2013-02-16 19:01:00,26.4,-8.2,29.09,West,265,3.1,4.5,21,0.00,,---,0.00,VWS V14.01,2013-02-17 00:01:00,
2013-02-16 19:02:00,26.2,-8.4,29.09,West,265,5.4,5.4,21,0.00,,---,0.00,VWS V14.01,2013-02-17 00:02:00,
2013-02-16 19:03:00,26.2,-8.4,29.09,West,265,3.1,5.4,21,0.00,,---,0.00,VWS V14.01,2013-02-17 00:03:00,
2013-02-16 19:04:00,18.5,-5.2,29.03,NNW,340,4.5,6.7,34,0.00,,---,0.00,VWS V14.01,2013-02-17 00:04:00,
2013-02-16 19:05:00,26.2,-8.4,29.09,West,264,4.9,6.3,21,0.00,,---,0.00,VWS V14.01,2013-02-17 00:05:00,
2013-02-16 19:06:00,26.1,-8.5,29.09,West,264,4.0,5.4,21,0.00,,---,0.00,VWS V14.01,2013-02-17 00:06:00,
2013-02-16 19:07:00,26.1,-8.5,29.09,West,264,4.0,5.4,21,0.00,,---,0.00,VWS V14.01,2013-02-17 00:07:00,
2013-02-16 19:08:00,25.9,-8.7,29.09,West,263,4.5,4.5,21,0.00,,---,0.00,VWS V14.01,2013-02-17 00:08:00,
2013-02-16 19:09:00,18.5,-5.2,29.03,NNW,327,3.6,5.8,34,0.00,,---,0.00,VWS V14.01,2013-02-17 00:09:00,
2013-02-16 19:10:00,25.9,-8.7,29.09,West,263,0.0,0.0,21,0.00,,---,0.00,VWS V14.01,2013-02-17 00:10:00,
2013-02-16 19:11:00,25.7,-8.8,29.09,West,263,0.0,0.0,21,0.00,,---,0.00,VWS V14.01,2013-02-17 00:11:00,
2013-02-16 19:12:00,25.7,-7.9,29.09,West,263,0.0,0.0,22,0.00,,---,0.00,VWS V14.01,2013-02-17 00:12:00,
2013-02-16 19:13:00,25.5,-8.0,29.09,West,263,0.0,0.0,22,0.00,,---,0.00,VWS V14.01,2013-02-17 00:13:00,
2013-02-16 19:14:00,25.5,-6.2,29.09,West,263,0.0,0.0,24,0.00,,---,0.00,VWS V14.01,2013-02-17 00:14:00,
2013-02-16 19:15:00,25.5,-6.2,29.09,West,263,0.0,3.6,24,0.00,,---,0.00,VWS V14.01,2013-02-17 00:15:00,
2013-02-16 19:16:00,25.5,-6.2,29.09,West,263,0.0,3.6,24,0.00,,---,0.00,VWS V14.01,2013-02-17 00:16:00,
2013-02-16 19:17:00,25.3,-6.4,29.09,West,263,0.0,3.1,24,0.00,,---,0.00,VWS V14.01,2013-02-17 00:17:00,
2013-02-16 19:18:00,25.3,-6.4,29.09,West,263,0.0,0.0,24,0.00,,---,0.00,VWS V14.01,2013-02-17 00:18:00,
2013-02-16 19:19:00,25.3,-6.4,29.09,West,263,0.0,3.1,24,0.00,,---,0.00,VWS V14.01,2013-02-17 00:19:00,
2013-02-16 19:20:00,18.7,-4.4,29.03,NNW,336,5.8,5.8,35,0.00,,---,0.00,VWS V14.01,2013-02-17 00:20:00,
2013-02-16 19:21:00,25.2,-6.6,29.09,West,263,0.0,0.0,24,0.00,,---,0.00,VWS V14.01,2013-02-17 00:21:00,
2013-02-16 19:22:00,25.0,-6.7,29.09,West,263,0.0,0.0,24,0.00,,---,0.00,VWS V14.01,2013-02-17 00:22:00,
2013-02-16 19:23:00,25.0,-6.7,29.09,West,263,0.0,0.0,24,0.00,,---,0.00,VWS V14.01,2013-02-17 00:23:00,
2013-02-16 19:24:00,24.8,-6.9,29.09,West,263,0.0,0.0,24,0.00,,---,0.00,VWS V14.01,2013-02-17 00:24:00,
2013-02-16 19:25:00,24.8,-6.9,29.09,West,263,0.0,0.0,24,0.00,,---,0.00,VWS V14.01,2013-02-17 00:25:00,
2013-02-16 19:26:00,24.8,-6.9,29.09,West,263,0.0,0.0,24,0.00,,---,0.00,VWS V14.01,2013-02-17 00:26:00,
2013-02-16 19:27:00,24.6,-7.0,29.09,West,263,0.0,0.0,24,0.00,,---,0.00,VWS V14.01,2013-02-17 00:27:00,
2013-02-16 19:28:00,24.6,-7.0,29.09,West,263,0.0,0.0,24,0.00,,---,0.00,VWS V14.01,2013-02-17 00:28:00,
2013-02-16 19:29:00,24.6,-7.0,29.09,West,263,0.0,0.0,24,0.00,,---,0.00,VWS V14.01,2013-02-17 00:29:00,
2013-02-16 19:30:00,18.7,-5.0,29.03,NNW,346,6.7,12.1,34,0.00,,---,0.00,VWS V14.01,2013-02-17 00:30:00,
2013-02-16 19:31:00,24.4,-7.2,29.09,West,263,0.0,0.0,24,0.00,,---,0.00,VWS V14.01,2013-02-17 00:31:00,
2013-02-16 19:32:00,24.4,-7.2,29.09,West,263,0.0,0.0,24,0.00,,---,0.00,VWS V14.01,2013-02-17 00:32:00,
2013-02-16 19:33:00,24.3,-7.3,29.09,West,263,0.0,0.0,24,0.00,,---,0.00,VWS V14.01,2013-02-17 00:33:00,
2013-02-16 19:34:00,24.3,-7.3,29.09,West,263,0.0,0.0,24,0.00,,---,0.00,VWS V14.01,2013-02-17 00:34:00,
2013-02-16 19:35:00,24.3,-7.3,29.09,West,263,0.0,0.0,24,0.00,,---,0.00,VWS V14.01,2013-02-17 00:35:00,
2013-02-16 19:36:00,24.3,-7.3,29.09,West,263,0.0,0.0,24,0.00,,---,0.00,VWS V14.01,2013-02-17 00:36:00,
2013-02-16 19:37:00,18.5,-4.6,29.03,NW,319,6.3,6.9,35,0.00,,---,0.00,VWS V14.01,2013-02-17 00:37:00,
2013-02-16 19:38:00,24.1,-7.5,29.09,West,263,0.0,0.0,24,0.00,,---,0.00,VWS V14.01,2013-02-17 00:38:00,
2013-02-16 19:39:00,24.1,-7.5,29.09,West,263,0.0,0.0,24,0.00,,---,0.00,VWS V14.01,2013-02-17 00:39:00,
2013-02-16 19:40:00,24.1,-7.5,29.09,West,263,0.0,0.0,24,0.00,,---,0.00,VWS V14.01,2013-02-17 00:40:00,
2013-02-16 19:41:00,24.1,-7.5,29.09,West,263,0.0,0.0,24,0.00,,---,0.00,VWS V14.01,2013-02-17 00:41:00,
2013-02-16 19:42:00,18.5,-4.0,29.03,NNW,328,4.9,5.8,36,0.00,,---,0.00,VWS V14.01,2013-02-17 00:42:00,
2013-02-16 19:43:00,24.1,-7.5,29.09,West,263,0.0,0.0,24,0.00,,---,0.00,VWS V14.01,2013-02-17 00:43:00,
2013-02-16 19:44:00,24.1,-7.5,29.09,West,263,0.0,0.0,24,0.00,,---,0.00,VWS V14.01,2013-02-17 00:44:00,
2013-02-16 19:45:00,23.9,-7.6,29.09,West,263,0.0,0.0,24,0.00,,---,0.00,VWS V14.01,2013-02-17 00:45:00,
2013-02-16 19:46:00,23.9,-7.6,29.09,West,263,0.0,0.0,24,0.00,,---,0.00,VWS V14.01,2013-02-17 00:46:00,
2013-02-16 19:47:00,23.9,-6.8,29.09,West,263,0.0,0.0,25,0.00,,---,0.00,VWS V14.01,2013-02-17 00:47:00,
2013-02-16 19:48:00,18.5,-4.0,29.03,NW,324,3.6,6.7,36,0.00,,---,0.00,VWS V14.01,2013-02-17 00:48:00,
2013-02-16 19:49:00,23.9,-6.8,29.09,West,263,0.0,0.0,25,0.00,,---,0.00,VWS V14.01,2013-02-17 00:49:00,
2013-02-16 19:50:00,23.9,-5.2,29.09,West,263,0.0,0.0,27,0.00,,---,0.00,VWS V14.01,2013-02-17 00:50:00,
2013-02-16 19:51:00,23.7,-5.4,29.09,West,263,0.0,0.0,27,0.00,,---,0.00,VWS V14.01,2013-02-17 00:51:00,
2013-02-16 19:52:00,23.7,-5.4,29.09,West,263,0.0,0.0,27,0.00,,---,0.00,VWS V14.01,2013-02-17 00:52:00,
2013-02-16 19:53:00,18.3,-3.6,29.03,NW,322,5.8,6.9,37,0.00,,---,0.00,VWS V14.01,2013-02-17 00:53:00,
2013-02-16 19:54:00,23.7,-5.4,29.09,West,263,0.0,0.0,27,0.00,,---,0.00,VWS V14.01,2013-02-17 00:54:00,
2013-02-16 19:55:00,23.7,-5.4,29.09,West,263,0.0,0.0,27,0.00,,---,0.00,VWS V14.01,2013-02-17 00:55:00,
2013-02-16 19:56:00,23.5,-5.5,29.09,West,263,0.0,0.0,27,0.00,,---,0.00,VWS V14.01,2013-02-17 00:56:00,
2013-02-16 19:57:00,23.5,-5.5,29.09,West,263,0.0,0.0,27,0.00,,---,0.00,VWS V14.01,2013-02-17 00:57:00,
2013-02-16 19:58:00,18.1,-3.2,29.03,NW,325,4.5,6.9,38,0.00,,---,0.00,VWS V14.01,2013-02-17 00:58:00,
2013-02-16 19:59:00,23.5,-5.5,29.09,West,263,0.0,0.0,27,0.00,,---,0.00,VWS V14.01,2013-02-17 00:59:00,
2013-02-16 20:00:00,23.5,-3.3,29.09,West,263,0.0,0.0,30,0.00,,---,0.00,VWS V14.01,2013-02-17 01:00:00,
2013-02-16 20:01:00,23.4,-3.5,29.09,West,263,0.0,0.0,30,0.00,,---,0.00,VWS V14.01,2013-02-17 01:01:00,
2013-02-16 20:02:00,23.4,-3.5,29.09,West,263,0.0,0.0,30,0.00,,---,0.00,VWS V14.01,2013-02-17 01:02:00,
2013-02-16 20:03:00,23.4,-3.5,29.09,West,263,0.0,0.0,30,0.00,,---,0.00,VWS V14.01,2013-02-17 01:03:00,
2013-02-16 20:04:00,18.1,-2.1,29.03,WNW,303,4.9,6.7,40,0.00,,---,0.00,VWS V14.01,2013-02-17 01:04:00,
2013-02-16 20:05:00,23.2,-3.6,29.09,West,263,0.0,0.0,30,0.00,,---,0.00,VWS V14.01,2013-02-17 01:05:00,
2013-02-16 20:06:00,23.2,-3.6,29.09,West,263,0.0,0.0,30,0.00,,---,0.00,VWS V14.01,2013-02-17 01:06:00,
2013-02-16 20:07:00,23.2,-3.6,29.09,West,263,0.0,0.0,30,0.00,,---,0.00,VWS V14.01,2013-02-17 01:07:00,
2013-02-16 20:08:00,23.2,-3.6,29.09,West,263,0.0,0.0,30,0.00,,---,0.00,VWS V14.01,2013-02-17 01:08:00,
2013-02-16 20:09:00,18.1,-1.6,29.03,NW,312,0.0,4.9,41,0.00,,---,0.00,VWS V14.01,2013-02-17 01:09:00,
2013-02-16 20:10:00,23.2,-2.3,29.09,West,263,0.0,0.0,32,0.00,,---,0.00,VWS V14.01,2013-02-17 01:10:00,
2013-02-16 20:11:00,23.0,-2.5,29.09,West,263,0.0,0.0,32,0.00,,---,0.00,VWS V14.01,2013-02-17 01:11:00,
2013-02-16 20:12:00,23.0,-2.5,29.09,West,263,0.0,0.0,32,0.00,,---,0.00,VWS V14.01,2013-02-17 01:12:00,
2013-02-16 20:13:00,23.0,-2.5,29.09,West,263,0.0,3.6,32,0.00,,---,0.00,VWS V14.01,2013-02-17 01:13:00,
2013-02-16 20:15:00,18.1,-0.6,29.03,NW,314,4.5,5.8,43,0.00,,---,0.00,VWS V14.01,2013-02-17 01:15:00,
2013-02-16 20:16:00,23.0,-1.8,29.09,West,263,3.1,3.6,33,0.00,,---,0.00,VWS V14.01,2013-02-17 01:16:00,
2013-02-16 20:17:00,23.0,-1.8,29.09,West,263,4.5,5.4,33,0.00,,---,0.00,VWS V14.01,2013-02-17 01:17:00,
2013-02-16 20:18:00,23.2,-1.6,29.09,West,263,4.0,4.9,33,0.00,,---,0.00,VWS V14.01,2013-02-17 01:18:00,
2013-02-16 20:19:00,23.2,-1.0,29.09,West,263,0.0,4.0,34,0.00,,---,0.00,VWS V14.01,2013-02-17 01:19:00,
2013-02-16 20:20:00,23.2,-1.0,29.09,West,263,2.7,4.0,34,0.00,,---,0.00,VWS V14.01,2013-02-17 01:20:00,
2013-02-16 20:21:00,18.1,-0.6,29.03,NW,317,5.8,5.8,43,0.00,,---,0.00,VWS V14.01,2013-02-17 01:21:00,
2013-02-16 20:22:00,23.2,-1.0,29.09,West,263,4.5,4.5,34,0.00,,---,0.00,VWS V14.01,2013-02-17 01:22:00,
2013-02-16 20:23:00,23.2,-1.0,29.09,West,263,3.6,4.5,34,0.00,,---,0.00,VWS V14.01,2013-02-17 01:23:00,
2013-02-16 20:24:00,23.2,-1.0,29.09,West,263,2.7,4.0,34,0.00,,---,0.00,VWS V14.01,2013-02-17 01:24:00,
2013-02-16 20:25:00,23.2,-1.0,29.09,West,263,4.5,4.5,34,0.00,,---,0.00,VWS V14.01,2013-02-17 01:25:00,
2013-02-16 20:26:00,18.1,-0.6,29.03,NNW,341,4.0,5.8,43,0.00,,---,0.00,VWS V14.01,2013-02-17 01:26:00,
2013-02-16 20:27:00,23.2,-1.0,29.09,West,263,4.0,4.9,34,0.00,,---,0.00,VWS V14.01,2013-02-17 01:27:00,
2013-02-16 20:28:00,23.2,-1.0,29.09,West,263,3.6,4.0,34,0.00,,---,0.00,VWS V14.01,2013-02-17 01:28:00,
2013-02-16 20:29:00,23.2,-1.0,29.09,West,263,3.6,5.4,34,0.00,,---,0.00,VWS V14.01,2013-02-17 01:29:00,
2013-02-16 20:30:00,23.4,-0.9,29.09,West,263,4.0,4.9,34,0.00,,---,0.00,VWS V14.01,2013-02-17 01:30:00,
2013-02-16 20:31:00,18.1,-0.1,29.03,NNW,338,4.5,5.4,44,0.00,,---,0.00,VWS V14.01,2013-02-17 01:31:00,
2013-02-16 20:32:00,23.4,-0.9,29.09,West,263,4.0,4.9,34,0.00,,---,0.00,VWS V14.01,2013-02-17 01:32:00,
2013-02-16 20:33:00,23.4,-0.9,29.09,West,263,4.5,5.4,34,0.00,,---,0.00,VWS V14.01,2013-02-17 01:33:00,
2013-02-16 20:34:00,23.4,-0.9,29.09,West,263,3.6,5.8,34,0.00,,---,0.00,VWS V14.01,2013-02-17 01:34:00,
2013-02-16 20:35:00,23.4,-0.9,29.09,West,263,4.0,4.0,34,0.00,,---,0.00,VWS V14.01,2013-02-17 01:35:00,
2013-02-16 20:36:00,18.1,-0.1,29.03,NNW,333,7.4,8.7,44,0.00,,---,0.00,VWS V14.01,2013-02-17 01:36:00,
2013-02-16 20:37:00,23.4,-0.9,29.09,West,263,0.0,3.6,34,0.00,,---,0.00,VWS V14.01,2013-02-17 01:37:00,
2013-02-16 20:38:00,23.4,-0.9,29.09,West,263,2.7,3.6,34,0.00,,---,0.00,VWS V14.01,2013-02-17 01:38:00,
2013-02-16 20:39:00,23.4,-0.9,29.09,West,263,4.9,5.4,34,0.00,,---,0.00,VWS V14.01,2013-02-17 01:39:00,
2013-02-16 20:40:00,23.4,-0.9,29.09,SE,145,4.9,7.4,34,0.00,,---,0.00,VWS V14.01,2013-02-17 01:40:00,
2013-02-16 20:41:00,18.1,-0.1,29.03,NW,317,6.3,7.4,44,0.00,,---,0.00,VWS V14.01,2013-02-17 01:41:00,
2013-02-16 20:42:00,23.5,-0.7,29.09,SSE,168,4.5,5.8,34,0.00,,---,0.00,VWS V14.01,2013-02-17 01:42:00,
2013-02-16 20:43:00,23.5,-0.7,29.09,SSE,168,2.7,4.5,34,0.00,,---,0.00,VWS V14.01,2013-02-17 01:43:00,
2013-02-16 20:44:00,23.5,-0.7,29.09,SSE,151,3.1,4.9,34,0.00,,---,0.00,VWS V14.01,2013-02-17 01:44:00,
2013-02-16 20:45:00,23.5,-0.7,29.09,SSE,151,0.0,4.0,34,0.00,,---,0.00,VWS V14.01,2013-02-17 01:45:00,
2013-02-16 20:46:00,18.1,-0.6,29.03,NNW,330,3.1,6.3,43,0.00,,---,0.00,VWS V14.01,2013-02-17 01:46:00,
2013-02-16 20:47:00,23.5,-0.7,29.09,SE,143,4.0,4.5,34,0.00,,---,0.00,VWS V14.01,2013-02-17 01:47:00,
2013-02-16 20:48:00,23.5,-0.7,29.09,SE,143,3.6,4.9,34,0.00,,---,0.00,VWS V14.01,2013-02-17 01:48:00,
2013-02-16 20:49:00,23.5,-0.7,29.09,SE,143,2.7,4.0,34,0.00,,---,0.00,VWS V14.01,2013-02-17 01:49:00,
2013-02-16 20:50:00,23.4,-0.9,29.09,SSE,150,4.0,5.8,34,0.00,,---,0.00,VWS V14.01,2013-02-17 01:50:00,
2013-02-16 20:51:00,18.1,-0.6,29.03,NW,324,3.1,4.9,43,0.00,,---,0.00,VWS V14.01,2013-02-17 01:51:00,
2013-02-16 20:52:00,23.4,-0.9,29.09,SSE,150,3.1,4.5,34,0.00,,---,0.00,VWS V14.01,2013-02-17 01:52:00,
2013-02-16 20:53:00,23.4,-0.9,29.09,SSE,148,4.0,5.4,34,0.00,,---,0.00,VWS V14.01,2013-02-17 01:53:00,
2013-02-16 20:54:00,23.4,-0.9,29.09,SSE,148,2.7,4.0,34,0.00,,---,0.00,VWS V14.01,2013-02-17 01:54:00,
2013-02-16 20:55:00,23.4,-0.9,29.09,SSE,148,4.0,4.0,34,0.00,,---,0.00,VWS V14.01,2013-02-17 01:55:00,
2013-02-16 20:56:00,18.1,-0.6,29.03,NNW,338,6.7,8.3,43,0.00,,---,0.00,VWS V14.01,2013-02-17 01:56:00,
2013-02-16 20:57:00,23.2,-1.0,29.09,SSE,148,2.7,3.6,34,0.00,,---,0.00,VWS V14.01,2013-02-17 01:57:00,
2013-02-16 20:58:00,23.2,-1.0,29.09,SSE,148,4.0,4.5,34,0.00,,---,0.00,VWS V14.01,2013-02-17 01:58:00,
2013-02-16 20:59:00,23.2,-1.0,29.09,SSE,148,0.0,5.4,34,0.00,,---,0.00,VWS V14.01,2013-02-17 01:59:00,
2013-02-16 21:00:00,23.2,-1.0,29.09,SSE,148,2.7,4.5,34,0.00,,---,0.00,VWS V14.01,2013-02-17 02:00:00,
2013-02-16 21:01:00,18.1,-0.6,29.03,NNW,336,4.9,5.8,43,0.00,,---,0.00,VWS V14.01,2013-02-17 02:01:00,
2013-02-16 21:02:00,23.2,-1.0,29.09,SSE,148,4.0,5.8,34,0.00,,---,0.00,VWS V14.01,2013-02-17 02:02:00,
2013-02-16 21:04:00,23.2,-1.0,29.09,SSE,148,4.0,4.0,34,0.00,,---,0.00,VWS V14.01,2013-02-17 02:04:00,
2013-02-16 21:05:00,23.2,-1.0,29.09,SSE,148,4.0,4.9,34,0.00,,---,0.00,VWS V14.01,2013-02-17 02:05:00,
2013-02-16 21:06:00,23.2,-0.4,29.09,SSE,148,4.9,6.3,35,0.00,,---,0.00,VWS V14.01,2013-02-17 02:06:00,
2013-02-16 21:07:00,18.0,-2.3,29.03,NNW,334,5.4,9.2,40,0.00,,---,0.00,VWS V14.01,2013-02-17 02:07:00,
2013-02-16 21:08:00,23.2,-0.4,29.09,SSE,148,3.1,5.4,35,0.00,,---,0.00,VWS V14.01,2013-02-17 02:08:00,
2013-02-16 21:09:00,23.2,-0.4,29.09,SSE,148,3.1,3.1,35,0.00,,---,0.00,VWS V14.01,2013-02-17 02:09:00,
2013-02-16 21:10:00,23.0,-0.6,29.09,SSE,148,0.0,3.1,35,0.00,,---,0.00,VWS V14.01,2013-02-17 02:10:00,
2013-02-16 21:11:00,23.0,-0.6,29.09,SSE,148,0.0,0.0,35,0.00,,---,0.00,VWS V14.01,2013-02-17 02:11:00,
2013-02-16 21:12:00,18.0,-1.8,29.03,NW,325,4.9,6.3,41,0.00,,---,0.00,VWS V14.01,2013-02-17 02:12:00,
2013-02-16 21:13:00,23.0,-0.6,29.09,SSE,148,0.0,4.0,35,0.00,,---,0.00,VWS V14.01,2013-02-17 02:13:00,
2013-02-16 21:14:00,23.0,-0.6,29.09,SSE,148,0.0,0.0,35,0.00,,---,0.00,VWS V14.01,2013-02-17 02:14:00,
2013-02-16 21:15:00,23.0,-0.6,29.09,SSE,148,2.7,3.1,35,0.00,,---,0.00,VWS V14.01,2013-02-17 02:15:00,
2013-02-16 21:16:00,22.8,-0.7,29.09,SSE,148,3.6,4.9,35,0.00,,---,0.00,VWS V14.01,2013-02-17 02:16:00,
2013-02-16 21:17:00,22.8,-0.7,29.09,SSE,148,0.0,4.5,35,0.00,,---,0.00,VWS V14.01,2013-02-17 02:17:00,
2013-02-16 21:18:00,17.8,-0.9,29.03,NNW,330,3.1,4.5,43,0.00,,---,0.00,VWS V14.01,2013-02-17 02:18:00,
2013-02-16 21:19:00,22.8,-0.1,29.09,SSE,148,3.6,5.4,36,0.00,,---,0.00,VWS V14.01,2013-02-17 02:19:00,
2013-02-16 21:20:00,22.8,-0.1,29.09,SSE,148,5.4,6.3,36,0.00,,---,0.00,VWS V14.01,2013-02-17 02:20:00,
2013-02-16 21:21:00,22.8,-0.1,29.09,SSE,147,0.0,5.4,36,0.00,,---,0.00,VWS V14.01,2013-02-17 02:21:00,
2013-02-16 21:22:00,22.8,-0.1,29.09,SSE,147,0.0,0.0,36,0.00,,---,0.00,VWS V14.01,2013-02-17 02:22:00,
2013-02-16 21:23:00,17.6,-1.1,29.03,NNW,328,6.9,8.7,43,0.00,,---,0.00,VWS V14.01,2013-02-17 02:23:00,
2013-02-16 21:24:00,22.8,-0.1,29.09,SSE,147,0.0,0.0,36,0.00,,---,0.00,VWS V14.01,2013-02-17 02:24:00,
2013-02-16 21:25:00,22.8,-0.1,29.09,SSE,148,3.6,4.0,36,0.00,,---,0.00,VWS V14.01,2013-02-17 02:25:00,
2013-02-16 21:26:00,22.8,-0.1,29.09,SSE,147,0.0,4.0,36,0.00,,---,0.00,VWS V14.01,2013-02-17 02:26:00,
2013-02-16 21:27:00,22.6,0.3,29.09,SSE,147,3.6,3.6,37,0.00,,---,0.00,VWS V14.01,2013-02-17 02:27:00,
2013-02-16 21:28:00,17.6,-1.1,29.03,NW,325,5.8,6.9,43,0.00,,---,0.00,VWS V14.01,2013-02-17 02:28:00,
2013-02-16 21:29:00,22.6,0.3,29.09,SSE,147,0.0,0.0,37,0.00,,---,0.00,VWS V14.01,2013-02-17 02:29:00,
2013-02-16 21:30:00,22.5,0.1,29.09,SSE,147,0.0,0.0,37,0.00,,---,0.00,VWS V14.01,2013-02-17 02:30:00,
2013-02-16 21:31:00,22.5,0.1,29.09,SSE,148,0.0,0.0,37,0.00,,---,0.00,VWS V14.01,2013-02-17 02:31:00,
2013-02-16 21:32:00,22.5,0.1,29.09,SSE,147,4.5,5.4,37,0.00,,---,0.00,VWS V14.01,2013-02-17 02:32:00,
2013-02-16 21:33:00,17.6,-1.1,29.03,NNW,329,5.4,6.3,43,0.00,,---,0.00,VWS V14.01,2013-02-17 02:33:00,
2013-02-16 21:34:00,22.5,0.7,29.09,SSE,147,4.9,5.8,38,0.00,,---,0.00,VWS V14.01,2013-02-17 02:34:00,
2013-02-16 21:35:00,22.6,0.9,29.09,SSE,147,4.0,5.8,38,0.00,,---,0.00,VWS V14.01,2013-02-17 02:35:00,
2013-02-16 21:36:00,22.6,0.9,29.09,SSE,147,3.1,4.0,38,0.00,,---,0.00,VWS V14.01,2013-02-17 02:36:00,
2013-02-16 21:37:00,22.6,0.9,29.09,SSE,147,3.1,5.4,38,0.00,,---,0.00,VWS V14.01,2013-02-17 02:37:00,
2013-02-16 21:38:00,17.6,-0.6,29.03,NNW,340,4.0,6.7,44,0.00,,---,0.00,VWS V14.01,2013-02-17 02:38:00,
2013-02-16 21:39:00,22.6,1.4,29.09,SSE,147,0.0,0.0,39,0.00,,---,0.00,VWS V14.01,2013-02-17 02:39:00,
2013-02-16 21:40:00,22.5,1.3,29.09,SSE,147,3.6,3.6,39,0.00,,---,0.00,VWS V14.01,2013-02-17 02:40:00,
2013-02-16 21:41:00,22.5,1.3,29.09,SSE,147,0.0,3.6,39,0.00,,---,0.00,VWS V14.01,2013-02-17 02:41:00,
2013-02-16 21:42:00,22.3,1.1,29.09,SSE,147,0.0,0.0,39,0.00,,---,0.00,VWS V14.01,2013-02-17 02:42:00,
2013-02-16 21:43:00,22.3,1.1,29.09,SSE,147,3.6,4.5,39,0.00,,---,0.00,VWS V14.01,2013-02-17 02:43:00,
2013-02-16 21:44:00,17.6,-1.1,29.03,NNW,338,0.0,3.1,43,0.00,,---,0.00,VWS V14.01,2013-02-17 02:44:00,
2013-02-16 21:45:00,22.3,1.1,29.09,SSE,147,0.0,3.6,39,0.00,,---,0.00,VWS V14.01,2013-02-17 02:45:00,
2013-02-16 21:46:00,22.3,1.6,29.09,SSE,147,0.0,0.0,40,0.00,,---,0.00,VWS V14.01,2013-02-17 02:46:00,
2013-02-16 21:47:00,22.3,1.6,29.09,SSE,147,4.0,4.0,40,0.00,,---,0.00,VWS V14.01,2013-02-17 02:47:00,
2013-02-16 21:48:00,22.3,1.6,29.09,SSE,147,0.0,4.9,40,0.00,,---,0.00,VWS V14.01,2013-02-17 02:48:00,
2013-02-16 21:49:00,17.6,-1.1,29.03,North,0,0.0,4.5,43,0.00,,---,0.00,VWS V14.01,2013-02-17 02:49:00,
2013-02-16 21:50:00,22.3,2.2,29.09,SSE,147,0.0,0.0,41,0.00,,---,0.00,VWS V14.01,2013-02-17 02:50:00,
2013-02-16 21:51:00,22.1,2.0,29.09,SSE,147,0.0,0.0,41,0.00,,---,0.00,VWS V14.01,2013-02-17 02:51:00,
2013-02-16 21:52:00,22.1,2.0,29.09,SSE,147,0.0,0.0,41,0.00,,---,0.00,VWS V14.01,2013-02-17 02:52:00,
2013-02-16 21:53:00,22.1,2.0,29.09,SSE,147,0.0,0.0,41,0.00,,---,0.00,VWS V14.01,2013-02-17 02:53:00,
2013-02-16 21:54:00,17.6,-1.1,29.03,NNW,331,3.1,3.6,43,0.00,,---,0.00,VWS V14.01,2013-02-17 02:54:00,
2013-02-16 21:55:00,21.9,1.8,29.09,SSE,147,0.0,0.0,41,0.00,,---,0.00,VWS V14.01,2013-02-17 02:55:00,
2013-02-16 21:56:00,21.9,1.8,29.09,SSE,147,3.6,3.6,41,0.00,,---,0.00,VWS V14.01,2013-02-17 02:56:00,
2013-02-16 21:57:00,21.7,1.7,29.09,SSE,147,3.6,4.0,41,0.00,,---,0.00,VWS V14.01,2013-02-17 02:57:00,
2013-02-16 21:58:00,21.7,2.2,29.09,SSE,147,0.0,3.6,42,0.00,,---,0.00,VWS V14.01,2013-02-17 02:58:00,
2013-02-16 21:59:00,17.6,-1.1,29.03,NW,323,4.9,7.8,43,0.00,,---,0.00,VWS V14.01,2013-02-17 02:59:00,
2013-02-16 22:00:00,21.7,2.7,29.09,SSE,148,0.0,3.6,43,0.00,,---,0.00,VWS V14.01,2013-02-17 03:00:00,
2013-02-16 22:01:00,21.7,2.7,29.09,SSE,147,2.7,3.6,43,0.00,,---,0.00,VWS V14.01,2013-02-17 03:01:00,
2013-02-16 22:02:00,21.7,2.7,29.09,SSE,147,0.0,2.7,43,0.00,,---,0.00,VWS V14.01,2013-02-17 03:02:00,
2013-02-16 22:03:00,21.7,2.7,29.09,SSE,147,0.0,0.0,43,0.00,,---,0.00,VWS V14.01,2013-02-17 03:03:00,
2013-02-16 22:04:00,17.6,-1.1,29.03,NW,325,6.7,8.7,43,0.00,,---,0.00,VWS V14.01,2013-02-17 03:04:00,
2013-02-16 22:05:00,21.7,2.7,29.09,SSE,148,0.0,2.7,43,0.00,,---,0.00,VWS V14.01,2013-02-17 03:05:00,
2013-02-16 22:06:00,21.7,2.7,29.09,SSE,147,0.0,2.7,43,0.00,,---,0.00,VWS V14.01,2013-02-17 03:06:00,
2013-02-16 22:07:00,21.7,2.7,29.09,SSE,147,3.1,3.1,43,0.00,,---,0.00,VWS V14.01,2013-02-17 03:07:00,
2013-02-16 22:08:00,21.7,2.7,29.09,SSE,147,3.1,3.1,43,0.00,,---,0.00,VWS V14.01,2013-02-17 03:08:00,
2013-02-16 22:09:00,17.4,-1.2,29.03,NNW,331,4.5,8.7,43,0.00,,---,0.00,VWS V14.01,2013-02-17 03:09:00,
2013-02-16 22:10:00,21.7,2.7,29.09,SSE,147,2.7,3.6,43,0.00,,---,0.00,VWS V14.01,2013-02-17 03:10:00,
2013-02-16 22:11:00,21.7,2.7,29.09,SSE,147,4.0,4.0,43,0.00,,---,0.00,VWS V14.01,2013-02-17 03:11:00,
2013-02-16 22:12:00,21.7,2.7,29.09,SSE,147,4.5,4.9,43,0.00,,---,0.00,VWS V14.01,2013-02-17 03:12:00,
2013-02-16 22:13:00,21.7,3.2,29.09,SSE,147,3.1,5.4,44,0.00,,---,0.00,VWS V14.01,2013-02-17 03:13:00,
2013-02-16 22:14:00,17.4,-1.2,29.03,NNW,338,6.3,6.3,43,0.00,,---,0.00,VWS V14.01,2013-02-17 03:14:00,
2013-02-16 22:15:00,21.9,3.4,29.09,SSE,147,4.0,4.5,44,0.00,,---,0.00,VWS V14.01,2013-02-17 03:15:00,
2013-02-16 22:16:00,21.9,3.4,29.09,SSE,147,4.0,4.0,44,0.00,,---,0.00,VWS V14.01,2013-02-17 03:16:00,
2013-02-16 22:17:00,21.9,3.4,29.09,SSE,147,0.0,4.0,44,0.00,,---,0.00,VWS V14.01,2013-02-17 03:17:00,
2013-02-16 22:18:00,21.9,3.4,29.09,SSE,147,4.0,4.5,44,0.00,,---,0.00,VWS V14.01,2013-02-17 03:18:00,
2013-02-16 22:19:00,17.2,-0.9,29.03,NW,326,2.7,5.4,44,0.00,,---,0.00,VWS V14.01,2013-02-17 03:19:00,
2013-02-16 22:20:00,21.9,3.4,29.09,SSE,147,5.4,5.4,44,0.00,,---,0.00,VWS V14.01,2013-02-17 03:20:00,
2013-02-16 22:21:00,21.9,3.4,29.09,SSE,147,4.0,5.4,44,0.00,,---,0.00,VWS V14.01,2013-02-17 03:21:00,
2013-02-16 22:22:00,22.1,3.5,29.09,SSE,147,4.0,6.3,44,0.00,,---,0.00,VWS V14.01,2013-02-17 03:22:00,
2013-02-16 22:23:00,22.1,3.5,29.09,SSE,147,4.0,4.9,44,0.00,,---,0.00,VWS V14.01,2013-02-17 03:23:00,
2013-02-16 22:24:00,17.2,-0.9,29.03,NNW,336,2.7,6.7,44,0.00,,---,0.00,VWS V14.01,2013-02-17 03:24:00,
2013-02-16 22:25:00,22.3,3.7,29.09,SSE,150,6.3,6.3,44,0.00,,---,0.00,VWS V14.01,2013-02-17 03:25:00,
2013-02-16 22:26:00,22.3,3.7,29.09,SE,141,4.0,8.3,44,0.00,,---,0.00,VWS V14.01,2013-02-17 03:26:00,
2013-02-16 22:27:00,22.3,3.7,29.09,SE,141,4.0,4.9,44,0.00,,---,0.00,VWS V14.01,2013-02-17 03:27:00,
2013-02-16 22:28:00,22.3,3.7,29.09,SSE,147,4.5,6.3,44,0.00,,---,0.00,VWS V14.01,2013-02-17 03:28:00,
2013-02-16 22:29:00,16.9,-0.8,29.03,NNE,25,4.9,4.9,45,0.00,,---,0.00,VWS V14.01,2013-02-17 03:29:00,
2013-02-16 22:30:00,22.5,3.9,29.09,SSE,147,4.9,4.9,44,0.00,,---,0.00,VWS V14.01,2013-02-17 03:30:00,
2013-02-16 22:31:00,22.3,3.7,29.09,SE,138,4.5,6.3,44,0.00,,---,0.00,VWS V14.01,2013-02-17 03:31:00,
2013-02-16 22:32:00,22.3,3.7,29.09,SSE,149,4.5,4.9,44,0.00,,---,0.00,VWS V14.01,2013-02-17 03:32:00,
2013-02-16 22:33:00,22.3,3.7,29.09,SSE,148,4.5,4.9,44,0.00,,---,0.00,VWS V14.01,2013-02-17 03:33:00,
2013-02-16 22:34:00,22.3,3.2,29.09,SSE,148,4.5,4.9,43,0.00,,---,0.00,VWS V14.01,2013-02-17 03:34:00,
2013-02-16 22:35:00,16.7,-1.4,29.03,NNW,327,2.7,5.8,44,0.00,,---,0.00,VWS V14.01,2013-02-17 03:35:00,
2013-02-16 22:36:00,22.3,3.2,29.09,SE,144,5.4,6.7,43,0.00,,---,0.00,VWS V14.01,2013-02-17 03:36:00,
2013-02-16 22:37:00,22.3,3.2,29.09,SSE,159,5.4,5.8,43,0.00,,---,0.00,VWS V14.01,2013-02-17 03:37:00,
2013-02-16 22:38:00,22.3,3.2,29.09,SSE,158,4.0,6.3,43,0.00,,---,0.00,VWS V14.01,2013-02-17 03:38:00,
2013-02-16 22:39:00,22.3,3.2,29.09,SSE,151,3.6,7.4,43,0.00,,---,0.00,VWS V14.01,2013-02-17 03:39:00,
2013-02-16 22:40:00,22.3,3.2,29.09,SSE,155,4.5,4.5,43,0.00,,---,0.00,VWS V14.01,2013-02-17 03:40:00,
2013-02-16 22:41:00,16.7,-0.9,29.03,NNW,329,3.6,4.9,45,0.00,,---,0.00,VWS V14.01,2013-02-17 03:41:00,
2013-02-16 22:42:00,22.1,3.0,29.09,SSE,155,2.7,4.0,43,0.00,,---,0.00,VWS V14.01,2013-02-17 03:42:00,
2013-02-16 22:43:00,22.1,3.0,29.09,SSE,155,0.0,3.1,43,0.00,,---,0.00,VWS V14.01,2013-02-17 03:43:00,
2013-02-16 22:44:00,22.1,3.5,29.09,SSE,155,0.0,0.0,44,0.00,,---,0.00,VWS V14.01,2013-02-17 03:44:00,
2013-02-16 22:45:00,21.9,3.4,29.09,SSE,155,0.0,0.0,44,0.00,,---,0.00,VWS V14.01,2013-02-17 03:45:00,
2013-02-16 22:46:00,21.7,3.2,29.09,SSE,155,0.0,0.0,44,0.00,,---,0.00,VWS V14.01,2013-02-17 03:46:00,
2013-02-16 22:47:00,16.5,-0.6,29.06,NNW,332,0.0,3.1,46,0.00,,---,0.00,VWS V14.01,2013-02-17 03:47:00,
2013-02-16 22:48:00,21.6,2.5,29.09,SSE,155,0.0,4.0,43,0.00,,---,0.00,VWS V14.01,2013-02-17 03:48:00,
2013-02-16 22:49:00,21.6,2.5,29.09,SSE,155,0.0,2.7,43,0.00,,---,0.00,VWS V14.01,2013-02-17 03:49:00,
2013-02-16 22:50:00,21.6,2.5,29.09,SSE,155,3.1,4.5,43,0.00,,---,0.00,VWS V14.01,2013-02-17 03:50:00,
2013-02-16 22:51:00,21.6,2.5,29.09,SSE,155,0.0,3.6,43,0.00,,---,0.00,VWS V14.01,2013-02-17 03:51:00,
2013-02-16 22:52:00,16.3,-0.8,29.06,NNW,345,0.0,3.1,46,0.00,,---,0.00,VWS V14.01,2013-02-17 03:52:00,
2013-02-16 22:53:00,21.4,2.9,29.09,SSE,155,0.0,0.0,44,0.00,,---,0.00,VWS V14.01,2013-02-17 03:53:00,
2013-02-16 22:54:00,21.4,2.9,29.09,SSE,155,0.0,0.0,44,0.00,,---,0.00,VWS V14.01,2013-02-17 03:54:00,
2013-02-16 22:55:00,21.4,2.9,29.09,SSE,155,3.1,3.6,44,0.00,,---,0.00,VWS V14.01,2013-02-17 03:55:00,
2013-02-16 22:56:00,21.2,2.7,29.09,SSE,155,2.7,3.6,44,0.00,,---,0.00,VWS V14.01,2013-02-17 03:56:00,
2013-02-16 22:57:00,16.0,-0.7,29.06,NE,37,3.6,6.7,47,0.00,,---,0.00,VWS V14.01,2013-02-17 03:57:00,
2013-02-16 22:58:00,21.4,2.9,29.09,SSE,155,0.0,0.0,44,0.00,,---,0.00,VWS V14.01,2013-02-17 03:58:00,
2013-02-16 22:59:00,21.4,2.9,29.09,SSE,155,0.0,0.0,44,0.00,,---,0.00,VWS V14.01,2013-02-17 03:59:00,
2013-02-16 23:00:00,21.2,2.7,29.09,SSE,155,0.0,0.0,44,0.00,,---,0.00,VWS V14.01,2013-02-17 04:00:00,
2013-02-16 23:01:00,21.2,3.2,29.09,SSE,155,0.0,0.0,45,0.00,,---,0.00,VWS V14.01,2013-02-17 04:01:00,
2013-02-16 23:02:00,15.6,-0.1,29.06,NNE,13,0.0,0.0,49,0.00,,---,0.00,VWS V14.01,2013-02-17 04:02:00,
2013-02-16 23:03:00,21.2,3.2,29.09,SSE,155,0.0,0.0,45,0.00,,---,0.00,VWS V14.01,2013-02-17 04:03:00,
2013-02-16 23:04:00,21.2,3.2,29.09,SSE,155,0.0,0.0,45,0.00,,---,0.00,VWS V14.01,2013-02-17 04:04:00,
2013-02-16 23:05:00,21.2,3.2,29.09,SSE,155,0.0,0.0,45,0.00,,---,0.00,VWS V14.01,2013-02-17 04:05:00,
2013-02-16 23:06:00,21.2,3.2,29.09,SSE,155,0.0,0.0,45,0.00,,---,0.00,VWS V14.01,2013-02-17 04:06:00,
2013-02-16 23:07:00,15.4,1.0,29.06,NNE,13,0.0,0.0,52,0.00,,---,0.00,VWS V14.01,2013-02-17 04:07:00,
2013-02-16 23:08:00,21.0,3.0,29.09,SSE,155,0.0,0.0,45,0.00,,---,0.00,VWS V14.01,2013-02-17 04:08:00,
2013-02-16 23:09:00,21.0,3.0,29.09,SSE,155,0.0,0.0,45,0.00,,---,0.00,VWS V14.01,2013-02-17 04:09:00,
2013-02-16 23:10:00,21.0,3.5,29.09,SSE,155,0.0,0.0,46,0.00,,---,0.00,VWS V14.01,2013-02-17 04:10:00,
2013-02-16 23:11:00,21.0,3.5,29.09,SSE,155,0.0,0.0,46,0.00,,---,0.00,VWS V14.01,2013-02-17 04:11:00,
2013-02-16 23:12:00,15.3,2.0,29.06,NNW,339,4.5,5.8,55,0.00,,---,0.00,VWS V14.01,2013-02-17 04:12:00,
2013-02-16 23:13:00,21.0,3.5,29.09,SSE,155,0.0,0.0,46,0.00,,---,0.00,VWS V14.01,2013-02-17 04:13:00,
2013-02-16 23:14:00,21.2,3.7,29.09,SSE,155,0.0,0.0,46,0.00,,---,0.00,VWS V14.01,2013-02-17 04:14:00,
2013-02-16 23:15:00,21.2,3.7,29.09,SSE,155,0.0,0.0,46,0.00,,---,0.00,VWS V14.01,2013-02-17 04:15:00,
2013-02-16 23:16:00,21.0,3.5,29.09,SSE,155,0.0,0.0,46,0.00,,---,0.00,VWS V14.01,2013-02-17 04:16:00,
2013-02-16 23:17:00,15.3,2.8,29.06,NNW,339,3.6,4.9,57,0.00,,---,0.00,VWS V14.01,2013-02-17 04:17:00,
2013-02-16 23:18:00,21.2,3.7,29.09,SSE,155,0.0,0.0,46,0.00,,---,0.00,VWS V14.01,2013-02-17 04:18:00,
2013-02-16 23:19:00,21.2,3.7,29.09,SSE,155,3.1,5.4,46,0.00,,---,0.00,VWS V14.01,2013-02-17 04:19:00,
2013-02-16 23:20:00,21.2,3.7,29.09,SSE,155,4.9,4.9,46,0.00,,---,0.00,VWS V14.01,2013-02-17 04:20:00,
2013-02-16 23:21:00,21.2,3.7,29.09,SE,144,4.5,5.8,46,0.00,,---,0.00,VWS V14.01,2013-02-17 04:21:00,
2013-02-16 23:22:00,15.3,3.2,29.06,NNW,338,3.6,5.8,58,0.00,,---,0.00,VWS V14.01,2013-02-17 04:22:00,
2013-02-16 23:23:00,21.4,3.8,29.09,SSE,149,3.1,5.8,46,0.00,,---,0.00,VWS V14.01,2013-02-17 04:23:00,
2013-02-16 23:24:00,21.4,3.8,29.09,SSE,149,3.1,4.5,46,0.00,,---,0.00,VWS V14.01,2013-02-17 04:24:00,
2013-02-16 23:25:00,21.4,3.8,29.09,SSE,149,2.7,4.0,46,0.00,,---,0.00,VWS V14.01,2013-02-17 04:25:00,
2013-02-16 23:26:00,21.4,3.8,29.09,SSE,160,4.0,4.0,46,0.00,,---,0.00,VWS V14.01,2013-02-17 04:26:00,
2013-02-16 23:27:00,15.1,3.0,29.06,NNW,338,4.5,5.4,58,0.00,,---,0.00,VWS V14.01,2013-02-17 04:27:00,
2013-02-16 23:28:00,21.4,3.8,29.09,SSE,160,4.0,4.5,46,0.00,,---,0.00,VWS V14.01,2013-02-17 04:28:00,
2013-02-16 23:29:00,21.4,3.8,29.09,SSE,160,3.6,4.0,46,0.00,,---,0.00,VWS V14.01,2013-02-17 04:29:00,
2013-02-16 23:30:00,21.4,3.8,29.09,SSE,160,2.7,4.0,46,0.00,,---,0.00,VWS V14.01,2013-02-17 04:30:00,
2013-02-16 23:31:00,21.4,3.8,29.09,SSE,160,3.6,4.9,46,0.00,,---,0.00,VWS V14.01,2013-02-17 04:31:00,
2013-02-16 23:32:00,15.1,3.3,29.06,NW,321,4.9,7.4,59,0.00,,---,0.00,VWS V14.01,2013-02-17 04:32:00,
2013-02-16 23:33:00,21.4,3.8,29.09,SSE,160,4.5,4.5,46,0.00,,---,0.00,VWS V14.01,2013-02-17 04:33:00,
2013-02-16 23:34:00,21.4,3.8,29.09,SSE,152,4.5,5.8,46,0.00,,---,0.00,VWS V14.01,2013-02-17 04:34:00,
2013-02-16 23:35:00,21.4,3.8,29.09,SSE,152,4.0,4.9,46,0.00,,---,0.00,VWS V14.01,2013-02-17 04:35:00,
2013-02-16 23:36:00,21.4,3.8,29.09,SSE,152,0.0,4.0,46,0.00,,---,0.00,VWS V14.01,2013-02-17 04:36:00,
2013-02-16 23:37:00,14.9,3.2,29.06,NNW,329,4.9,5.4,59,0.00,,---,0.00,VWS V14.01,2013-02-17 04:37:00,
2013-02-16 23:38:00,21.4,3.8,29.09,SSE,152,3.6,3.6,46,0.00,,---,0.00,VWS V14.01,2013-02-17 04:38:00,
2013-02-16 23:39:00,21.4,3.3,29.09,SSE,152,4.0,4.0,45,0.00,,---,0.00,VWS V14.01,2013-02-17 04:39:00,
2013-02-16 23:40:00,21.4,3.3,29.09,SSE,152,4.0,4.9,45,0.00,,---,0.00,VWS V14.01,2013-02-17 04:40:00,
2013-02-16 23:41:00,21.4,3.3,29.09,SSE,152,4.9,5.4,45,0.00,,---,0.00,VWS V14.01,2013-02-17 04:41:00,
2013-02-16 23:42:00,14.7,3.0,29.03,NNW,329,2.7,4.0,59,0.00,,---,0.00,VWS V14.01,2013-02-17 04:42:00,
2013-02-16 23:43:00,21.4,3.3,29.09,SSE,152,4.0,5.8,45,0.00,,---,0.00,VWS V14.01,2013-02-17 04:43:00,
2013-02-16 23:44:00,21.4,3.3,29.09,SSE,149,4.5,6.3,45,0.00,,---,0.00,VWS V14.01,2013-02-17 04:44:00,
2013-02-16 23:45:00,21.4,3.3,29.09,SSE,148,4.5,5.4,45,0.00,,---,0.00,VWS V14.01,2013-02-17 04:45:00,
2013-02-16 23:46:00,21.6,3.5,29.09,SSE,148,4.9,5.8,45,0.00,,---,0.00,VWS V14.01,2013-02-17 04:46:00,
2013-02-16 23:47:00,14.5,3.2,29.03,NNW,329,4.9,4.9,60,0.00,,---,0.00,VWS V14.01,2013-02-17 04:47:00,
2013-02-16 23:48:00,21.6,3.0,29.09,SE,146,6.3,6.3,44,0.00,,---,0.00,VWS V14.01,2013-02-17 04:48:00,
2013-02-16 23:49:00,21.7,3.2,29.09,SE,137,6.7,6.7,44,0.00,,---,0.00,VWS V14.01,2013-02-17 04:49:00,
2013-02-16 23:50:00,21.7,3.2,29.09,SE,144,4.9,7.4,44,0.00,,---,0.00,VWS V14.01,2013-02-17 04:50:00,
2013-02-16 23:51:00,21.7,3.2,29.09,SSE,154,5.4,6.3,44,0.00,,---,0.00,VWS V14.01,2013-02-17 04:51:00,
2013-02-16 23:52:00,14.4,3.0,29.03,NNW,329,4.0,4.0,60,0.00,,---,0.00,VWS V14.01,2013-02-17 04:52:00,
2013-02-16 23:53:00,21.9,2.9,29.09,SSE,148,6.3,6.7,43,0.00,,---,0.00,VWS V14.01,2013-02-17 04:53:00,
2013-02-16 23:54:00,21.9,2.9,29.09,SSE,151,4.5,6.7,43,0.00,,---,0.00,VWS V14.01,2013-02-17 04:54:00,
2013-02-16 23:55:00,22.1,3.0,29.09,SSE,151,4.5,5.4,43,0.00,,---,0.00,VWS V14.01,2013-02-17 04:55:00,
2013-02-16 23:56:00,22.1,3.0,29.09,SSE,147,6.9,6.9,43,0.00,,---,0.00,VWS V14.01,2013-02-17 04:56:00,
2013-02-16 23:57:00,14.2,3.2,29.03,NNW,329,2.7,3.6,61,0.00,,---,0.00,VWS V14.01,2013-02-17 04:57:00,
2013-02-16 23:58:00,22.1,2.5,29.09,SE,140,5.4,7.4,42,0.00,,---,0.00,VWS V14.01,2013-02-17 04:58:00,
2013-02-16 23:59:00,22.1,2.5,29.09,SE,141,5.8,7.4,42,0.00,,---,0.00,VWS V14.01,2013-02-17 04:59:00,